Provisional Data: Driftwood Branch Sinnemahoning Creek


Please select a monitoring station.
Please select start date.
Please select start date.

Toggle Unit: C/F Toggle Unit: C/F
Sample Time Temperature (C) Temperature (F) Specific Conductivity (mS/cm) pH   Turbidity (NTU+) DO (mg/L)
3/7/2021 12:00:00 AM 1.04 33.872 0.059 6.66 2.44 13.59
3/7/2021 12:15:00 AM 1.01 33.818 0.059 6.65 2.42 13.6
3/7/2021 12:30:00 AM 0.96 33.728 0.059 6.65 2.5 13.62
3/7/2021 12:45:00 AM 0.91 33.638 0.059 6.65 2.36 13.64
3/7/2021 1:00:00 AM 0.86 33.548 0.059 6.65 2.36 13.66
3/7/2021 1:15:00 AM 0.8 33.44 0.059 6.65 2.39 13.67
3/7/2021 1:30:00 AM 0.74 33.332 0.059 6.64 2.4 13.69
3/7/2021 1:45:00 AM 0.69 33.242 0.059 6.64 2.39 13.71
3/7/2021 2:00:00 AM 0.63 33.134 0.059 6.64 2.38 13.74
3/7/2021 2:15:00 AM 0.57 33.026 0.059 6.63 2.41 13.76
3/7/2021 2:30:00 AM 0.51 32.918 0.059 6.66 2.4 13.79
3/7/2021 2:45:00 AM 0.45 32.81 0.059 6.63 2.41 13.8
3/7/2021 3:00:00 AM 0.39 32.702 0.059 6.63 2.38 13.83
3/7/2021 3:15:00 AM 0.33 32.594 0.059 6.64 2.51 13.85
3/7/2021 3:30:00 AM 0.27 32.486 0.059 6.65 2.34 13.88
3/7/2021 3:45:00 AM 0.22 32.396 0.059 6.64 2.41 13.9
3/7/2021 4:00:00 AM 0.16 32.288 0.059 6.63 2.41 13.93
3/7/2021 4:15:00 AM 0.1 32.18 0.059 6.64 2.38 13.95
3/7/2021 4:30:00 AM 0.04 32.072 0.059 6.63 2.42 13.98
3/7/2021 4:45:00 AM -0.01 31.982 0.059 6.64 2.5 14
3/7/2021 5:00:00 AM -0.07 31.874 0.059 6.64 2.48 14.04
3/7/2021 5:15:00 AM -0.09 31.838 0.06 6.64 2.45 14.06
3/7/2021 5:30:00 AM -0.1 31.82 0.06 6.66 2.4 14.07
3/7/2021 5:45:00 AM -0.1 31.82 0.06 6.65 2.45 14.11
3/7/2021 6:00:00 AM -0.09 31.838 0.06 6.64 2.39 14.13
3/7/2021 6:15:00 AM -0.09 31.838 0.06 6.65 2.44 14.15
3/7/2021 6:30:00 AM -0.08 31.856 0.06 6.67 2.6 14.15
3/7/2021 6:45:00 AM -0.08 31.856 0.06 6.65 2.61 14.17
3/7/2021 7:00:00 AM -0.08 31.856 0.06 6.65 2.63 14.2
3/7/2021 7:15:00 AM -0.08 31.856 0.06 6.67 2.52 14.24
3/7/2021 7:30:00 AM -0.07 31.874 0.06 6.67 2.44 14.3
3/7/2021 7:45:00 AM -0.07 31.874 0.06 6.68 2.5 14.34
3/7/2021 8:00:00 AM -0.07 31.874 0.06 6.7 2.4 14.37
3/7/2021 8:15:00 AM -0.07 31.874 0.06 6.7 2.38 14.39
3/7/2021 8:30:00 AM -0.07 31.874 0.06 6.7 2.33 14.43
3/7/2021 8:45:00 AM -0.07 31.874 0.06 6.71 2.32 14.44
3/7/2021 9:00:00 AM -0.07 31.874 0.06 6.72 2.33 14.44
3/7/2021 9:15:00 AM -0.07 31.874 0.06 6.73 2.37 14.45
3/7/2021 9:30:00 AM -0.07 31.874 0.06 6.73 2.37 14.46
3/7/2021 9:45:00 AM -0.07 31.874 0.06 6.74 2.3 14.46
3/7/2021 10:00:00 AM -0.03 31.946 0.06 6.73 2.36 14.43
3/7/2021 10:15:00 AM 0.09 32.162 0.06 6.73 2.25 14.43
3/7/2021 10:30:00 AM 0.17 32.306 0.06 6.74 2.33 14.4
3/7/2021 10:45:00 AM 0.35 32.63 0.06 6.76 2.25 14.36
3/7/2021 11:00:00 AM 0.58 33.044 0.059 6.77 2.21 14.31
3/7/2021 11:15:00 AM 0.82 33.476 0.059 6.78 3.13 14.26
3/7/2021 11:30:00 AM 1.03 33.854 0.059 6.79 2.24 14.22
3/7/2021 11:45:00 AM 1.28 34.304 0.059 6.8 2.21 14.15
3/7/2021 12:00:00 PM 1.5 34.7 0.058 6.81 2.25 14.07
3/7/2021 12:15:00 PM 1.72 35.096 0.058 6.81 2.26 14.01
3/7/2021 12:30:00 PM 1.91 35.438 0.058 6.81 2.25 13.95
3/7/2021 12:45:00 PM 2.07 35.726 0.058 6.81 2.33 13.9
3/7/2021 1:00:00 PM 2.22 35.996 0.057 6.81 2.29 13.85
3/7/2021 1:15:00 PM 2.38 36.284 0.057 6.82 2.28 13.78
3/7/2021 1:30:00 PM 2.52 36.536 0.057 6.82 2.3 13.73
3/7/2021 1:45:00 PM 2.66 36.788 0.057 6.83 2.28 13.66
3/7/2021 2:00:00 PM 2.84 37.112 0.058 6.83 2.36 13.58
3/7/2021 2:15:00 PM 2.97 37.346 0.057 6.84 2.39 13.53
3/7/2021 2:30:00 PM 3.09 37.562 0.057 6.84 2.41 13.47
3/7/2021 2:45:00 PM 3.19 37.742 0.057 6.83 2.52 13.42
3/7/2021 3:00:00 PM 3.25 37.85 0.057 6.82 2.61 13.37
3/7/2021 3:15:00 PM 3.3 37.94 0.057 6.81 2.57 13.33
3/7/2021 3:30:00 PM 3.35 38.03 0.057 6.81 2.65 13.29
3/7/2021 3:45:00 PM 3.37 38.066 0.057 6.83 2.71 13.26
3/7/2021 4:00:00 PM 3.36 38.048 0.057 6.8 2.77 13.24
3/7/2021 4:15:00 PM 3.33 37.994 0.057 6.8 2.8 13.23
3/7/2021 4:30:00 PM 3.27 37.886 0.057 6.8 2.88 13.23
3/7/2021 4:45:00 PM 3.18 37.724 0.057 6.79 2.9 13.23
3/7/2021 5:00:00 PM 3.05 37.49 0.057 6.78 2.83 13.24
3/7/2021 5:15:00 PM 2.94 37.292 0.057 6.77 2.74 13.23
3/7/2021 5:30:00 PM 2.84 37.112 0.057 6.77 2.75 13.24
3/7/2021 5:45:00 PM 2.74 36.932 0.057 6.75 2.77 13.24
3/7/2021 6:00:00 PM 2.63 36.734 0.057 6.74 2.65 13.25
3/7/2021 6:15:00 PM 2.51 36.518 0.057 6.71 2.7 13.25
3/7/2021 6:30:00 PM 2.41 36.338 0.057 6.71 2.58 13.24
3/7/2021 6:45:00 PM 2.29 36.122 0.057 6.71 2.61 13.25
3/7/2021 7:00:00 PM 2.18 35.924 0.057 6.69 2.6 13.27
3/7/2021 7:15:00 PM 2.08 35.744 0.058 6.69 2.58 13.28
3/7/2021 7:30:00 PM 1.96 35.528 0.058 6.67 2.53 13.31
3/7/2021 7:45:00 PM 1.85 35.33 0.058 6.65 2.44 13.34
3/7/2021 8:00:00 PM 1.74 35.132 0.058 6.64 2.44 13.38
3/7/2021 8:15:00 PM 1.62 34.916 0.058 6.65 2.45 13.42
3/7/2021 8:30:00 PM 1.51 34.718 0.058 6.63 2.46 13.47
3/7/2021 8:45:00 PM 1.39 34.502 0.058 6.63 2.51 13.52
3/7/2021 9:00:00 PM 1.28 34.304 0.058 6.64 2.36 13.56
3/7/2021 9:15:00 PM 1.17 34.106 0.059 6.64 2.5 13.61
3/7/2021 9:30:00 PM 1.07 33.926 0.059 6.63 2.39 13.64
3/7/2021 9:45:00 PM 0.97 33.746 0.059 6.63 2.42 13.68
3/7/2021 10:00:00 PM 0.88 33.584 0.059 6.63 2.38 13.71
3/7/2021 10:15:00 PM 0.79 33.422 0.059 6.62 2.37 13.75
3/7/2021 10:30:00 PM 0.7 33.26 0.059 6.62 2.42 13.79
3/7/2021 10:45:00 PM 0.62 33.116 0.059 6.61 2.38 13.82
3/7/2021 11:00:00 PM 0.54 32.972 0.059 6.63 2.4 13.85
3/7/2021 11:15:00 PM 0.47 32.846 0.059 6.63 2.35 13.88
3/7/2021 11:30:00 PM 0.39 32.702 0.059 6.62 2.38 13.91
3/7/2021 11:45:00 PM 0.32 32.576 0.06 6.62 2.3 13.94
3/8/2021 12:00:00 AM 0.25 32.45 0.06 6.64 2.29 13.97
3/8/2021 12:15:00 AM 0.19 32.342 0.06 6.64 2.32 13.99
3/8/2021 12:30:00 AM 0.12 32.216 0.06 6.62 2.33 14.02
3/8/2021 12:45:00 AM 0.06 32.108 0.06 6.62 2.26 14.05
3/8/2021 1:00:00 AM 0 32 0.06 6.62 2.27 14.08
3/8/2021 1:15:00 AM -0.04 31.928 0.06 6.62 2.29 14.11
3/8/2021 1:30:00 AM -0.07 31.874 0.06 6.63 2.35 14.13
3/8/2021 1:45:00 AM -0.09 31.838 0.06 6.64 2.35 14.15
3/8/2021 2:00:00 AM -0.1 31.82 0.06 6.65 2.42 14.16
3/8/2021 2:15:00 AM -0.1 31.82 0.061 6.65 2.29 14.19
3/8/2021 2:30:00 AM -0.09 31.838 0.061 6.67 2.32 14.21
3/8/2021 2:45:00 AM -0.09 31.838 0.061 6.69 2.4 14.2
3/8/2021 3:00:00 AM -0.08 31.856 0.061 6.66 2.47 14.23
3/8/2021 3:15:00 AM -0.08 31.856 0.061 6.64 2.42 14.22
3/8/2021 3:30:00 AM -0.08 31.856 0.061 6.65 2.38 14.23
3/8/2021 3:45:00 AM -0.07 31.874 0.061 6.67 2.34 14.25
3/8/2021 4:00:00 AM -0.07 31.874 0.061 6.65 2.34 14.26
3/8/2021 4:15:00 AM -0.07 31.874 0.061 6.67 2.22 14.24
3/8/2021 4:30:00 AM -0.07 31.874 0.061 6.67 2.3 14.26
3/8/2021 4:45:00 AM -0.07 31.874 0.061 6.66 2.28 14.26
3/8/2021 5:00:00 AM -0.07 31.874 0.062 6.66 2.32 14.25
3/8/2021 5:15:00 AM -0.07 31.874 0.062 6.66 2.29 14.26
3/8/2021 5:30:00 AM -0.07 31.874 0.062 6.65 2.32 14.26
3/8/2021 5:45:00 AM -0.07 31.874 0.062 6.66 2.18 14.28
3/8/2021 6:00:00 AM -0.07 31.874 0.062 6.66 2.14 14.28
3/8/2021 6:15:00 AM -0.07 31.874 0.062 6.67 2.18 14.26
3/8/2021 6:30:00 AM -0.07 31.874 0.063 6.67 2.18 14.28
3/8/2021 6:45:00 AM -0.07 31.874 0.063 6.66 2.11 14.29
3/8/2021 7:00:00 AM -0.07 31.874 0.063 6.67 2.13 14.31
3/8/2021 7:15:00 AM -0.07 31.874 0.063 6.67 2.14 14.34
3/8/2021 7:30:00 AM -0.07 31.874 0.063 6.68 2.12 14.36
3/8/2021 7:45:00 AM -0.07 31.874 0.063 6.68 2.13 14.39
3/8/2021 8:00:00 AM -0.07 31.874 0.063 6.7 2.06 14.42
3/8/2021 8:15:00 AM -0.07 31.874 0.063 6.68 2.14 14.44
3/8/2021 8:30:00 AM -0.07 31.874 0.063 6.71 2.1 14.44
3/8/2021 8:45:00 AM -0.07 31.874 0.063 6.71 2.17 14.45
3/8/2021 9:00:00 AM -0.07 31.874 0.063 6.72 2.14 14.52
3/8/2021 9:15:00 AM -0.07 31.874 0.063 6.72 2.16 14.51
3/8/2021 9:30:00 AM -0.07 31.874 0.063 6.71 2.08 14.51
3/8/2021 9:45:00 AM -0.07 31.874 0.063 6.73 2.14 14.51
3/8/2021 10:00:00 AM -0.07 31.874 0.063 6.73 2.07 14.5
3/8/2021 10:15:00 AM -0.07 31.874 0.063 6.75 2.35 14.49
3/8/2021 10:30:00 AM -0.07 31.874 0.063 6.76 2.17 14.49
3/8/2021 10:45:00 AM -0.07 31.874 0.063 6.77 2.37 14.46
3/8/2021 11:00:00 AM 0.04 32.072 0.062 6.75 2.63 14.46
3/8/2021 11:15:00 AM 0.13 32.234 0.062 6.76 2.44 14.45
3/8/2021 11:30:00 AM 0.17 32.306 0.061 6.76 2.4 14.43
3/8/2021 11:45:00 AM 0.12 32.216 0.061 6.76 2.45 14.42
3/8/2021 12:00:00 PM 0.14 32.252 0.061 6.77 2.35 14.4
3/8/2021 12:15:00 PM 0.18 32.324 0.061 6.76 2.41 14.39
3/8/2021 12:30:00 PM 0.23 32.414 0.061 6.77 2.31 14.38
3/8/2021 12:45:00 PM 0.32 32.576 0.061 6.78 2.33 14.38
3/8/2021 1:00:00 PM 0.44 32.792 0.06 6.79 2.29 14.35
3/8/2021 1:15:00 PM 0.55 32.99 0.06 6.8 2.33 14.34
3/8/2021 1:30:00 PM 0.67 33.206 0.059 6.8 3.18 14.32
3/8/2021 1:45:00 PM 0.8 33.44 0.059 6.81 2.42 14.29
3/8/2021 2:00:00 PM 0.9 33.62 0.059 6.8 2.39 14.25
3/8/2021 2:15:00 PM 0.98 33.764 0.059 6.8 2.47 14.22
3/8/2021 2:30:00 PM 1.02 33.836 0.058 6.79 2.53 14.2
3/8/2021 2:45:00 PM 1.22 34.196 0.058 6.83 2.56 14.16
3/8/2021 3:00:00 PM 1.36 34.448 0.059 6.82 2.48 14.11
3/8/2021 3:15:00 PM 1.45 34.61 0.058 6.82 2.59 14.06
3/8/2021 3:30:00 PM 1.54 34.772 0.058 6.83 2.53 14.02
3/8/2021 3:45:00 PM 1.65 34.97 0.058 6.83 2.71 13.96
3/8/2021 4:00:00 PM 1.75 35.15 0.058 6.83 2.51 13.92
3/8/2021 4:15:00 PM 1.81 35.258 0.058 6.83 2.73 13.88
3/8/2021 4:30:00 PM 1.87 35.366 0.057 6.82 2.53 13.84
3/8/2021 4:45:00 PM 1.89 35.402 0.058 6.8 2.68 13.8
3/8/2021 5:00:00 PM 1.87 35.366 0.058 6.8 2.65 13.77
3/8/2021 5:15:00 PM 1.87 35.366 0.058 6.79 2.69 13.72
3/8/2021 5:30:00 PM 1.88 35.384 0.058 6.79 2.61 13.69
3/8/2021 5:45:00 PM 1.88 35.384 0.058 6.78 2.59 13.65
3/8/2021 6:00:00 PM 1.87 35.366 0.058 6.77 2.57 13.62
3/8/2021 6:15:00 PM 1.85 35.33 0.058 6.76 2.66 13.57
3/8/2021 6:30:00 PM 1.81 35.258 0.058 6.74 2.63 13.53
3/8/2021 6:45:00 PM 1.76 35.168 0.058 6.73 2.61 13.5
3/8/2021 7:00:00 PM 1.71 35.078 0.058 6.72 2.58 13.5
3/8/2021 7:15:00 PM 1.67 35.006 0.058 6.71 2.53 13.48
3/8/2021 7:30:00 PM 1.62 34.916 0.058 6.72 2.57 13.48
3/8/2021 7:45:00 PM 1.57 34.826 0.058 6.69 2.56 13.49
3/8/2021 8:00:00 PM 1.51 34.718 0.058 6.68 2.58 13.5
3/8/2021 8:15:00 PM 1.45 34.61 0.058 6.69 2.46 13.51
3/8/2021 8:30:00 PM 1.39 34.502 0.058 6.67 2.43 13.54
3/8/2021 8:45:00 PM 1.33 34.394 0.059 6.67 2.46 13.55
3/8/2021 9:00:00 PM 1.26 34.268 0.059 6.67 2.47 13.58
3/8/2021 9:15:00 PM 1.21 34.178 0.059 6.67 2.43 13.59
3/8/2021 9:30:00 PM 1.18 34.124 0.059 6.66 2.37 13.61
3/8/2021 9:45:00 PM 1.16 34.088 0.059 6.66 2.33 13.61
3/8/2021 10:00:00 PM 1.15 34.07 0.059 6.66 2.31 13.62
3/8/2021 10:15:00 PM 1.14 34.052 0.059 6.66 2.35 13.64
3/8/2021 10:30:00 PM 1.13 34.034 0.059 6.65 2.24 13.63
3/8/2021 10:45:00 PM 1.13 34.034 0.059 6.67 2.27 13.64
3/8/2021 11:00:00 PM 1.12 34.016 0.059 6.66 2.31 13.65
3/8/2021 11:15:00 PM 1.09 33.962 0.059 6.66 2.29 13.65
3/8/2021 11:30:00 PM 1.06 33.908 0.059 6.66 2.15 13.65
3/8/2021 11:45:00 PM 1.03 33.854 0.059 6.67 2.25 13.65
3/9/2021 12:00:00 AM 1.01 33.818 0.059 6.66 2.21 13.66
3/9/2021 12:15:00 AM 1 33.8 0.059 6.66 2.22 13.67
3/9/2021 12:30:00 AM 1 33.8 0.059 6.65 2.17 13.67
3/9/2021 12:45:00 AM 0.99 33.782 0.059 6.67 2.21 13.68
3/9/2021 1:00:00 AM 0.98 33.764 0.059 6.66 2.22 13.69
3/9/2021 1:15:00 AM 0.97 33.746 0.059 6.66 2.23 13.69
3/9/2021 1:30:00 AM 0.97 33.746 0.06 6.66 2.23 13.69
3/9/2021 1:45:00 AM 0.96 33.728 0.06 6.65 2.14 13.69
3/9/2021 2:00:00 AM 0.94 33.692 0.06 6.66 2.12 13.7
3/9/2021 2:15:00 AM 0.93 33.674 0.06 6.67 2.16 13.7
3/9/2021 2:30:00 AM 0.91 33.638 0.06 6.66 2.16 13.7
3/9/2021 2:45:00 AM 0.89 33.602 0.06 6.65 2.06 13.7
3/9/2021 3:00:00 AM 0.88 33.584 0.06 6.67 2.15 13.71
3/9/2021 3:15:00 AM 0.86 33.548 0.06 6.65 2.12 13.71
3/9/2021 3:30:00 AM 0.84 33.512 0.06 6.65 2.2 13.72
3/9/2021 3:45:00 AM 0.81 33.458 0.06 6.66 2.08 13.72
3/9/2021 4:00:00 AM 0.78 33.404 0.06 6.66 2.1 13.73
3/9/2021 4:15:00 AM 0.75 33.35 0.06 6.65 2.13 13.74
3/9/2021 4:30:00 AM 0.73 33.314 0.06 6.66 2.13 13.75
3/9/2021 4:45:00 AM 0.7 33.26 0.06 6.65 2.09 13.76
3/9/2021 5:00:00 AM 0.68 33.224 0.06 6.65 2.17 13.77
3/9/2021 5:15:00 AM 0.65 33.17 0.06 6.65 2.18 13.78
3/9/2021 5:30:00 AM 0.63 33.134 0.06 6.66 2.15 13.79
3/9/2021 5:45:00 AM 0.61 33.098 0.06 6.64 2.13 13.79
3/9/2021 6:00:00 AM 0.59 33.062 0.06 6.65 2.08 13.8
3/9/2021 6:15:00 AM 0.57 33.026 0.06 6.65 2.07 13.81
3/9/2021 6:30:00 AM 0.54 32.972 0.06 6.65 2.05 13.82
3/9/2021 6:45:00 AM 0.53 32.954 0.06 6.65 2.13 13.84
3/9/2021 7:00:00 AM 0.51 32.918 0.06 6.66 2.13 13.89
3/9/2021 7:15:00 AM 0.51 32.918 0.06 6.67 2.05 13.93
3/9/2021 7:30:00 AM 0.51 32.918 0.06 6.68 2.08 13.99
3/9/2021 7:45:00 AM 0.52 32.936 0.06 6.68 2.02 14.03
3/9/2021 8:00:00 AM 0.54 32.972 0.06 6.7 2.06 14.08
3/9/2021 8:15:00 AM 0.59 33.062 0.06 6.71 2.06 14.12
3/9/2021 8:30:00 AM 0.65 33.17 0.06 6.72 2.14 14.14
3/9/2021 8:45:00 AM 0.71 33.278 0.06 6.73 2.03 14.16
3/9/2021 9:00:00 AM 0.81 33.458 0.06 6.75 2 14.17
3/9/2021 9:15:00 AM 0.92 33.656 0.06 6.76 2 14.16
3/9/2021 9:30:00 AM 1.06 33.908 0.06 6.76 1.94 14.15
3/9/2021 9:45:00 AM 1.21 34.178 0.059 6.77 1.97 14.12
3/9/2021 10:00:00 AM 1.38 34.484 0.059 6.79 2.02 14.09
3/9/2021 10:15:00 AM 1.56 34.808 0.059 6.8 2.04 14.06
3/9/2021 10:30:00 AM 1.76 35.168 0.059 6.82 2.02 14.01
3/9/2021 10:45:00 AM 1.96 35.528 0.059 6.82 2.01 13.96
3/9/2021 11:00:00 AM 2.18 35.924 0.059 6.84 1.95 13.91
3/9/2021 11:15:00 AM 2.44 36.392 0.059 6.84 1.96 13.84
3/9/2021 11:30:00 AM 2.72 36.896 0.059 6.86 2 13.76
3/9/2021 11:45:00 AM 2.99 37.382 0.059 6.87 1.94 13.68
3/9/2021 12:00:00 PM 3.3 37.94 0.059 6.87 1.91 13.6
3/9/2021 12:15:00 PM 3.59 38.462 0.059 6.88 1.9 13.51
3/9/2021 12:30:00 PM 3.89 39.002 0.058 6.89 1.91 13.41
3/9/2021 12:45:00 PM 4.18 39.524 0.058 6.89 1.94 13.32
3/9/2021 1:00:00 PM 4.44 39.992 0.058 6.93 1.92 13.23
3/9/2021 1:15:00 PM 4.7 40.46 0.058 6.91 1.98 13.14
3/9/2021 1:30:00 PM 4.92 40.856 0.058 6.9 1.92 13.06
3/9/2021 1:45:00 PM 5.13 41.234 0.058 6.91 2.05 12.98
3/9/2021 2:00:00 PM 5.33 41.594 0.058 6.91 2 12.9
3/9/2021 2:15:00 PM 5.49 41.882 0.058 6.91 2.03 12.83
3/9/2021 2:30:00 PM 5.65 42.17 0.058 6.91 2.05 12.77
3/9/2021 2:45:00 PM 5.78 42.404 0.058 6.91 2.13 12.7
3/9/2021 3:00:00 PM 5.91 42.638 0.059 6.93 2.44 12.64
3/9/2021 3:15:00 PM 6 42.8 0.058 6.92 2.25 12.58
3/9/2021 3:30:00 PM 6.08 42.944 0.059 6.91 2.35 12.54
3/9/2021 3:45:00 PM 6.12 43.016 0.059 6.9 2.38 12.49
3/9/2021 4:00:00 PM 6.14 43.052 0.059 6.9 2.31 12.45
3/9/2021 4:15:00 PM 6.13 43.034 0.059 6.88 2.26 12.4
3/9/2021 4:30:00 PM 6.11 42.998 0.059 6.88 2.31 12.37
3/9/2021 4:45:00 PM 6.08 42.944 0.059 6.87 2.27 12.34
3/9/2021 5:00:00 PM 6.02 42.836 0.059 6.87 2.43 12.31
3/9/2021 5:15:00 PM 5.96 42.728 0.06 6.87 2.44 12.28
3/9/2021 5:30:00 PM 5.87 42.566 0.06 6.83 2.59 12.26
3/9/2021 5:45:00 PM 5.79 42.422 0.06 6.81 2.7 12.23
3/9/2021 6:00:00 PM 5.68 42.224 0.06 6.8 2.95 12.22
3/9/2021 6:15:00 PM 5.56 42.008 0.061 6.79 3.18 12.2
3/9/2021 6:30:00 PM 5.41 41.738 0.061 6.77 3.02 12.2
3/9/2021 6:45:00 PM 5.27 41.486 0.061 6.75 2.89 12.2
3/9/2021 7:00:00 PM 5.13 41.234 0.062 6.74 3.12 12.22
3/9/2021 7:15:00 PM 4.99 40.982 0.062 6.73 3.09 12.25
3/9/2021 7:30:00 PM 4.83 40.694 0.062 6.72 3.03 12.28
3/9/2021 7:45:00 PM 4.68 40.424 0.063 6.71 3.05 12.32
3/9/2021 8:00:00 PM 4.53 40.154 0.063 6.7 3.08 12.37
3/9/2021 8:15:00 PM 4.38 39.884 0.063 6.69 3.19 12.42
3/9/2021 8:30:00 PM 4.23 39.614 0.064 6.7 3.25 12.47
3/9/2021 8:45:00 PM 4.08 39.344 0.064 6.68 3.24 12.51
3/9/2021 9:00:00 PM 3.95 39.11 0.064 6.68 3.28 12.56
3/9/2021 9:15:00 PM 3.82 38.876 0.064 6.68 3.43 12.6
3/9/2021 9:30:00 PM 3.7 38.66 0.065 6.68 3.24 12.65
3/9/2021 9:45:00 PM 3.59 38.462 0.065 6.71 3.28 12.68
3/9/2021 10:00:00 PM 3.49 38.282 0.065 6.69 3.24 12.73
3/9/2021 10:15:00 PM 3.4 38.12 0.065 6.68 3.15 12.76
3/9/2021 10:30:00 PM 3.31 37.958 0.065 6.67 3.53 12.79
3/9/2021 10:45:00 PM 3.22 37.796 0.065 6.68 3.34 12.82
3/9/2021 11:00:00 PM 3.13 37.634 0.065 6.67 3.32 12.86
3/9/2021 11:15:00 PM 3.04 37.472 0.065 6.68 3.28 12.88
3/9/2021 11:30:00 PM 2.96 37.328 0.066 6.66 3.45 12.92
3/9/2021 11:45:00 PM 2.89 37.202 0.066 6.66 3.27 12.95
3/10/2021 12:00:00 AM 2.81 37.058 0.066 6.66 3.3 12.98
3/10/2021 12:15:00 AM 2.74 36.932 0.066 6.66 3.36 13
3/10/2021 12:30:00 AM 2.68 36.824 0.066 6.66 3.3 13.03
3/10/2021 12:45:00 AM 2.61 36.698 0.066 6.66 3.15 13.05
3/10/2021 1:00:00 AM 2.55 36.59 0.065 6.67 3.22 13.08
3/10/2021 1:15:00 AM 2.49 36.482 0.066 6.66 3.18 13.1
3/10/2021 1:30:00 AM 2.43 36.374 0.065 6.66 3.28 13.12
3/10/2021 1:45:00 AM 2.38 36.284 0.066 6.66 3.2 13.15
3/10/2021 2:00:00 AM 2.33 36.194 0.065 6.65 3.16 13.17
3/10/2021 2:15:00 AM 2.27 36.086 0.066 6.65 3.15 13.19
3/10/2021 2:30:00 AM 2.22 35.996 0.065 6.64 3.22 13.21
3/10/2021 2:45:00 AM 2.17 35.906 0.065 6.66 2.99 13.23
3/10/2021 3:00:00 AM 2.12 35.816 0.066 6.67 2.95 13.24
3/10/2021 3:15:00 AM 2.07 35.726 0.065 6.65 3.03 13.27
3/10/2021 3:30:00 AM 2.03 35.654 0.065 6.65 3.08 13.28
3/10/2021 3:45:00 AM 1.98 35.564 0.065 6.65 2.9 13.3
3/10/2021 4:00:00 AM 1.93 35.474 0.065 6.66 2.96 13.32
3/10/2021 4:15:00 AM 1.89 35.402 0.065 6.66 2.92 13.33
3/10/2021 4:30:00 AM 1.85 35.33 0.065 6.66 2.94 13.35
3/10/2021 4:45:00 AM 1.8 35.24 0.065 6.66 2.95 13.37
3/10/2021 5:00:00 AM 1.76 35.168 0.065 6.65 2.81 13.38
3/10/2021 5:15:00 AM 1.71 35.078 0.065 6.65 2.78 13.4
3/10/2021 5:30:00 AM 1.67 35.006 0.065 6.66 2.83 13.42
3/10/2021 5:45:00 AM 1.63 34.934 0.065 6.65 2.79 13.44
3/10/2021 6:00:00 AM 1.59 34.862 0.065 6.66 2.83 13.45
3/10/2021 6:15:00 AM 1.55 34.79 0.065 6.66 2.77 13.47
3/10/2021 6:30:00 AM 1.51 34.718 0.064 6.65 2.83 13.49
3/10/2021 6:45:00 AM 1.47 34.646 0.064 6.66 2.66 13.51
3/10/2021 7:00:00 AM 1.44 34.592 0.064 6.66 2.76 13.54
3/10/2021 7:15:00 AM 1.41 34.538 0.064 6.67 2.78 13.59
3/10/2021 7:30:00 AM 1.39 34.502 0.064 6.66 2.76 13.65
3/10/2021 7:45:00 AM 1.38 34.484 0.064 6.68 2.75 13.71
3/10/2021 8:00:00 AM 1.38 34.484 0.064 6.69 2.75 13.77
3/10/2021 8:15:00 AM 1.4 34.52 0.064 6.7 2.69 13.81
3/10/2021 8:30:00 AM 1.43 34.574 0.064 6.71 2.66 13.85
3/10/2021 8:45:00 AM 1.49 34.682 0.064 6.74 2.7 13.87
3/10/2021 9:00:00 AM 1.56 34.808 0.063 6.75 2.51 13.88
3/10/2021 9:15:00 AM 1.66 34.988 0.063 6.76 2.66 13.89
3/10/2021 9:30:00 AM 1.77 35.186 0.063 6.76 2.55 13.88
3/10/2021 9:45:00 AM 1.91 35.438 0.064 6.77 2.58 13.88
3/10/2021 10:00:00 AM 2.05 35.69 0.063 6.8 2.46 13.86
3/10/2021 10:15:00 AM 2.23 36.014 0.063 6.8 2.49 13.83
3/10/2021 10:30:00 AM 2.43 36.374 0.063 6.82 2.56 13.78
3/10/2021 10:45:00 AM 2.65 36.77 0.063 6.83 2.43 13.73
3/10/2021 11:00:00 AM 2.9 37.22 0.063 6.85 2.41 13.67
3/10/2021 11:15:00 AM 3.15 37.67 0.063 6.87 2.41 13.6
3/10/2021 11:30:00 AM 3.42 38.156 0.063 6.87 2.41 13.53
3/10/2021 11:45:00 AM 3.7 38.66 0.062 6.87 2.37 13.45
3/10/2021 12:00:00 PM 3.98 39.164 0.062 6.9 2.41 13.37
3/10/2021 12:15:00 PM 4.28 39.704 0.062 6.91 2.34 13.28
3/10/2021 12:30:00 PM 4.57 40.226 0.062 6.91 2.45 13.19
3/10/2021 12:45:00 PM 4.83 40.694 0.062 6.91 2.4 13.1
3/10/2021 1:00:00 PM 5.1 41.18 0.062 6.92 2.42 13.01
3/10/2021 1:15:00 PM 5.37 41.666 0.062 6.92 2.47 12.92
3/10/2021 1:30:00 PM 5.58 42.044 0.062 6.92 2.45 12.84
3/10/2021 1:45:00 PM 5.8 42.44 0.062 6.94 2.43 12.76
3/10/2021 2:00:00 PM 6.02 42.836 0.062 6.94 2.37 12.68
3/10/2021 2:15:00 PM 6.21 43.178 0.062 6.95 2.51 12.61
3/10/2021 2:30:00 PM 6.37 43.466 0.061 6.96 2.57 12.53
3/10/2021 2:45:00 PM 6.52 43.736 0.062 6.94 2.49 12.47
3/10/2021 3:00:00 PM 6.65 43.97 0.062 6.94 2.62 12.4
3/10/2021 3:15:00 PM 6.75 44.15 0.061 6.93 2.64 12.34
3/10/2021 3:30:00 PM 6.82 44.276 0.062 6.93 2.71 12.29
3/10/2021 3:45:00 PM 6.86 44.348 0.062 6.91 2.79 12.25
3/10/2021 4:00:00 PM 6.87 44.366 0.062 6.93 2.71 12.21
3/10/2021 4:15:00 PM 6.88 44.384 0.062 6.92 2.91 12.18
3/10/2021 4:30:00 PM 6.87 44.366 0.062 6.91 2.94 12.16
3/10/2021 4:45:00 PM 6.86 44.348 0.063 6.9 3.31 12.15
3/10/2021 5:00:00 PM 6.82 44.276 0.063 6.89 3.37 12.13
3/10/2021 5:15:00 PM 6.74 44.132 0.063 6.92 3.55 12.11
3/10/2021 5:30:00 PM 6.65 43.97 0.063 6.9 3.67 12.08
3/10/2021 5:45:00 PM 6.55 43.79 0.064 6.88 3.99 12.05
3/10/2021 6:00:00 PM 6.41 43.538 0.064 6.86 4.3 12.03
3/10/2021 6:15:00 PM 6.27 43.286 0.065 6.84 4.76 12
3/10/2021 6:30:00 PM 6.11 42.998 0.065 6.81 4.6 11.98
3/10/2021 6:45:00 PM 5.96 42.728 0.065 6.8 4.92 11.99
3/10/2021 7:00:00 PM 5.8 42.44 0.066 6.78 5.47 12.01
3/10/2021 7:15:00 PM 5.64 42.152 0.066 6.78 5.48 12.03
3/10/2021 7:30:00 PM 5.49 41.882 0.066 6.77 6.02 12.07
3/10/2021 7:45:00 PM 5.35 41.63 0.066 6.73 6.67 12.1
3/10/2021 8:00:00 PM 5.21 41.378 0.066 6.74 7.01 12.14
3/10/2021 8:15:00 PM 5.07 41.126 0.066 6.74 7.32 12.17
3/10/2021 8:30:00 PM 4.95 40.91 0.066 6.74 7.84 12.21
3/10/2021 8:45:00 PM 4.83 40.694 0.066 6.73 7.81 12.25
3/10/2021 9:00:00 PM 4.72 40.496 0.066 6.74 8.58 12.29
3/10/2021 9:15:00 PM 4.62 40.316 0.067 6.74 8.64 12.32
3/10/2021 9:30:00 PM 4.52 40.136 0.066 6.7 8.65 12.35
3/10/2021 9:45:00 PM 4.44 39.992 0.066 6.7 9.33 12.38
3/10/2021 10:00:00 PM 4.35 39.83 0.066 6.69 9.43 12.41
3/10/2021 10:15:00 PM 4.27 39.686 0.066 6.69 9.17 12.43
3/10/2021 10:30:00 PM 4.2 39.56 0.066 6.7 8.9 12.46
3/10/2021 10:45:00 PM 4.13 39.434 0.065 6.7 8.84 12.49
3/10/2021 11:00:00 PM 4.08 39.344 0.065 6.7 9.23 12.51
3/10/2021 11:15:00 PM 4.03 39.254 0.065 6.7 8.77 12.53
3/10/2021 11:30:00 PM 3.98 39.164 0.064 6.7 9.47 12.55
3/10/2021 11:45:00 PM 3.94 39.092 0.064 6.69 8.49 12.56
3/11/2021 12:00:00 AM 3.91 39.038 0.064 6.7 9.5 12.58
3/11/2021 12:15:00 AM 3.87 38.966 0.064 6.71 8.56 12.6
3/11/2021 12:30:00 AM 3.85 38.93 0.063 6.71 8.33 12.6
3/11/2021 12:45:00 AM 3.82 38.876 0.063 6.71 8.15 12.61
3/11/2021 1:00:00 AM 3.8 38.84 0.063 6.68 8.39 12.62
3/11/2021 1:15:00 AM 3.78 38.804 0.063 6.68 7.87 12.63
3/11/2021 1:30:00 AM 3.77 38.786 0.062 6.7 8.08 12.63
3/11/2021 1:45:00 AM 3.76 38.768 0.062 6.68 8.04 12.64
3/11/2021 2:00:00 AM 3.75 38.75 0.062 6.69 7.93 12.63
3/11/2021 2:15:00 AM 3.74 38.732 0.061 6.7 8.32 12.64
3/11/2021 2:30:00 AM 3.74 38.732 0.061 6.69 8.27 12.64
3/11/2021 2:45:00 AM 3.74 38.732 0.061 6.69 8.21 12.64
3/11/2021 3:00:00 AM 3.73 38.714 0.06 6.7 8.32 12.65
3/11/2021 3:15:00 AM 3.73 38.714 0.06 6.69 8.13 12.64
3/11/2021 3:30:00 AM 3.72 38.696 0.06 6.69 7.86 12.64
3/11/2021 3:45:00 AM 3.7 38.66 0.06 6.67 8.12 12.64
3/11/2021 4:00:00 AM 3.7 38.66 0.059 6.67 8.45 12.65
3/11/2021 4:15:00 AM 3.69 38.642 0.059 6.68 8.66 12.64
3/11/2021 4:30:00 AM 3.69 38.642 0.059 6.67 8.45 12.64
3/11/2021 4:45:00 AM 3.67 38.606 0.059 6.67 8.38 12.64
3/11/2021 5:00:00 AM 3.65 38.57 0.058 6.67 8.12 12.66
3/11/2021 5:15:00 AM 3.64 38.552 0.058 6.67 7.98 12.66
3/11/2021 5:30:00 AM 3.63 38.534 0.058 6.66 8.42 12.66
3/11/2021 5:45:00 AM 3.62 38.516 0.057 6.69 8.88 12.66
3/11/2021 6:00:00 AM 3.61 38.498 0.057 6.67 8.41 12.67
3/11/2021 6:15:00 AM 3.59 38.462 0.057 6.65 8.45 12.67
3/11/2021 6:30:00 AM 3.57 38.426 0.057 6.68 8.45 12.68
3/11/2021 6:45:00 AM 3.56 38.408 0.057 6.65 8.6 12.68
3/11/2021 7:00:00 AM 3.54 38.372 0.056 6.66 8 12.7
3/11/2021 7:15:00 AM 3.54 38.372 0.056 6.66 8.15 12.73
3/11/2021 7:30:00 AM 3.56 38.408 0.056 6.65 8.21 12.76
3/11/2021 7:45:00 AM 3.59 38.462 0.056 6.67 8.33 12.78
3/11/2021 8:00:00 AM 3.62 38.516 0.056 6.68 7.96 12.79
3/11/2021 8:15:00 AM 3.66 38.588 0.056 6.7 8.13 12.82
3/11/2021 8:30:00 AM 3.72 38.696 0.055 6.7 7.9 12.84
3/11/2021 8:45:00 AM 3.76 38.768 0.055 6.73 7.78 12.83
3/11/2021 9:00:00 AM 3.79 38.822 0.055 6.73 7.75 12.83
3/11/2021 9:15:00 AM 3.83 38.894 0.055 6.74 7.6 12.83
3/11/2021 9:30:00 AM 3.9 39.02 0.055 6.72 7.53 12.83
3/11/2021 9:45:00 AM 3.98 39.164 0.055 6.73 6.86 12.85
3/11/2021 10:00:00 AM 4.09 39.362 0.054 6.74 6.87 12.85
3/11/2021 10:15:00 AM 4.21 39.578 0.054 6.77 6.71 12.84
3/11/2021 10:30:00 AM 4.37 39.866 0.054 6.79 7 12.84
3/11/2021 10:45:00 AM 4.51 40.118 0.054 6.81 6.81 12.81
3/11/2021 11:00:00 AM 4.65 40.37 0.054 6.81 7.13 12.78
3/11/2021 11:15:00 AM 4.73 40.514 0.053 6.82 6.96 12.75
3/11/2021 11:30:00 AM 4.85 40.73 0.053 6.83 6.61 12.73
3/11/2021 11:45:00 AM 5.03 41.054 0.053 6.85 7 12.69
3/11/2021 12:00:00 PM 5.17 41.306 0.053 6.85 6.8 12.64
3/11/2021 12:15:00 PM 5.31 41.558 0.053 6.86 7.03 12.6
3/11/2021 12:30:00 PM 5.55 41.99 0.053 6.87 7.18 12.56
3/11/2021 12:45:00 PM 5.69 42.242 0.053 6.86 7.35 12.51
3/11/2021 1:00:00 PM 5.86 42.548 0.053 6.85 7.42 12.46
3/11/2021 1:15:00 PM 6 42.8 0.052 6.88 7.52 12.42
3/11/2021 1:30:00 PM 6.15 43.07 0.052 6.87 8.05 12.36
3/11/2021 1:45:00 PM 6.3 43.34 0.052 6.87 8.51 12.32
3/11/2021 2:00:00 PM 6.49 43.682 0.052 6.88 8.58 12.26
3/11/2021 2:15:00 PM 6.57 43.826 0.052 6.86 9.7 12.22
3/11/2021 2:30:00 PM 6.64 43.952 0.052 6.86 9.76 12.14
3/11/2021 2:45:00 PM 6.69 44.042 0.052 6.85 11.56 12.09
3/11/2021 3:00:00 PM 6.7 44.06 0.052 6.83 11.81 12.06
3/11/2021 3:15:00 PM 6.71 44.078 0.052 6.8 12.88 12.02
3/11/2021 3:30:00 PM 6.72 44.096 0.052 6.78 15.56 11.98
3/11/2021 3:45:00 PM 6.67 44.006 0.052 6.77 16.28 11.94
3/11/2021 4:00:00 PM 6.67 44.006 0.052 6.76 17.69 11.92
3/11/2021 4:15:00 PM 6.65 43.97 0.052 6.75 22.66 11.91
3/11/2021 4:30:00 PM 6.61 43.898 0.052 6.74 26.58 11.89
3/11/2021 4:45:00 PM 6.55 43.79 0.052 6.72 19.36 11.86
3/11/2021 5:00:00 PM 6.48 43.664 0.051 6.66 28.21 11.86
3/11/2021 5:15:00 PM 6.41 43.538 0.051 6.66 32.18 11.85
3/11/2021 5:30:00 PM 6.34 43.412 0.051 6.67 36.31 11.86
3/11/2021 5:45:00 PM 6.26 43.268 0.05 6.67 43.64 11.88
3/11/2021 6:00:00 PM 6.19 43.142 0.05 6.66 36.46 11.88
3/11/2021 6:15:00 PM 6.09 42.962 0.05 6.61 49.1 11.9
3/11/2021 6:30:00 PM 6.01 42.818 0.05 6.59 45.65 11.91
3/11/2021 6:45:00 PM 5.92 42.656 0.05 6.58 40.01 11.93
3/11/2021 7:00:00 PM 5.84 42.512 0.05 6.6 43.54 11.95
3/11/2021 7:15:00 PM 5.76 42.368 0.05 6.58 52.67 11.97
3/11/2021 7:30:00 PM 5.69 42.242 0.05 6.57 45.66 12
3/11/2021 7:45:00 PM 5.62 42.116 0.049 6.57 47.65 12.02
3/11/2021 8:00:00 PM 5.56 42.008 0.049 6.55 48.08 12.04
3/11/2021 8:15:00 PM 5.51 41.918 0.049 6.54 43.51 12.06
3/11/2021 8:30:00 PM 5.45 41.81 0.048 6.53 42.69 12.08
3/11/2021 8:45:00 PM 5.4 41.72 0.048 6.56 41.41 12.1
3/11/2021 9:00:00 PM 5.35 41.63 0.048 6.54 43.83 12.12
3/11/2021 9:15:00 PM 5.32 41.576 0.048 6.54 44.76 12.13
3/11/2021 9:30:00 PM 5.28 41.504 0.048 6.55 37.6 12.14
3/11/2021 9:45:00 PM 5.24 41.432 0.047 6.53 40.74 12.15
3/11/2021 10:00:00 PM 5.2 41.36 0.047 6.49 41.96 12.17
3/11/2021 10:15:00 PM 5.18 41.324 0.047 6.52 55.13 12.17
3/11/2021 10:30:00 PM 5.15 41.27 0.047 6.53 42.33 12.18
3/11/2021 10:45:00 PM 5.14 41.252 0.047 6.52 60.1 12.18
3/11/2021 11:00:00 PM 5.12 41.216 0.046 6.52 50.65 12.19
3/11/2021 11:15:00 PM 5.1 41.18 0.046 6.5 47.89 12.2
3/11/2021 11:30:00 PM 5.08 41.144 0.046 6.5 72.81 12.2
3/11/2021 11:45:00 PM 5.07 41.126 0.045 6.51 43.47 12.2
3/12/2021 12:00:00 AM 5.07 41.126 0.045 6.51 61.58 12.21
3/12/2021 12:15:00 AM 5.05 41.09 0.045 6.51 56.14 12.21
3/12/2021 12:30:00 AM 5.04 41.072 0.045 6.53 51.69 12.21
3/12/2021 12:45:00 AM 5.03 41.054 0.045 6.54 54.46 12.21
3/12/2021 1:00:00 AM 5.01 41.018 0.044 6.49 44.12 12.21
3/12/2021 1:15:00 AM 5.01 41.018 0.044 6.51 48.77 12.22
3/12/2021 1:30:00 AM 5 41 0.044 6.47 37.29 12.22
3/12/2021 1:45:00 AM 5.01 41.018 0.044 6.49 56.63 12.22
3/12/2021 2:00:00 AM 5.01 41.018 0.044 6.48 53.11 12.22
3/12/2021 2:15:00 AM 5.01 41.018 0.044 6.49 36.78 12.23
3/12/2021 2:30:00 AM 5.01 41.018 0.044 6.47 51.18 12.23
3/12/2021 2:45:00 AM 5 41 0.043 6.48 50.25 12.23
3/12/2021 3:00:00 AM 5 41 0.043 6.48 42.94 12.23
3/12/2021 3:15:00 AM 5 41 0.043 6.49 64.67 12.23
3/12/2021 3:30:00 AM 4.99 40.982 0.043 6.47 42.96 12.24
3/12/2021 3:45:00 AM 4.97 40.946 0.04 6.45 49.13 12.24
3/12/2021 4:00:00 AM 4.96 40.928 0.035 6.45 51.5 12.25
3/12/2021 4:15:00 AM 4.94 40.892 0.029 6.44 49.67 12.25
3/12/2021 4:30:00 AM 4.91 40.838 0.021 6.43 44.02 12.27
3/12/2021 4:45:00 AM 4.88 40.784 0.043 6.44 47.52 12.28
3/12/2021 5:00:00 AM 4.87 40.766 0.043 6.49 50.07 12.28
3/12/2021 5:15:00 AM 4.84 40.712 0.043 6.45 37.73 12.29
3/12/2021 5:30:00 AM 4.81 40.658 0.043 6.48 48.89 12.3
3/12/2021 5:45:00 AM 4.75 40.55 0.042 6.44 41.43 12.32
3/12/2021 6:00:00 AM 4.71 40.478 0.042 6.4 42.49 12.33
3/12/2021 6:15:00 AM 4.68 40.424 0.042 6.42 52.07 12.34
3/12/2021 6:30:00 AM 4.65 40.37 0.042 6.41 29.27 12.36
3/12/2021 6:45:00 AM 4.61 40.298 0.042 6.41 35.73 12.37
3/12/2021 7:00:00 AM 4.59 40.262 0.042 6.41 36.05 12.38
3/12/2021 7:15:00 AM 4.56 40.208 0.042 6.38 36.96 12.4
3/12/2021 7:30:00 AM 4.54 40.172 0.042 6.39 37.97 12.41
3/12/2021 7:45:00 AM 4.52 40.136 0.042 6.39 30.47 12.42
3/12/2021 8:00:00 AM 4.52 40.136 0.042 6.43 27.49 12.43
3/12/2021 8:15:00 AM 4.52 40.136 0.042 6.41 35.32 12.44
3/12/2021 8:30:00 AM 4.54 40.172 0.042 6.4 28.75 12.45
3/12/2021 8:45:00 AM 4.56 40.208 0.042 6.38 27.55 12.45
3/12/2021 9:00:00 AM 4.6 40.28 0.042 6.37 23.89 12.46
3/12/2021 9:15:00 AM 4.66 40.388 0.042 6.38 24.28 12.46
3/12/2021 9:30:00 AM 4.73 40.514 0.042 6.34 21.61 12.45
3/12/2021 9:45:00 AM 4.84 40.712 0.042 6.4 21.44 12.44
3/12/2021 10:00:00 AM 4.94 40.892 0.042 6.45 27.31 12.42
3/12/2021 10:15:00 AM 5.08 41.144 0.042 6.43 25.49 12.39
3/12/2021 10:30:00 AM 5.21 41.378 0.042 6.45 24.37 12.37
3/12/2021 10:45:00 AM 5.38 41.684 0.042 6.49 31.34 12.34
3/12/2021 11:00:00 AM 5.54 41.972 0.042 6.52 21.47 12.28
3/12/2021 11:15:00 AM 5.7 42.26 0.042 6.53 23.2 12.23
3/12/2021 11:30:00 AM 5.87 42.566 0.042 6.54 21.94 12.18
3/12/2021 11:45:00 AM 6.03 42.854 0.04 6.56 174.77 12.16
3/12/2021 12:00:00 PM 6.21 43.178 0.035 6.56 1299.25 12.12
3/12/2021 12:15:00 PM 6.36 43.448 0.033 6.56 2086.76 12.08
3/12/2021 12:30:00 PM 6.51 43.718 0.03 6.57 734.18 12.04
3/12/2021 12:45:00 PM 6.67 44.006 0.028 6.53 373.26 11.99
3/12/2021 1:00:00 PM 6.83 44.294 0.026 6.54 89.77 11.95
3/12/2021 1:15:00 PM 6.95 44.51 0.025 6.58 52.79 11.91
3/12/2021 1:30:00 PM 7.07 44.726 0.022 6.59 18.31 11.87
3/12/2021 1:45:00 PM 7.17 44.906 0.022 6.54 24.1 11.84
3/12/2021 2:00:00 PM 7.26 45.068 0.024 6.48 18.91 11.8
3/12/2021 2:15:00 PM 7.36 45.248 0.024 6.52 23.12 11.76
3/12/2021 2:30:00 PM 7.43 45.374 0.042 6.55 19.85 11.74
3/12/2021 2:45:00 PM 7.46 45.428 0.042 6.55 20.06 11.71
3/12/2021 3:00:00 PM 7.49 45.482 0.041 6.54 19.78 11.69
3/12/2021 3:15:00 PM 7.5 45.5 0.038 6.53 21.4 11.67
3/12/2021 3:30:00 PM 7.5 45.5 0.019 6.54 22.52 11.66
3/12/2021 3:45:00 PM 7.47 45.446 0.042 6.54 27.89 11.65
3/12/2021 4:00:00 PM 7.42 45.356 0.041 6.51 22.5 11.66
3/12/2021 4:15:00 PM 7.35 45.23 0.042 6.51 23.24 11.65
3/12/2021 4:30:00 PM 7.27 45.086 0.042 6.5 26.25 11.65
3/12/2021 4:45:00 PM 7.16 44.888 0.042 6.49 20.09 11.67
3/12/2021 5:00:00 PM 7.03 44.654 0.042 6.48 22.69 11.68
3/12/2021 5:15:00 PM 6.91 44.438 0.041 6.46 23.46 11.7
3/12/2021 5:30:00 PM 6.79 44.222 0.018 6.43 22.44 11.72
3/12/2021 5:45:00 PM 6.67 44.006 0.042 6.45 21.03 11.75
3/12/2021 6:00:00 PM 6.54 43.772 0.041 6.45 17.95 11.78
3/12/2021 6:15:00 PM 6.43 43.574 0.042 6.42 25.28 11.8
3/12/2021 6:30:00 PM 6.31 43.358 0.042 6.43 22.18 11.84
3/12/2021 6:45:00 PM 6.2 43.16 0.042 6.41 30.51 11.86
3/12/2021 7:00:00 PM 6.09 42.962 0.042 6.41 24.74 11.89
3/12/2021 7:15:00 PM 6 42.8 0.041 6.42 22.87 11.92
3/12/2021 7:30:00 PM 5.91 42.638 0.04 6.41 25.18 11.95
3/12/2021 7:45:00 PM 5.82 42.476 0.042 6.4 22.72 11.98
3/12/2021 8:00:00 PM 5.74 42.332 0.042 6.37 36.7 12
3/12/2021 8:15:00 PM 5.67 42.206 0.041 6.38 33.18 12.03
3/12/2021 8:30:00 PM 5.6 42.08 0.042 6.36 24.74 12.06
3/12/2021 8:45:00 PM 5.54 41.972 0.041 6.37 22.92 12.08
3/12/2021 9:00:00 PM 5.48 41.864 0.042 6.44 20.63 12.1
3/12/2021 9:15:00 PM 5.42 41.756 0.041 6.43 20.74 12.12
3/12/2021 9:30:00 PM 5.37 41.666 0.041 6.45 24.98 12.14
3/12/2021 9:45:00 PM 5.32 41.576 0.041 6.42 25.48 12.16
3/12/2021 10:00:00 PM 5.27 41.486 0.041 6.43 18.34 12.18
3/12/2021 10:15:00 PM 5.22 41.396 0.041 6.43 15.75 12.2
3/12/2021 10:30:00 PM 5.16 41.288 0.041 6.41 17.99 12.22
3/12/2021 10:45:00 PM 5.11 41.198 0.041 6.39 16.04 12.23
3/12/2021 11:00:00 PM 5.05 41.09 0.041 6.4 16.85 12.25
3/12/2021 11:15:00 PM 5 41 0.041 6.38 16.43 12.27
3/12/2021 11:30:00 PM 4.96 40.928 0.041 6.38 15.57 12.29
3/12/2021 11:45:00 PM 4.9 40.82 0.041 6.39 13.36 12.31
3/13/2021 12:00:00 AM 4.84 40.712 0.041 6.39 15.03 12.32
3/13/2021 12:15:00 AM 4.78 40.604 0.041 6.39 16.45 12.35
3/13/2021 12:30:00 AM 4.72 40.496 0.041 6.4 15.56 12.37
3/13/2021 12:45:00 AM 4.67 40.406 0.041 6.38 16.85 12.38
3/13/2021 1:00:00 AM 4.63 40.334 0.041 6.41 14.09 12.4
3/13/2021 1:15:00 AM 4.58 40.244 0.041 6.4 15.07 12.41
3/13/2021 1:30:00 AM 4.52 40.136 0.041 6.41 14.65 12.43
3/13/2021 1:45:00 AM 4.48 40.064 0.041 6.42 14.21 12.45
3/13/2021 2:00:00 AM 4.43 39.974 0.041 6.42 14.86 12.47
3/13/2021 2:15:00 AM 4.38 39.884 0.041 6.4 14.9 12.49
3/13/2021 2:30:00 AM 4.34 39.812 0.041 6.37 13.95 12.5
3/13/2021 2:45:00 AM 4.29 39.722 0.041 6.39 14.41 12.52
3/13/2021 3:00:00 AM 4.25 39.65 0.041 6.41 14.14 12.53
3/13/2021 3:15:00 AM 4.2 39.56 0.041 6.41 13.69 12.54
3/13/2021 3:30:00 AM 4.16 39.488 0.041 6.41 14.45 12.56
3/13/2021 3:45:00 AM 4.12 39.416 0.041 6.4 13.01 12.58
3/13/2021 4:00:00 AM 4.07 39.326 0.041 6.4 13.34 12.59
3/13/2021 4:15:00 AM 4.02 39.236 0.041 6.4 13.08 12.61
3/13/2021 4:30:00 AM 3.99 39.182 0.041 6.4 13.09 12.62
3/13/2021 4:45:00 AM 3.95 39.11 0.041 6.37 12.35 12.64
3/13/2021 5:00:00 AM 3.91 39.038 0.041 6.4 12.85 12.66
3/13/2021 5:15:00 AM 3.87 38.966 0.041 6.38 12.29 12.66
3/13/2021 5:30:00 AM 3.84 38.912 0.041 6.39 12.09 12.69
3/13/2021 5:45:00 AM 3.8 38.84 0.041 6.36 11.79 12.7
3/13/2021 6:00:00 AM 3.76 38.768 0.041 6.37 11.81 12.72
3/13/2021 6:15:00 AM 3.73 38.714 0.041 6.36 11.91 12.73
3/13/2021 6:30:00 AM 3.7 38.66 0.041 6.37 11.83 12.74
3/13/2021 6:45:00 AM 3.66 38.588 0.041 6.38 11.55 12.75
3/13/2021 7:00:00 AM 3.63 38.534 0.041 6.37 11.87 12.77
3/13/2021 7:15:00 AM 3.61 38.498 0.041 6.37 11.42 12.79
3/13/2021 7:30:00 AM 3.58 38.444 0.041 6.39 10.79 12.81
3/13/2021 7:45:00 AM 3.56 38.408 0.041 6.41 11.28 12.83
3/13/2021 8:00:00 AM 3.56 38.408 0.041 6.39 11.5 12.84
3/13/2021 8:15:00 AM 3.56 38.408 0.041 6.41 10.77 12.86
3/13/2021 8:30:00 AM 3.56 38.408 0.041 6.41 10.26 12.88
3/13/2021 8:45:00 AM 3.57 38.426 0.041 6.38 9.54 12.89
3/13/2021 9:00:00 AM 3.6 38.48 0.041 6.39 9.72 12.89
3/13/2021 9:15:00 AM 3.64 38.552 0.041 6.39 9.2 12.9
3/13/2021 9:30:00 AM 3.7 38.66 0.041 6.4 9.25 12.9
3/13/2021 9:45:00 AM 3.77 38.786 0.041 6.41 9.25 12.89
3/13/2021 10:00:00 AM 3.87 38.966 0.041 6.44 9.24 12.88
3/13/2021 10:15:00 AM 3.98 39.164 0.041 6.45 8.87 12.86
3/13/2021 10:30:00 AM 4.1 39.38 0.041 6.46 8.97 12.83
3/13/2021 10:45:00 AM 4.22 39.596 0.041 6.47 8.51 12.81
3/13/2021 11:00:00 AM 4.37 39.866 0.041 6.51 9.19 12.76
3/13/2021 11:15:00 AM 4.53 40.154 0.041 6.49 8.69 12.72
3/13/2021 11:30:00 AM 4.69 40.442 0.041 6.52 8.53 12.69
3/13/2021 11:45:00 AM 4.85 40.73 0.041 6.5 8.9 12.64
3/13/2021 12:00:00 PM 5.01 41.018 0.041 6.51 8.46 12.6
3/13/2021 12:15:00 PM 5.18 41.324 0.041 6.55 8.86 12.55
3/13/2021 12:30:00 PM 5.34 41.612 0.041 6.56 8.89 12.5
3/13/2021 12:45:00 PM 5.49 41.882 0.041 6.57 9.04 12.45
3/13/2021 1:00:00 PM 5.63 42.134 0.041 6.57 8.52 12.41
3/13/2021 1:15:00 PM 5.76 42.368 0.041 6.58 8.49 12.36
3/13/2021 1:30:00 PM 5.9 42.62 0.041 6.58 8.72 12.31
3/13/2021 1:45:00 PM 6.03 42.854 0.041 6.58 8.78 12.27
3/13/2021 2:00:00 PM 6.13 43.034 0.041 6.58 8.73 12.23
3/13/2021 2:15:00 PM 6.24 43.232 0.041 6.57 8.49 12.19
3/13/2021 2:30:00 PM 6.32 43.376 0.041 6.57 8.86 12.14
3/13/2021 2:45:00 PM 6.39 43.502 0.041 6.54 8.6 12.11
3/13/2021 3:00:00 PM 6.45 43.61 0.041 6.53 8.93 12.09
3/13/2021 3:15:00 PM 6.49 43.682 0.041 6.53 8.69 12.06
3/13/2021 3:30:00 PM 6.51 43.718 0.041 6.52 8.78 12.04
3/13/2021 3:45:00 PM 6.5 43.7 0.041 6.53 9.05 12.03
3/13/2021 4:00:00 PM 6.5 43.7 0.041 6.5 9.1 12.01
3/13/2021 4:15:00 PM 6.45 43.61 0.041 6.49 8.88 12.01
3/13/2021 4:30:00 PM 6.41 43.538 0.041 6.48 8.88 12
3/13/2021 4:45:00 PM 6.34 43.412 0.041 6.47 8.77 11.99
3/13/2021 5:00:00 PM 6.26 43.268 0.041 6.47 8.71 11.99
3/13/2021 5:15:00 PM 6.17 43.106 0.041 6.46 9.47 12
3/13/2021 5:30:00 PM 6.09 42.962 0.041 6.44 9.07 12
3/13/2021 5:45:00 PM 6 42.8 0.041 6.45 9.37 12
3/13/2021 6:00:00 PM 5.91 42.638 0.041 6.43 9.16 12.02
3/13/2021 6:15:00 PM 5.81 42.458 0.041 6.44 9.06 12.03
3/13/2021 6:30:00 PM 5.72 42.296 0.041 6.44 8.96 12.04
3/13/2021 6:45:00 PM 5.63 42.134 0.041 6.43 9.24 12.05
3/13/2021 7:00:00 PM 5.54 41.972 0.041 6.42 9.03 12.08
3/13/2021 7:15:00 PM 5.45 41.81 0.041 6.42 9.29 12.1
3/13/2021 7:30:00 PM 5.37 41.666 0.041 6.4 8.87 12.12
3/13/2021 7:45:00 PM 5.29 41.522 0.042 6.39 8.61 12.14
3/13/2021 8:00:00 PM 5.21 41.378 0.042 6.41 9.34 12.16
3/13/2021 8:15:00 PM 5.13 41.234 0.041 6.43 8.76 12.18
3/13/2021 8:30:00 PM 5.05 41.09 0.042 6.41 9.46 12.21
3/13/2021 8:45:00 PM 4.98 40.964 0.042 6.4 9.29 12.23
3/13/2021 9:00:00 PM 4.91 40.838 0.042 6.41 9.22 12.25
3/13/2021 9:15:00 PM 4.84 40.712 0.042 6.4 9.15 12.27
3/13/2021 9:30:00 PM 4.76 40.568 0.042 6.39 8.65 12.29
3/13/2021 9:45:00 PM 4.7 40.46 0.042 6.39 9.67 12.31
3/13/2021 10:00:00 PM 4.63 40.334 0.042 6.37 8.76 12.33
3/13/2021 10:15:00 PM 4.56 40.208 0.042 6.38 8.37 12.36
3/13/2021 10:30:00 PM 4.5 40.1 0.042 6.4 8.56 12.38
3/13/2021 10:45:00 PM 4.44 39.992 0.042 6.39 9.21 12.4
3/13/2021 11:00:00 PM 4.38 39.884 0.042 6.38 8.35 12.42
3/13/2021 11:15:00 PM 4.33 39.794 0.042 6.36 8.48 12.43
3/13/2021 11:30:00 PM 4.27 39.686 0.042 6.37 8.34 12.45
3/13/2021 11:45:00 PM 4.22 39.596 0.042 6.37 9.37 12.46
3/14/2021 12:00:00 AM 4.18 39.524 0.042 6.39 8.72 12.48
3/14/2021 12:15:00 AM 4.13 39.434 0.042 6.33 7.93 12.49
3/14/2021 12:30:00 AM 4.08 39.344 0.042 6.35 8.16 12.51
3/14/2021 12:45:00 AM 4.05 39.29 0.042 6.35 8.13 12.52
3/14/2021 1:00:00 AM 4.01 39.218 0.042 6.35 8.13 12.53
3/14/2021 1:15:00 AM 3.98 39.164 0.042 6.35 7.57 12.54
3/14/2021 1:30:00 AM 3.94 39.092 0.042 6.34 7.94 12.55
3/14/2021 1:45:00 AM 3.91 39.038 0.042 6.35 7.72 12.56
3/14/2021 3:00:00 AM 3.78 38.804 0.042 6.34 7.46 12.6
3/14/2021 3:15:00 AM 3.75 38.75 0.042 6.33 7.21 12.61
3/14/2021 3:30:00 AM 3.72 38.696 0.042 6.34 7.26 12.61
3/14/2021 3:45:00 AM 3.7 38.66 0.042 6.35 7.27 12.62
3/14/2021 4:00:00 AM 3.67 38.606 0.042 6.34 7.21 12.63
3/14/2021 5:15:00 AM 3.65 38.57 0.042 6.35 6.84 12.63
3/14/2021 5:30:00 AM 3.62 38.516 0.042 6.35 7.17 12.64
3/14/2021 5:45:00 AM 3.6 38.48 0.042 6.37 7.15 12.64
3/14/2021 6:00:00 AM 3.57 38.426 0.042 6.36 7.15 12.66
3/14/2021 6:15:00 AM 3.55 38.39 0.042 6.38 7.24 12.67
3/14/2021 6:30:00 AM 3.52 38.336 0.042 6.38 7.15 12.66
3/14/2021 6:45:00 AM 3.49 38.282 0.042 6.38 6.87 12.68
3/14/2021 7:00:00 AM 3.47 38.246 0.042 6.37 6.78 12.68
3/14/2021 7:15:00 AM 3.45 38.21 0.042 6.37 6.63 12.69
3/14/2021 7:30:00 AM 3.42 38.156 0.042 6.37 6.91 12.7
3/14/2021 7:45:00 AM 3.39 38.102 0.042 6.37 6.68 12.72
3/14/2021 8:00:00 AM 3.38 38.084 0.042 6.37 6.7 12.73
3/14/2021 8:15:00 AM 3.36 38.048 0.042 6.38 6.69 12.75
3/14/2021 8:30:00 AM 3.35 38.03 0.042 6.41 6.65 12.77
3/14/2021 8:45:00 AM 3.35 38.03 0.042 6.4 6.31 12.79
3/14/2021 9:00:00 AM 3.36 38.048 0.042 6.38 6.35 12.81
3/14/2021 9:15:00 AM 3.39 38.102 0.042 6.41 6.22 12.82
3/14/2021 9:30:00 AM 3.42 38.156 0.042 6.41 6.2 12.83
3/14/2021 9:45:00 AM 3.47 38.246 0.042 6.41 5.88 12.84
3/14/2021 10:00:00 AM 3.53 38.354 0.042 6.44 5.92 12.83
3/14/2021 10:15:00 AM 3.62 38.516 0.042 6.45 5.83 12.83
3/14/2021 10:30:00 AM 3.73 38.714 0.042 6.44 5.9 12.82
3/14/2021 10:45:00 AM 3.85 38.93 0.042 6.47 5.58 12.8
3/14/2021 11:00:00 AM 3.98 39.164 0.042 6.5 5.55 12.77
3/14/2021 11:15:00 AM 4.13 39.434 0.042 6.49 5.64 12.74
3/14/2021 11:30:00 AM 4.31 39.758 0.042 6.51 5.5 12.69
3/14/2021 11:45:00 AM 4.46 40.028 0.042 6.51 5.52 12.65
3/14/2021 12:00:00 PM 4.65 40.37 0.042 6.54 5.52 12.61
3/14/2021 12:15:00 PM 4.85 40.73 0.042 6.55 5.43 12.56
3/14/2021 12:30:00 PM 5.08 41.144 0.042 6.56 5.73 12.5
3/14/2021 12:45:00 PM 5.23 41.414 0.042 6.57 5.56 12.45
3/14/2021 1:00:00 PM 5.43 41.774 0.042 6.57 5.54 12.39
3/14/2021 1:15:00 PM 5.61 42.098 0.042 6.59 5.73 12.35
3/14/2021 1:30:00 PM 5.82 42.476 0.042 6.6 6 12.29
3/14/2021 1:45:00 PM 6.02 42.836 0.042 6.61 5.6 12.24
3/14/2021 2:00:00 PM 6.18 43.124 0.042 6.61 5.79 12.2
3/14/2021 2:15:00 PM 6.25 43.25 0.042 6.58 5.82 12.15
3/14/2021 2:30:00 PM 6.37 43.466 0.042 6.6 5.74 12.11
3/14/2021 2:45:00 PM 6.48 43.664 0.042 6.59 5.49 12.08
3/14/2021 3:00:00 PM 6.58 43.844 0.042 6.59 5.65 12.05
3/14/2021 3:15:00 PM 6.65 43.97 0.042 6.59 5.76 12.02
3/14/2021 3:30:00 PM 6.74 44.132 0.042 6.59 6.03 12
3/14/2021 3:45:00 PM 6.73 44.114 0.042 6.58 5.77 11.97
3/14/2021 4:00:00 PM 6.79 44.222 0.042 6.57 5.77 11.96
3/14/2021 4:15:00 PM 6.78 44.204 0.042 6.57 5.61 11.96
3/14/2021 4:30:00 PM 6.76 44.168 0.042 6.57 5.63 11.95
3/14/2021 4:45:00 PM 6.74 44.132 0.042 6.55 5.87 11.94
3/14/2021 5:00:00 PM 6.63 43.934 0.042 6.53 5.82 11.96
3/14/2021 5:15:00 PM 6.5 43.7 0.042 6.53 5.94 11.99
3/14/2021 5:30:00 PM 6.37 43.466 0.042 6.53 5.99 12
3/14/2021 5:45:00 PM 6.27 43.286 0.043 6.53 6.03 12.02
3/14/2021 6:00:00 PM 6.12 43.016 0.042 6.52 6.01 12.04
3/14/2021 6:15:00 PM 6.01 42.818 0.043 6.51 5.89 12.05
3/14/2021 6:30:00 PM 5.89 42.602 0.043 6.51 6 12.06
3/14/2021 6:45:00 PM 5.78 42.404 0.043 6.51 6.02 12.07
3/14/2021 7:00:00 PM 5.65 42.17 0.043 6.48 5.85 12.09
3/14/2021 7:15:00 PM 5.52 41.936 0.043 6.48 6.06 12.11
3/14/2021 7:30:00 PM 5.39 41.702 0.043 6.45 6.03 12.13
3/14/2021 7:45:00 PM 5.27 41.486 0.043 6.47 6.18 12.15
3/14/2021 8:00:00 PM 5.15 41.27 0.043 6.45 6.14 12.18
3/14/2021 8:15:00 PM 5.04 41.072 0.043 6.44 5.95 12.22
3/14/2021 8:30:00 PM 4.92 40.856 0.043 6.43 6.1 12.24
3/14/2021 8:45:00 PM 4.8 40.64 0.043 6.43 6.27 12.28
3/14/2021 9:00:00 PM 4.69 40.442 0.043 6.44 6.02 12.32
3/14/2021 9:15:00 PM 4.58 40.244 0.043 6.43 5.99 12.36
3/14/2021 9:30:00 PM 4.47 40.046 0.043 6.42 5.85 12.4
3/14/2021 9:45:00 PM 4.37 39.866 0.043 6.43 5.88 12.44
3/14/2021 10:00:00 PM 4.27 39.686 0.043 6.43 5.91 12.47
3/14/2021 10:15:00 PM 4.17 39.506 0.043 6.42 5.89 12.51
3/14/2021 10:30:00 PM 4.08 39.344 0.043 6.43 5.69 12.55
3/14/2021 10:45:00 PM 3.99 39.182 0.043 6.42 5.76 12.58
3/14/2021 11:00:00 PM 3.89 39.002 0.043 6.43 5.85 12.61
3/14/2021 11:15:00 PM 3.81 38.858 0.043 6.44 5.52 12.65
3/14/2021 11:30:00 PM 3.72 38.696 0.043 6.44 5.73 12.68
3/14/2021 11:45:00 PM 3.63 38.534 0.044 6.43 5.61 12.71
3/15/2021 12:00:00 AM 3.55 38.39 0.043 6.43 5.53 12.75
3/15/2021 12:15:00 AM 3.46 38.228 0.044 6.43 5.56 12.78
3/15/2021 12:30:00 AM 3.39 38.102 0.044 6.44 5.33 12.8
3/15/2021 12:45:00 AM 3.3 37.94 0.044 6.45 5.6 12.83
3/15/2021 1:00:00 AM 3.23 37.814 0.044 6.43 5.46 12.87
3/15/2021 1:15:00 AM 3.15 37.67 0.044 6.43 5.57 12.9
3/15/2021 1:30:00 AM 3.07 37.526 0.044 6.43 5.41 12.93
3/15/2021 1:45:00 AM 2.99 37.382 0.044 6.43 5.28 12.95
3/15/2021 2:00:00 AM 2.92 37.256 0.044 6.44 5.13 12.98
3/15/2021 2:15:00 AM 2.85 37.13 0.044 6.44 5.34 13.01
3/15/2021 2:30:00 AM 2.79 37.022 0.044 6.45 5.29 13.03
3/15/2021 2:45:00 AM 2.73 36.914 0.044 6.44 5.21 13.05
3/15/2021 3:00:00 AM 2.67 36.806 0.044 6.45 5.16 13.07
3/15/2021 3:15:00 AM 2.61 36.698 0.044 6.44 5.16 13.09
3/15/2021 3:30:00 AM 2.55 36.59 0.044 6.45 5.05 13.11
3/15/2021 3:45:00 AM 2.49 36.482 0.044 6.45 5.08 13.14
3/15/2021 4:00:00 AM 2.44 36.392 0.044 6.44 5.02 13.16
3/15/2021 4:15:00 AM 2.38 36.284 0.044 6.45 4.98 13.19
3/15/2021 4:30:00 AM 2.33 36.194 0.044 6.44 5.03 13.2
3/15/2021 4:45:00 AM 2.27 36.086 0.044 6.44 4.96 13.23
3/15/2021 5:00:00 AM 2.22 35.996 0.044 6.43 5.2 13.23
3/15/2021 5:15:00 AM 2.17 35.906 0.044 6.46 5.04 13.26
3/15/2021 5:30:00 AM 2.12 35.816 0.044 6.44 4.88 13.28
3/15/2021 5:45:00 AM 2.07 35.726 0.044 6.45 5.04 13.3
3/15/2021 6:00:00 AM 2.02 35.636 0.044 6.44 4.81 13.31
3/15/2021 6:15:00 AM 1.98 35.564 0.044 6.44 4.94 13.33
3/15/2021 6:30:00 AM 1.93 35.474 0.044 6.43 4.8 13.35
3/15/2021 6:45:00 AM 1.89 35.402 0.044 6.44 4.81 13.37
3/15/2021 7:00:00 AM 1.84 35.312 0.044 6.44 4.83 13.39
3/15/2021 7:15:00 AM 1.8 35.24 0.044 6.45 4.96 13.4
3/15/2021 7:30:00 AM 1.76 35.168 0.044 6.45 4.87 13.42
3/15/2021 7:45:00 AM 1.71 35.078 0.044 6.45 4.61 13.45
3/15/2021 8:00:00 AM 1.68 35.024 0.044 6.46 4.73 13.48
3/15/2021 8:15:00 AM 1.65 34.97 0.044 6.46 4.52 13.5
3/15/2021 8:30:00 AM 1.63 34.934 0.044 6.46 4.54 13.53
3/15/2021 8:45:00 AM 1.62 34.916 0.044 6.47 4.64 13.55
3/15/2021 9:00:00 AM 1.61 34.898 0.044 6.47 4.45 13.58
3/15/2021 9:15:00 AM 1.62 34.916 0.044 6.49 4.48 13.6
3/15/2021 9:30:00 AM 1.64 34.952 0.044 6.48 4.34 13.61
3/15/2021 9:45:00 AM 1.67 35.006 0.044 6.49 4.34 13.63
3/15/2021 10:00:00 AM 1.7 35.06 0.044 6.5 4.14 13.64
3/15/2021 10:15:00 AM 1.76 35.168 0.044 6.51 4.18 13.64
3/15/2021 10:30:00 AM 1.83 35.294 0.044 6.5 4.16 13.63
3/15/2021 10:45:00 AM 1.93 35.474 0.044 6.53 4.19 13.62
3/15/2021 11:00:00 AM 2.04 35.672 0.044 6.53 4.01 13.6
3/15/2021 11:15:00 AM 2.18 35.924 0.044 6.54 4.07 13.57
3/15/2021 11:30:00 AM 2.32 36.176 0.044 6.56 3.99 13.55
3/15/2021 11:45:00 AM 2.49 36.482 0.044 6.57 4.09 13.5
3/15/2021 12:00:00 PM 2.68 36.824 0.044 6.59 3.89 13.45
3/15/2021 12:15:00 PM 2.88 37.184 0.044 6.59 3.87 13.39
3/15/2021 12:30:00 PM 3.08 37.544 0.044 6.59 3.88 13.33
3/15/2021 12:45:00 PM 3.28 37.904 0.044 6.62 4.05 13.27
3/15/2021 1:00:00 PM 3.48 38.264 0.044 6.63 3.88 13.22
3/15/2021 1:15:00 PM 3.68 38.624 0.044 6.62 3.86 13.14
3/15/2021 1:30:00 PM 3.89 39.002 0.044 6.62 3.81 13.09
3/15/2021 1:45:00 PM 4.07 39.326 0.044 6.62 3.98 13.02
3/15/2021 2:00:00 PM 4.24 39.632 0.044 6.63 4.01 12.96
3/15/2021 2:15:00 PM 4.37 39.866 0.044 6.62 3.86 12.89
3/15/2021 2:30:00 PM 4.53 40.154 0.044 6.63 3.75 12.84
3/15/2021 2:45:00 PM 4.67 40.406 0.044 6.64 3.81 12.78
3/15/2021 3:00:00 PM 4.74 40.532 0.044 6.62 3.82 12.75
3/15/2021 3:15:00 PM 4.85 40.73 0.044 6.62 3.75 12.7
3/15/2021 3:30:00 PM 4.93 40.874 0.044 6.63 3.83 12.68
3/15/2021 3:45:00 PM 5.01 41.018 0.044 6.63 3.85 12.64
3/15/2021 4:00:00 PM 5.07 41.126 0.044 6.63 3.79 12.61
3/15/2021 4:15:00 PM 5.1 41.18 0.044 6.6 3.78 12.58
3/15/2021 4:30:00 PM 5.09 41.162 0.044 6.59 3.71 12.56
3/15/2021 4:45:00 PM 5.08 41.144 0.044 6.59 3.79 12.55
3/15/2021 5:00:00 PM 5.04 41.072 0.044 6.59 3.93 12.54
3/15/2021 5:15:00 PM 4.99 40.982 0.044 6.58 3.91 12.53
3/15/2021 5:30:00 PM 4.95 40.91 0.044 6.59 4 12.53
3/15/2021 5:45:00 PM 4.89 40.802 0.044 6.6 3.8 12.53
3/15/2021 6:00:00 PM 4.81 40.658 0.044 6.6 4.02 12.54
3/15/2021 6:15:00 PM 4.73 40.514 0.044 6.59 4.07 12.55
3/15/2021 6:30:00 PM 4.65 40.37 0.044 6.58 3.89 12.56
3/15/2021 6:45:00 PM 4.56 40.208 0.044 6.58 4.07 12.57
3/15/2021 7:00:00 PM 4.46 40.028 0.044 6.56 4.08 12.56
3/15/2021 7:15:00 PM 4.37 39.866 0.044 6.55 4 12.56
3/15/2021 7:30:00 PM 4.27 39.686 0.044 6.54 3.99 12.56
3/15/2021 7:45:00 PM 4.19 39.542 0.044 6.53 4.18 12.57
3/15/2021 8:00:00 PM 4.11 39.398 0.044 6.53 4.2 12.57
3/15/2021 8:15:00 PM 4.03 39.254 0.044 6.52 4.83 12.59
3/15/2021 8:30:00 PM 3.97 39.146 0.044 6.53 4.18 12.6
3/15/2021 8:45:00 PM 3.91 39.038 0.045 6.5 4.18 12.6
3/15/2021 9:00:00 PM 3.86 38.948 0.045 6.5 4.11 12.62
3/15/2021 9:15:00 PM 3.81 38.858 0.045 6.51 4.14 12.64
3/15/2021 9:30:00 PM 3.76 38.768 0.045 6.52 4.24 12.64
3/15/2021 9:45:00 PM 3.72 38.696 0.045 6.51 4.15 12.67
3/15/2021 10:00:00 PM 3.68 38.624 0.045 6.52 4.11 12.68
3/15/2021 10:15:00 PM 3.64 38.552 0.045 6.51 4.33 12.7
3/15/2021 10:30:00 PM 3.61 38.498 0.045 6.49 4.05 12.71
3/15/2021 10:45:00 PM 3.58 38.444 0.045 6.5 4.19 12.72
3/15/2021 11:00:00 PM 3.55 38.39 0.045 6.49 4.12 12.72
3/15/2021 11:15:00 PM 3.51 38.318 0.045 6.5 4 12.73
3/15/2021 11:30:00 PM 3.49 38.282 0.045 6.5 4.11 12.74
3/15/2021 11:45:00 PM 3.46 38.228 0.045 6.5 4.06 12.75
3/16/2021 12:00:00 AM 3.43 38.174 0.045 6.5 4.06 12.76
3/16/2021 12:15:00 AM 3.4 38.12 0.045 6.49 3.94 12.77
3/16/2021 12:30:00 AM 3.38 38.084 0.045 6.5 4.01 12.78
3/16/2021 12:45:00 AM 3.36 38.048 0.045 6.5 4.03 12.78
3/16/2021 1:00:00 AM 3.34 38.012 0.045 6.49 4 12.79
3/16/2021 1:15:00 AM 3.31 37.958 0.045 6.5 3.94 12.8
3/16/2021 1:30:00 AM 3.29 37.922 0.045 6.5 4.04 12.8
3/16/2021 1:45:00 AM 3.27 37.886 0.045 6.5 3.92 12.81
3/16/2021 2:00:00 AM 3.25 37.85 0.045 6.51 3.94 12.81
3/16/2021 2:15:00 AM 3.23 37.814 0.045 6.51 3.86 12.82
3/16/2021 2:30:00 AM 3.21 37.778 0.045 6.49 3.8 12.83
3/16/2021 2:45:00 AM 3.19 37.742 0.045 6.51 3.9 12.83
3/16/2021 3:00:00 AM 3.17 37.706 0.045 6.52 3.78 12.84
3/16/2021 3:15:00 AM 3.14 37.652 0.045 6.52 3.84 12.85
3/16/2021 3:30:00 AM 3.13 37.634 0.045 6.52 3.87 12.86
3/16/2021 3:45:00 AM 3.11 37.598 0.045 6.53 3.79 12.86
3/16/2021 4:00:00 AM 3.09 37.562 0.045 6.51 3.77 12.86
3/16/2021 4:15:00 AM 3.07 37.526 0.045 6.52 3.8 12.86
3/16/2021 4:30:00 AM 3.05 37.49 0.045 6.51 3.75 12.87
3/16/2021 4:45:00 AM 3.03 37.454 0.045 6.52 3.82 12.87
3/16/2021 5:00:00 AM 3.01 37.418 0.045 6.5 3.89 12.88
3/16/2021 5:15:00 AM 3 37.4 0.045 6.52 3.6 12.88
3/16/2021 5:30:00 AM 2.99 37.382 0.045 6.51 3.81 12.88
3/16/2021 5:45:00 AM 2.98 37.364 0.046 6.51 3.84 12.89
3/16/2021 6:00:00 AM 2.97 37.346 0.045 6.5 3.69 12.89
3/16/2021 6:15:00 AM 2.95 37.31 0.045 6.53 3.68 12.89
3/16/2021 6:30:00 AM 2.93 37.274 0.045 6.49 3.68 12.9
3/16/2021 6:45:00 AM 2.86 37.148 0.045 6.5 3.69 12.91
3/16/2021 7:00:00 AM 2.81 37.058 0.045 6.51 3.66 12.91
3/16/2021 7:15:00 AM 2.78 37.004 0.045 6.5 3.67 12.93
3/16/2021 7:30:00 AM 2.76 36.968 0.045 6.52 3.54 12.93
3/16/2021 7:45:00 AM 2.77 36.986 0.045 6.52 3.7 12.94
3/16/2021 8:00:00 AM 2.77 36.986 0.045 6.53 3.59 12.95
3/16/2021 8:15:00 AM 2.77 36.986 0.045 6.52 3.66 12.96
3/16/2021 8:30:00 AM 2.78 37.004 0.045 6.53 3.62 12.97
3/16/2021 8:45:00 AM 2.78 37.004 0.045 6.53 3.51 12.98
3/16/2021 9:00:00 AM 2.78 37.004 0.045 6.54 3.44 13
3/16/2021 9:15:00 AM 2.78 37.004 0.045 6.53 3.51 13.03
3/16/2021 9:30:00 AM 2.8 37.04 0.045 6.55 3.37 13.04
3/16/2021 9:45:00 AM 2.81 37.058 0.045 6.55 3.41 13.05
3/16/2021 10:00:00 AM 2.81 37.058 0.045 6.55 3.36 13.06
3/16/2021 10:15:00 AM 2.83 37.094 0.045 6.56 3.33 13.06
3/16/2021 10:30:00 AM 2.88 37.184 0.045 6.57 3.31 13.07
3/16/2021 10:45:00 AM 2.93 37.274 0.045 6.58 3.29 13.08
3/16/2021 11:00:00 AM 2.96 37.328 0.045 6.59 3.18 13.09
3/16/2021 11:15:00 AM 2.98 37.364 0.045 6.59 3.17 13.07
3/16/2021 11:30:00 AM 3.01 37.418 0.045 6.6 3.22 13.08
3/16/2021 11:45:00 AM 3.06 37.508 0.045 6.61 3.25 13.07
3/16/2021 12:00:00 PM 3.09 37.562 0.045 6.59 3.36 13.07
3/16/2021 12:15:00 PM 3.12 37.616 0.045 6.61 3.24 13.06
3/16/2021 12:30:00 PM 3.15 37.67 0.045 6.59 3.16 13.05
3/16/2021 12:45:00 PM 3.17 37.706 0.045 6.58 3.11 13.03
3/16/2021 1:00:00 PM 3.22 37.796 0.045 6.61 3.13 13.02
3/16/2021 1:15:00 PM 3.26 37.868 0.045 6.61 3.11 13.01
3/16/2021 1:30:00 PM 3.29 37.922 0.045 6.61 3.11 13
3/16/2021 1:45:00 PM 3.32 37.976 0.045 6.62 3.18 12.98
3/16/2021 2:00:00 PM 3.34 38.012 0.045 6.61 3.12 12.97
3/16/2021 2:15:00 PM 3.37 38.066 0.045 6.57 3.25 12.96
3/16/2021 2:30:00 PM 3.41 38.138 0.045 6.62 3.12 12.95
3/16/2021 2:45:00 PM 3.45 38.21 0.045 6.63 3.1 12.94
3/16/2021 3:00:00 PM 3.49 38.282 0.045 6.63 3.05 12.93
3/16/2021 3:15:00 PM 3.52 38.336 0.045 6.63 3.07 12.91
3/16/2021 3:30:00 PM 3.56 38.408 0.045 6.63 3.12 12.91
3/16/2021 3:45:00 PM 3.6 38.48 0.045 6.63 3.11 12.9
3/16/2021 4:00:00 PM 3.63 38.534 0.045 6.63 3.1 12.89
3/16/2021 4:15:00 PM 3.66 38.588 0.045 6.62 3.17 12.87
3/16/2021 4:30:00 PM 3.69 38.642 0.045 6.63 3.06 12.86
3/16/2021 4:45:00 PM 3.73 38.714 0.045 6.63 3.14 12.85
3/16/2021 5:00:00 PM 3.78 38.804 0.045 6.64 3.14 12.83
3/16/2021 5:15:00 PM 3.81 38.858 0.045 6.64 3.06 12.83
3/16/2021 5:30:00 PM 3.84 38.912 0.045 6.64 3.13 12.81
3/16/2021 5:45:00 PM 3.88 38.984 0.045 6.64 3.13 12.79
3/16/2021 6:00:00 PM 3.9 39.02 0.045 6.64 3.14 12.78
3/16/2021 6:15:00 PM 3.91 39.038 0.045 6.63 3.07 12.76
3/16/2021 6:30:00 PM 3.91 39.038 0.046 6.63 3.21 12.73
3/16/2021 6:45:00 PM 3.91 39.038 0.046 6.62 3.3 12.7
3/16/2021 7:00:00 PM 3.91 39.038 0.046 6.61 3.19 12.68
3/16/2021 7:15:00 PM 3.92 39.056 0.046 6.6 3.42 12.65
3/16/2021 7:30:00 PM 3.92 39.056 0.046 6.59 3.28 12.62
3/16/2021 7:45:00 PM 3.92 39.056 0.046 6.58 3.24 12.6
3/16/2021 8:00:00 PM 3.91 39.038 0.046 6.57 3.35 12.58
3/16/2021 8:15:00 PM 3.91 39.038 0.046 6.58 3.31 12.56
3/16/2021 8:30:00 PM 3.89 39.002 0.046 6.55 3.24 12.56
3/16/2021 8:45:00 PM 3.88 38.984 0.046 6.55 3.34 12.55
3/16/2021 9:00:00 PM 3.87 38.966 0.046 6.56 3.39 12.55
3/16/2021 9:15:00 PM 3.86 38.948 0.046 6.56 3.32 12.55
3/16/2021 9:30:00 PM 3.85 38.93 0.046 6.56 3.36 12.55
3/16/2021 9:45:00 PM 3.84 38.912 0.046 6.55 3.5 12.56
3/16/2021 10:00:00 PM 3.83 38.894 0.046 6.55 3.4 12.56
3/16/2021 10:15:00 PM 3.81 38.858 0.046 6.55 3.28 12.57
3/16/2021 10:30:00 PM 3.81 38.858 0.046 6.55 3.34 12.57
3/16/2021 10:45:00 PM 3.79 38.822 0.046 6.55 3.33 12.57
3/16/2021 11:00:00 PM 3.78 38.804 0.046 6.54 3.31 12.58
3/16/2021 11:15:00 PM 3.76 38.768 0.046 6.55 3.23 12.59
3/16/2021 11:30:00 PM 3.75 38.75 0.046 6.54 3.28 12.59
3/16/2021 11:45:00 PM 3.74 38.732 0.046 6.55 3.36 12.59
3/17/2021 12:00:00 AM 3.73 38.714 0.046 6.55 3.36 12.59
3/17/2021 12:15:00 AM 3.72 38.696 0.046 6.55 3.24 12.6
3/17/2021 12:30:00 AM 3.72 38.696 0.046 6.56 3.19 12.6
3/17/2021 12:45:00 AM 3.7 38.66 0.046 6.57 3.27 12.6
3/17/2021 1:00:00 AM 3.7 38.66 0.046 6.53 3.36 12.61
3/17/2021 1:15:00 AM 3.69 38.642 0.046 6.54 3.27 12.61
3/17/2021 1:30:00 AM 3.68 38.624 0.046 6.53 3.33 12.61
3/17/2021 1:45:00 AM 3.67 38.606 0.046 6.54 3.25 12.62
3/17/2021 2:00:00 AM 3.66 38.588 0.046 6.54 3.31 12.61
3/17/2021 2:15:00 AM 3.65 38.57 0.046 6.54 3.27 12.61
3/17/2021 2:30:00 AM 3.65 38.57 0.046 6.53 3.25 12.62
3/17/2021 2:45:00 AM 3.64 38.552 0.046 6.54 3.35 12.62
3/17/2021 3:00:00 AM 3.63 38.534 0.046 6.54 3.13 12.63
3/17/2021 3:15:00 AM 3.62 38.516 0.046 6.54 3.14 12.63
3/17/2021 3:30:00 AM 3.61 38.498 0.046 6.56 3.24 12.64
3/17/2021 3:45:00 AM 3.6 38.48 0.046 6.56 3.21 12.64
3/17/2021 4:00:00 AM 3.6 38.48 0.047 6.55 3.07 12.63
3/17/2021 4:15:00 AM 3.58 38.444 0.047 6.56 3.03 12.64
3/17/2021 4:30:00 AM 3.57 38.426 0.047 6.55 3.1 12.65
3/17/2021 4:45:00 AM 3.57 38.426 0.047 6.56 3.09 12.65
3/17/2021 5:00:00 AM 3.56 38.408 0.047 6.56 3.12 12.65
3/17/2021 5:15:00 AM 3.55 38.39 0.047 6.56 3.2 12.66
3/17/2021 5:30:00 AM 3.55 38.39 0.047 6.56 3.18 12.66
3/17/2021 5:45:00 AM 3.55 38.39 0.046 6.56 3.15 12.66
3/17/2021 6:00:00 AM 3.54 38.372 0.046 6.55 3.11 12.67
3/17/2021 6:15:00 AM 3.54 38.372 0.047 6.56 3.16 12.67
3/17/2021 6:30:00 AM 3.54 38.372 0.047 6.56 3.12 12.67
3/17/2021 6:45:00 AM 3.54 38.372 0.047 6.56 3.18 12.67
3/17/2021 7:00:00 AM 3.53 38.354 0.046 6.56 3.04 12.67
3/17/2021 7:15:00 AM 3.53 38.354 0.047 6.56 3.13 12.68
3/17/2021 7:30:00 AM 3.54 38.372 0.047 6.57 3.07 12.68
3/17/2021 7:45:00 AM 3.54 38.372 0.047 6.57 3.12 12.69
3/17/2021 8:00:00 AM 3.54 38.372 0.047 6.57 3.11 12.7
3/17/2021 8:15:00 AM 3.55 38.39 0.047 6.57 3.08 12.71
3/17/2021 8:30:00 AM 3.56 38.408 0.047 6.58 3.09 12.72
3/17/2021 8:45:00 AM 3.58 38.444 0.047 6.58 3.07 12.75
3/17/2021 9:00:00 AM 3.6 38.48 0.047 6.6 3.01 12.76
3/17/2021 9:15:00 AM 3.63 38.534 0.047 6.6 3.05 12.78
3/17/2021 9:30:00 AM 3.65 38.57 0.046 6.61 2.95 12.8
3/17/2021 9:45:00 AM 3.69 38.642 0.046 6.61 2.96 12.81
3/17/2021 10:00:00 AM 3.72 38.696 0.046 6.62 2.98 12.82
3/17/2021 10:15:00 AM 3.77 38.786 0.046 6.64 2.94 12.82
3/17/2021 10:30:00 AM 3.82 38.876 0.046 6.65 2.88 12.83
3/17/2021 10:45:00 AM 3.88 38.984 0.046 6.65 2.93 12.83
3/17/2021 11:00:00 AM 3.94 39.092 0.046 6.66 2.92 12.82
3/17/2021 11:15:00 AM 4.02 39.236 0.046 6.67 3.04 12.81
3/17/2021 11:30:00 AM 4.1 39.38 0.046 6.68 2.83 12.79
3/17/2021 11:45:00 AM 4.2 39.56 0.046 6.69 2.81 12.78
3/17/2021 12:00:00 PM 4.31 39.758 0.046 6.7 2.8 12.76
3/17/2021 12:15:00 PM 4.44 39.992 0.046 6.71 2.86 12.73
3/17/2021 12:30:00 PM 4.59 40.262 0.046 6.72 2.86 12.7
3/17/2021 12:45:00 PM 4.74 40.532 0.046 6.72 2.82 12.66
3/17/2021 1:00:00 PM 5 41 0.046 6.75 2.82 12.61
3/17/2021 1:15:00 PM 5.29 41.522 0.046 6.75 2.8 12.55
3/17/2021 1:30:00 PM 5.55 41.99 0.046 6.76 2.85 12.48
3/17/2021 1:45:00 PM 5.79 42.422 0.046 6.76 2.8 12.4
3/17/2021 2:00:00 PM 6.02 42.836 0.046 6.76 2.78 12.34
3/17/2021 2:15:00 PM 6.2 43.16 0.046 6.76 2.81 12.28
3/17/2021 2:30:00 PM 6.38 43.484 0.046 6.76 2.81 12.22
3/17/2021 2:45:00 PM 6.54 43.772 0.046 6.76 2.77 12.16
3/17/2021 3:00:00 PM 6.7 44.06 0.046 6.76 2.88 12.11
3/17/2021 3:15:00 PM 6.87 44.366 0.046 6.77 3.13 12.04
3/17/2021 3:30:00 PM 7.03 44.654 0.046 6.77 2.83 11.99
3/17/2021 3:45:00 PM 7.18 44.924 0.046 6.77 2.86 11.94
3/17/2021 4:00:00 PM 7.33 45.194 0.046 6.77 3.03 11.88
3/17/2021 4:15:00 PM 7.46 45.428 0.046 6.77 2.93 11.83
3/17/2021 4:30:00 PM 7.57 45.626 0.046 6.77 2.94 11.78
3/17/2021 4:45:00 PM 7.65 45.77 0.046 6.75 2.89 11.74
3/17/2021 5:00:00 PM 7.7 45.86 0.046 6.75 2.9 11.71
3/17/2021 5:15:00 PM 7.72 45.896 0.046 6.74 3.01 11.69
3/17/2021 5:30:00 PM 7.72 45.896 0.046 6.73 2.91 11.66
3/17/2021 5:45:00 PM 7.7 45.86 0.046 6.72 2.92 11.64
3/17/2021 6:00:00 PM 7.65 45.77 0.046 6.72 3.01 11.63
3/17/2021 6:15:00 PM 7.61 45.698 0.046 6.7 3.1 11.61
3/17/2021 6:30:00 PM 7.55 45.59 0.046 6.7 3.07 11.6
3/17/2021 6:45:00 PM 7.48 45.464 0.046 6.69 3.17 11.59
3/17/2021 7:00:00 PM 7.38 45.284 0.046 6.69 3.09 11.58
3/17/2021 7:15:00 PM 7.28 45.104 0.046 6.67 3.11 11.56
3/17/2021 7:30:00 PM 7.18 44.924 0.046 6.66 3.17 11.55
3/17/2021 7:45:00 PM 7.09 44.762 0.046 6.65 3.18 11.55
3/17/2021 8:00:00 PM 6.99 44.582 0.047 6.64 3.16 11.56
3/17/2021 8:15:00 PM 6.88 44.384 0.047 6.63 3.24 11.57
3/17/2021 8:30:00 PM 6.76 44.168 0.047 6.64 3.23 11.59
3/17/2021 8:45:00 PM 6.65 43.97 0.047 6.61 3.3 11.62
3/17/2021 9:00:00 PM 6.53 43.754 0.047 6.61 3.21 11.64
3/17/2021 9:15:00 PM 6.43 43.574 0.047 6.6 3.34 11.67
3/17/2021 9:30:00 PM 6.33 43.394 0.047 6.59 3.4 11.7
3/17/2021 9:45:00 PM 6.25 43.25 0.047 6.59 3.27 11.72
3/17/2021 10:00:00 PM 6.16 43.088 0.047 6.59 3.35 11.74
3/17/2021 10:15:00 PM 6.07 42.926 0.047 6.6 3.55 11.78
3/17/2021 10:30:00 PM 5.99 42.782 0.047 6.59 3.4 11.8
3/17/2021 10:45:00 PM 5.9 42.62 0.047 6.59 3.4 11.82
3/17/2021 11:00:00 PM 5.82 42.476 0.047 6.59 3.29 11.85
3/17/2021 11:15:00 PM 5.73 42.314 0.047 6.58 3.39 11.88
3/17/2021 11:30:00 PM 5.65 42.17 0.047 6.56 3.42 11.9
3/17/2021 11:45:00 PM 5.57 42.026 0.047 6.58 3.33 11.92
3/18/2021 12:00:00 AM 5.5 41.9 0.047 6.57 3.27 11.95
3/18/2021 12:15:00 AM 5.42 41.756 0.047 6.58 3.3 11.97
3/18/2021 12:30:00 AM 5.34 41.612 0.048 6.58 3.23 11.99
3/18/2021 12:45:00 AM 5.28 41.504 0.048 6.57 3.33 12.01
3/18/2021 1:00:00 AM 5.22 41.396 0.048 6.58 3.26 12.04
3/18/2021 1:15:00 AM 5.17 41.306 0.048 6.58 3.28 12.06
3/18/2021 1:30:00 AM 5.13 41.234 0.048 6.58 3.23 12.08
3/18/2021 1:45:00 AM 5.09 41.162 0.048 6.58 3.12 12.09
3/18/2021 2:00:00 AM 5.06 41.108 0.048 6.58 3.26 12.1
3/18/2021 2:15:00 AM 5.03 41.054 0.048 6.58 3.23 12.12
3/18/2021 2:30:00 AM 5 41 0.048 6.58 3.25 12.13
3/18/2021 2:45:00 AM 4.97 40.946 0.048 6.59 3.25 12.14
3/18/2021 3:00:00 AM 4.94 40.892 0.048 6.59 3.21 12.15
3/18/2021 3:15:00 AM 4.92 40.856 0.048 6.59 3.16 12.16
3/18/2021 3:30:00 AM 4.89 40.802 0.048 6.59 3.07 12.17
3/18/2021 3:45:00 AM 4.87 40.766 0.048 6.61 3.1 12.17
3/18/2021 4:00:00 AM 4.85 40.73 0.048 6.6 3.36 12.18
3/18/2021 4:15:00 AM 4.82 40.676 0.048 6.59 3.14 12.19
3/18/2021 4:30:00 AM 4.81 40.658 0.048 6.6 3.15 12.19
3/18/2021 4:45:00 AM 4.79 40.622 0.048 6.6 3.17 12.2
3/18/2021 5:00:00 AM 4.77 40.586 0.048 6.6 3.11 12.2
3/18/2021 5:15:00 AM 4.76 40.568 0.048 6.61 3 12.2
3/18/2021 5:30:00 AM 4.75 40.55 0.048 6.6 3.08 12.2
3/18/2021 5:45:00 AM 4.73 40.514 0.048 6.6 3.22 12.21
3/18/2021 6:00:00 AM 4.72 40.496 0.048 6.6 3.13 12.21
3/18/2021 6:15:00 AM 4.71 40.478 0.048 6.6 3.06 12.21
3/18/2021 6:30:00 AM 4.7 40.46 0.048 6.6 3.12 12.21
3/18/2021 6:45:00 AM 4.69 40.442 0.048 6.58 3.01 12.21
3/18/2021 7:00:00 AM 4.69 40.442 0.048 6.58 2.98 12.22
3/18/2021 7:15:00 AM 4.68 40.424 0.048 6.59 3.18 12.21
3/18/2021 7:30:00 AM 4.67 40.406 0.051 6.6 3.08 12.21
3/18/2021 7:45:00 AM 4.67 40.406 0.055 6.61 3.04 12.21
3/18/2021 8:00:00 AM 4.66 40.388 0.052 6.6 3.07 12.22
3/18/2021 8:15:00 AM 4.66 40.388 0.051 6.6 3.23 12.23
3/18/2021 8:30:00 AM 4.66 40.388 0.05 6.61 3.12 12.25
3/18/2021 8:45:00 AM 4.67 40.406 0.051 6.61 3.17 12.26
3/18/2021 9:00:00 AM 4.68 40.424 0.053 6.62 3.35 12.27
3/18/2021 9:15:00 AM 4.68 40.424 0.051 6.63 3.34 12.29
3/18/2021 9:30:00 AM 4.7 40.46 0.052 6.64 3.46 12.31
3/18/2021 9:45:00 AM 4.72 40.496 0.051 6.64 3.34 12.33
3/18/2021 10:00:00 AM 4.73 40.514 0.049 6.64 3.06 12.34
3/18/2021 10:15:00 AM 4.75 40.55 0.05 6.65 3.25 12.35
3/18/2021 10:30:00 AM 4.78 40.604 0.05 6.66 3.28 12.36
3/18/2021 10:45:00 AM 4.8 40.64 0.05 6.66 3.35 12.36
3/18/2021 11:00:00 AM 4.83 40.694 0.05 6.66 3.53 12.36
3/18/2021 11:15:00 AM 4.85 40.73 0.051 6.69 3.74 12.36
3/18/2021 11:30:00 AM 4.89 40.802 0.052 6.68 4.29 12.37
3/18/2021 11:45:00 AM 4.92 40.856 0.051 6.69 4.28 12.37
3/18/2021 12:00:00 PM 4.95 40.91 0.052 6.69 4.29 12.35
3/18/2021 12:15:00 PM 4.99 40.982 0.054 6.71 5.07 12.35
3/18/2021 12:30:00 PM 5.04 41.072 0.052 6.71 4.76 12.35
3/18/2021 12:45:00 PM 5.09 41.162 0.052 6.7 4.48 12.35
3/18/2021 1:00:00 PM 5.14 41.252 0.053 6.72 4.77 12.34
3/18/2021 1:15:00 PM 5.18 41.324 0.053 6.73 4.82 12.33
3/18/2021 1:30:00 PM 5.21 41.378 0.053 6.72 5.14 12.31
3/18/2021 1:45:00 PM 5.26 41.468 0.054 6.73 5.77 12.3
3/18/2021 2:00:00 PM 5.3 41.54 0.054 6.74 5.85 12.28
3/18/2021 2:15:00 PM 5.33 41.594 0.054 6.72 6.34 12.27
3/18/2021 2:30:00 PM 5.35 41.63 0.054 6.73 6.95 12.26
3/18/2021 2:45:00 PM 5.38 41.684 0.055 6.71 6.85 12.24
3/18/2021 3:00:00 PM 5.39 41.702 0.055 6.72 7.35 12.22
3/18/2021 3:15:00 PM 5.4 41.72 0.056 6.72 7.49 12.21
3/18/2021 3:30:00 PM 5.4 41.72 0.056 6.7 8.51 12.18
3/18/2021 3:45:00 PM 5.4 41.72 0.056 6.7 9.81 12.16
3/18/2021 4:00:00 PM 5.39 41.702 0.056 6.72 9.61 12.14
3/18/2021 4:15:00 PM 5.38 41.684 0.058 6.71 10.21 12.14
3/18/2021 4:30:00 PM 5.36 41.648 0.058 6.71 11.11 12.14
3/18/2021 4:45:00 PM 5.37 41.666 0.057 6.71 10.73 12.15
3/18/2021 5:00:00 PM 5.35 41.63 0.057 6.71 11.07 12.15
3/18/2021 5:15:00 PM 5.33 41.594 0.057 6.7 12.12 12.14
3/18/2021 5:30:00 PM 5.31 41.558 0.058 6.7 13.41 12.12
3/18/2021 5:45:00 PM 5.28 41.504 0.058 6.69 13.38 12.12
3/18/2021 6:00:00 PM 5.26 41.468 0.058 6.69 13.85 12.12
3/18/2021 6:15:00 PM 5.23 41.414 0.058 6.69 14.37 12.11
3/18/2021 6:30:00 PM 5.2 41.36 0.059 6.67 14.78 12.11
3/18/2021 6:45:00 PM 5.18 41.324 0.059 6.68 14.68 12.1
3/18/2021 7:00:00 PM 5.15 41.27 0.059 6.66 15.01 12.11
3/18/2021 7:15:00 PM 5.13 41.234 0.059 6.65 14.54 12.12
3/18/2021 7:30:00 PM 5.1 41.18 0.06 6.66 14.97 12.12
3/18/2021 7:45:00 PM 5.07 41.126 0.06 6.66 14.59 12.12
3/18/2021 8:00:00 PM 5.04 41.072 0.06 6.65 14.88 12.12
3/18/2021 8:15:00 PM 5.01 41.018 0.06 6.64 14.98 12.12
3/18/2021 8:30:00 PM 4.98 40.964 0.06 6.65 14.92 12.12
3/18/2021 8:45:00 PM 4.94 40.892 0.06 6.64 14.61 12.14
3/18/2021 9:00:00 PM 4.9 40.82 0.06 6.63 13.9 12.15
3/18/2021 9:15:00 PM 4.86 40.748 0.06 6.65 13.7 12.16
3/18/2021 9:30:00 PM 4.82 40.676 0.06 6.64 12.63 12.18
3/18/2021 9:45:00 PM 4.77 40.586 0.06 6.63 12.35 12.19
3/18/2021 10:00:00 PM 4.74 40.532 0.06 6.63 12.19 12.2
3/18/2021 10:15:00 PM 4.7 40.46 0.059 6.64 11.76 12.22
3/18/2021 10:30:00 PM 4.65 40.37 0.059 6.63 11.22 12.24
3/18/2021 10:45:00 PM 4.61 40.298 0.059 6.63 11.21 12.25
3/18/2021 11:00:00 PM 4.57 40.226 0.058 6.62 11.56 12.27
3/18/2021 11:15:00 PM 4.52 40.136 0.058 6.62 10.7 12.28
3/18/2021 11:30:00 PM 4.48 40.064 0.058 6.61 10.45 12.29
3/18/2021 11:45:00 PM 4.44 39.992 0.058 6.6 9.94 12.31
3/19/2021 12:00:00 AM 4.4 39.92 0.058 6.61 9.96 12.32
3/19/2021 12:15:00 AM 4.36 39.848 0.057 6.61 8.96 12.34
3/19/2021 12:30:00 AM 4.32 39.776 0.057 6.61 8.73 12.36
3/19/2021 12:45:00 AM 4.28 39.704 0.057 6.61 8.39 12.37
3/19/2021 1:00:00 AM 4.22 39.596 0.057 6.6 8.47 12.39
3/19/2021 1:15:00 AM 4.17 39.506 0.057 6.6 8.05 12.41
3/19/2021 1:30:00 AM 4.12 39.416 0.057 6.6 8.2 12.43
3/19/2021 1:45:00 AM 4.06 39.308 0.056 6.6 7.71 12.45
3/19/2021 2:00:00 AM 3.99 39.182 0.056 6.59 7.47 12.48
3/19/2021 2:15:00 AM 3.92 39.056 0.056 6.59 7.41 12.5
3/19/2021 2:30:00 AM 3.85 38.93 0.056 6.58 7.2 12.53
3/19/2021 2:45:00 AM 3.8 38.84 0.056 6.58 7.23 12.55
3/19/2021 3:00:00 AM 3.75 38.75 0.056 6.58 6.94 12.56
3/19/2021 3:15:00 AM 3.69 38.642 0.055 6.58 6.77 12.58
3/19/2021 3:30:00 AM 3.62 38.516 0.055 6.57 6.8 12.61
3/19/2021 3:45:00 AM 3.56 38.408 0.055 6.57 6.38 12.63
3/19/2021 4:00:00 AM 3.49 38.282 0.055 6.57 6.56 12.66
3/19/2021 4:15:00 AM 3.42 38.156 0.055 6.57 6.52 12.68
3/19/2021 4:30:00 AM 3.36 38.048 0.055 6.57 6.4 12.7
3/19/2021 4:45:00 AM 3.3 37.94 0.054 6.55 6.17 12.73
3/19/2021 5:00:00 AM 3.24 37.832 0.054 6.56 6.22 12.75
3/19/2021 5:15:00 AM 3.18 37.724 0.054 6.56 6 12.78
3/19/2021 5:30:00 AM 3.13 37.634 0.054 6.57 5.67 12.8
3/19/2021 5:45:00 AM 3.07 37.526 0.054 6.56 5.82 12.82
3/19/2021 6:00:00 AM 3.01 37.418 0.053 6.56 5.75 12.84
3/19/2021 6:15:00 AM 2.97 37.346 0.053 6.56 5.82 12.87
3/19/2021 6:30:00 AM 2.92 37.256 0.053 6.55 5.81 12.89
3/19/2021 6:45:00 AM 2.87 37.166 0.053 6.56 5.66 12.91
3/19/2021 7:00:00 AM 2.82 37.076 0.053 6.54 5.72 12.94
3/19/2021 7:15:00 AM 2.76 36.968 0.053 6.55 5.37 12.96
3/19/2021 7:30:00 AM 2.72 36.896 0.053 6.55 5.58 12.98
3/19/2021 7:45:00 AM 2.67 36.806 0.052 6.56 5.39 13.01
3/19/2021 8:00:00 AM 2.63 36.734 0.052 6.56 5.56 13.05
3/19/2021 8:15:00 AM 2.6 36.68 0.052 6.55 5.34 13.09
3/19/2021 8:30:00 AM 2.57 36.626 0.052 6.57 5.25 13.12
3/19/2021 8:45:00 AM 2.55 36.59 0.052 6.57 5.08 13.16
3/19/2021 9:00:00 AM 2.54 36.572 0.051 6.57 5.28 13.19
3/19/2021 9:15:00 AM 2.53 36.554 0.051 6.58 4.85 13.22
3/19/2021 9:30:00 AM 2.54 36.572 0.051 6.58 5.02 13.25
3/19/2021 9:45:00 AM 2.56 36.608 0.051 6.61 4.86 13.26
3/19/2021 10:00:00 AM 2.59 36.662 0.051 6.62 4.79 13.28
3/19/2021 10:15:00 AM 2.63 36.734 0.051 6.61 4.84 13.3
3/19/2021 10:30:00 AM 2.71 36.878 0.05 6.63 4.75 13.29
3/19/2021 10:45:00 AM 2.81 37.058 0.05 6.63 4.7 13.28
3/19/2021 11:00:00 AM 2.92 37.256 0.05 6.65 4.56 13.27
3/19/2021 11:15:00 AM 3.05 37.49 0.05 6.66 4.47 13.25
3/19/2021 11:30:00 AM 3.21 37.778 0.05 6.67 4.37 13.21
3/19/2021 11:45:00 AM 3.37 38.066 0.049 6.67 4.37 13.18
3/19/2021 12:00:00 PM 3.56 38.408 0.049 6.68 4.46 13.14
3/19/2021 12:15:00 PM 3.75 38.75 0.049 6.69 4.33 13.09
3/19/2021 12:30:00 PM 3.95 39.11 0.049 6.7 4.35 13.04
3/19/2021 12:45:00 PM 4.15 39.47 0.049 6.71 4.34 12.98
3/19/2021 1:00:00 PM 4.35 39.83 0.049 6.71 4.21 12.92
3/19/2021 1:15:00 PM 4.58 40.244 0.049 6.72 4.27 12.85
3/19/2021 1:30:00 PM 4.78 40.604 0.049 6.72 4.32 12.8
3/19/2021 1:45:00 PM 4.98 40.964 0.049 6.72 4.15 12.74
3/19/2021 2:00:00 PM 5.16 41.288 0.048 6.73 4.23 12.68
3/19/2021 2:15:00 PM 5.33 41.594 0.048 6.73 4.31 12.62
3/19/2021 2:30:00 PM 5.5 41.9 0.048 6.73 4.24 12.56
3/19/2021 2:45:00 PM 5.63 42.134 0.048 6.73 4.15 12.51
3/19/2021 3:00:00 PM 5.75 42.35 0.048 6.73 4.14 12.47
3/19/2021 3:15:00 PM 5.87 42.566 0.048 6.73 4.15 12.43
3/19/2021 3:30:00 PM 5.96 42.728 0.048 6.73 4.2 12.39
3/19/2021 3:45:00 PM 6.03 42.854 0.048 6.71 4.16 12.36
3/19/2021 4:00:00 PM 6.07 42.926 0.048 6.71 4.17 12.34
3/19/2021 4:15:00 PM 6.1 42.98 0.048 6.71 4.31 12.32
3/19/2021 4:30:00 PM 6.12 43.016 0.048 6.69 4.09 12.29
3/19/2021 4:45:00 PM 6.1 42.98 0.048 6.67 4.24 12.28
3/19/2021 5:00:00 PM 6.08 42.944 0.047 6.66 4.16 12.27
3/19/2021 5:15:00 PM 6.04 42.872 0.047 6.66 4.26 12.26
3/19/2021 5:30:00 PM 5.99 42.782 0.048 6.66 4.44 12.26
3/19/2021 5:45:00 PM 5.91 42.638 0.047 6.65 4.24 12.26
3/19/2021 6:00:00 PM 5.81 42.458 0.047 6.64 4.18 12.26
3/19/2021 6:15:00 PM 5.69 42.242 0.047 6.62 4.3 12.28
3/19/2021 6:30:00 PM 5.56 42.008 0.047 6.61 4.23 12.29
3/19/2021 6:45:00 PM 5.44 41.792 0.047 6.59 4.17 12.3
3/19/2021 7:00:00 PM 5.34 41.612 0.047 6.61 4.18 12.31
3/19/2021 7:15:00 PM 5.24 41.432 0.047 6.59 4.3 12.32
3/19/2021 7:30:00 PM 5.13 41.234 0.047 6.55 4.19 12.32
3/19/2021 7:45:00 PM 5.02 41.036 0.047 6.57 4.44 12.33
3/19/2021 8:00:00 PM 4.91 40.838 0.047 6.56 4.45 12.35
3/19/2021 8:15:00 PM 4.81 40.658 0.047 6.53 4.19 12.37
3/19/2021 8:30:00 PM 4.71 40.478 0.047 6.52 4.33 12.39
3/19/2021 8:45:00 PM 4.63 40.334 0.047 6.53 4.48 12.41
3/19/2021 9:00:00 PM 4.55 40.19 0.047 6.52 4.31 12.43
3/19/2021 9:15:00 PM 4.47 40.046 0.047 6.52 4.29 12.46
3/19/2021 9:30:00 PM 4.39 39.902 0.047 6.52 4.51 12.49
3/19/2021 9:45:00 PM 4.32 39.776 0.047 6.52 4.34 12.51
3/19/2021 10:00:00 PM 4.24 39.632 0.047 6.5 4.25 12.54
3/19/2021 10:15:00 PM 4.16 39.488 0.047 6.51 4.24 12.57
3/19/2021 10:30:00 PM 4.09 39.362 0.047 6.49 4.33 12.59
3/19/2021 10:45:00 PM 4.02 39.236 0.047 6.5 4.33 12.62
3/19/2021 11:00:00 PM 3.95 39.11 0.047 6.49 4.23 12.64
3/19/2021 11:15:00 PM 3.88 38.984 0.047 6.52 4.11 12.67
3/19/2021 11:30:00 PM 3.81 38.858 0.047 6.52 4.17 12.69
3/19/2021 11:45:00 PM 3.74 38.732 0.047 6.5 4.07 12.72
3/20/2021 12:00:00 AM 3.67 38.606 0.047 6.51 4.1 12.75
3/20/2021 12:15:00 AM 3.6 38.48 0.047 6.51 3.99 12.78
3/20/2021 12:30:00 AM 3.54 38.372 0.047 6.48 4.14 12.8
3/20/2021 12:45:00 AM 3.47 38.246 0.047 6.5 4.11 12.82
3/20/2021 1:00:00 AM 3.41 38.138 0.047 6.48 4.08 12.85
3/20/2021 1:15:00 AM 3.34 38.012 0.047 6.51 4.09 12.87
3/20/2021 1:30:00 AM 3.28 37.904 0.047 6.49 3.97 12.89
3/20/2021 1:45:00 AM 3.22 37.796 0.047 6.49 4.02 12.91
3/20/2021 2:00:00 AM 3.17 37.706 0.047 6.5 4.36 12.94
3/20/2021 2:15:00 AM 3.11 37.598 0.047 6.5 3.97 12.96
3/20/2021 2:30:00 AM 3.06 37.508 0.047 6.49 4 12.98
3/20/2021 2:45:00 AM 3 37.4 0.047 6.47 3.86 13
3/20/2021 3:00:00 AM 2.95 37.31 0.047 6.5 3.82 13.03
3/20/2021 3:15:00 AM 2.9 37.22 0.047 6.49 4.01 13.04
3/20/2021 3:30:00 AM 2.85 37.13 0.047 6.49 3.89 13.06
3/20/2021 3:45:00 AM 2.8 37.04 0.046 6.49 3.94 13.09
3/20/2021 4:00:00 AM 2.75 36.95 0.047 6.5 3.91 13.1
3/20/2021 4:15:00 AM 2.7 36.86 0.046 6.49 3.77 13.12
3/20/2021 4:30:00 AM 2.66 36.788 0.047 6.49 3.75 13.14
3/20/2021 4:45:00 AM 2.61 36.698 0.046 6.48 3.86 13.17
3/20/2021 5:00:00 AM 2.56 36.608 0.047 6.49 3.61 13.18
3/20/2021 5:15:00 AM 2.52 36.536 0.047 6.46 3.75 13.19
3/20/2021 5:30:00 AM 2.48 36.464 0.046 6.49 3.84 13.21
3/20/2021 5:45:00 AM 2.43 36.374 0.046 6.5 3.67 13.23
3/20/2021 6:00:00 AM 2.39 36.302 0.046 6.5 3.68 13.24
3/20/2021 6:15:00 AM 2.35 36.23 0.046 6.48 3.75 13.26
3/20/2021 6:30:00 AM 2.31 36.158 0.046 6.49 3.66 13.28
3/20/2021 6:45:00 AM 2.27 36.086 0.046 6.48 3.65 13.29
3/20/2021 7:00:00 AM 2.23 36.014 0.046 6.49 3.61 13.3
3/20/2021 7:15:00 AM 2.2 35.96 0.046 6.51 3.67 13.32
3/20/2021 7:30:00 AM 2.16 35.888 0.046 6.49 3.52 13.35
3/20/2021 7:45:00 AM 2.13 35.834 0.046 6.49 3.65 13.37
3/20/2021 8:00:00 AM 2.1 35.78 0.046 6.5 3.57 13.4
3/20/2021 8:15:00 AM 2.08 35.744 0.046 6.48 3.58 13.43
3/20/2021 8:30:00 AM 2.07 35.726 0.046 6.51 3.7 13.46
3/20/2021 8:45:00 AM 2.08 35.744 0.046 6.5 3.52 13.49
3/20/2021 9:00:00 AM 2.09 35.762 0.046 6.51 3.46 13.52
3/20/2021 9:15:00 AM 2.12 35.816 0.046 6.54 3.4 13.53
3/20/2021 9:30:00 AM 2.16 35.888 0.046 6.52 3.39 13.55
3/20/2021 9:45:00 AM 2.22 35.996 0.046 6.55 3.41 13.55
3/20/2021 10:00:00 AM 2.29 36.122 0.046 6.57 3.36 13.55
3/20/2021 10:15:00 AM 2.37 36.266 0.046 6.56 3.34 13.55
3/20/2021 10:30:00 AM 2.5 36.5 0.046 6.59 3.21 13.53
3/20/2021 10:45:00 AM 2.64 36.752 0.046 6.6 3.29 13.51
3/20/2021 11:00:00 AM 2.8 37.04 0.046 6.61 3.27 13.46
3/20/2021 11:15:00 AM 2.98 37.364 0.046 6.61 3.3 13.42
3/20/2021 11:30:00 AM 3.2 37.76 0.046 6.64 3.18 13.37
3/20/2021 11:45:00 AM 3.43 38.174 0.046 6.65 3.19 13.31
3/20/2021 12:00:00 PM 3.67 38.606 0.046 6.65 3.2 13.25
3/20/2021 12:15:00 PM 3.93 39.074 0.045 6.68 3.13 13.17
3/20/2021 12:30:00 PM 4.2 39.56 0.045 6.67 3.16 13.09
3/20/2021 12:45:00 PM 4.46 40.028 0.045 6.69 3.1 13.01
3/20/2021 1:00:00 PM 4.73 40.514 0.045 6.68 3.08 12.93
3/20/2021 1:15:00 PM 5.01 41.018 0.045 6.7 3.16 12.84
3/20/2021 1:30:00 PM 5.28 41.504 0.045 6.7 3.19 12.76
3/20/2021 1:45:00 PM 5.53 41.954 0.045 6.7 3.08 12.67
3/20/2021 2:00:00 PM 5.79 42.422 0.045 6.71 3.23 12.58
3/20/2021 2:15:00 PM 6.04 42.872 0.045 6.71 3.09 12.5
3/20/2021 2:30:00 PM 6.26 43.268 0.045 6.71 3.14 12.42
3/20/2021 2:45:00 PM 6.46 43.628 0.045 6.72 3.29 12.36
3/20/2021 3:00:00 PM 6.67 44.006 0.045 6.72 3.36 12.29
3/20/2021 3:15:00 PM 6.82 44.276 0.045 6.72 3.4 12.23
3/20/2021 3:30:00 PM 6.99 44.582 0.045 6.73 3.32 12.17
3/20/2021 3:45:00 PM 7.12 44.816 0.045 6.71 3.23 12.11
3/20/2021 4:00:00 PM 7.21 44.978 0.045 6.7 3.36 12.07
3/20/2021 4:15:00 PM 7.29 45.122 0.045 6.69 3.3 12.03
3/20/2021 4:30:00 PM 7.34 45.212 0.045 6.71 3.93 11.99
3/20/2021 4:45:00 PM 7.37 45.266 0.045 6.69 3.58 11.97
3/20/2021 5:00:00 PM 7.4 45.32 0.045 6.69 3.42 11.95
3/20/2021 5:15:00 PM 7.38 45.284 0.045 6.68 3.58 11.92
3/20/2021 5:30:00 PM 7.36 45.248 0.045 6.67 3.67 11.91
3/20/2021 5:45:00 PM 7.32 45.176 0.045 6.66 3.68 11.9
3/20/2021 6:00:00 PM 7.24 45.032 0.045 6.65 4.45 11.89
3/20/2021 6:15:00 PM 7.14 44.852 0.045 6.63 3.82 11.89
3/20/2021 6:30:00 PM 7.03 44.654 0.045 6.64 3.83 11.89
3/20/2021 6:45:00 PM 6.9 44.42 0.045 6.64 3.78 11.89
3/20/2021 7:00:00 PM 6.79 44.222 0.045 6.62 3.81 11.9
3/20/2021 7:15:00 PM 6.68 44.024 0.045 6.62 3.82 11.9
3/20/2021 7:30:00 PM 6.57 43.826 0.046 6.61 3.92 11.91
3/20/2021 7:45:00 PM 6.45 43.61 0.046 6.59 3.9 11.9
3/20/2021 8:00:00 PM 6.33 43.394 0.046 6.57 3.88 11.92
3/20/2021 8:15:00 PM 6.21 43.178 0.045 6.54 3.96 11.95
3/20/2021 8:30:00 PM 6.1 42.98 0.046 6.54 3.8 11.97
3/20/2021 8:45:00 PM 5.99 42.782 0.046 6.54 3.99 11.99
3/20/2021 9:00:00 PM 5.89 42.602 0.046 6.52 3.99 12.02
3/20/2021 9:15:00 PM 5.8 42.44 0.046 6.51 3.98 12.04
3/20/2021 9:30:00 PM 5.71 42.278 0.046 6.51 3.92 12.07
3/20/2021 9:45:00 PM 5.62 42.116 0.046 6.53 3.91 12.09
3/20/2021 10:00:00 PM 5.53 41.954 0.046 6.52 3.89 12.12
3/20/2021 10:15:00 PM 5.44 41.792 0.046 6.54 3.97 12.15
3/20/2021 10:30:00 PM 5.35 41.63 0.046 6.53 3.89 12.18
3/20/2021 10:45:00 PM 5.25 41.45 0.046 6.53 3.86 12.21
3/20/2021 11:00:00 PM 5.16 41.288 0.046 6.52 4.07 12.24
3/20/2021 11:15:00 PM 5.07 41.126 0.046 6.54 3.76 12.28
3/20/2021 11:30:00 PM 4.98 40.964 0.046 6.51 3.9 12.31
3/20/2021 11:45:00 PM 4.89 40.802 0.046 6.53 3.84 12.34
3/21/2021 12:00:00 AM 4.79 40.622 0.046 6.53 3.72 12.37
3/21/2021 12:15:00 AM 4.7 40.46 0.046 6.51 3.91 12.4
3/21/2021 12:30:00 AM 4.62 40.316 0.046 6.52 3.76 12.43
3/21/2021 12:45:00 AM 4.53 40.154 0.046 6.52 3.82 12.46
3/21/2021 1:00:00 AM 4.44 39.992 0.046 6.54 3.64 12.49
3/21/2021 1:15:00 AM 4.36 39.848 0.046 6.51 3.68 12.52
3/21/2021 1:30:00 AM 4.27 39.686 0.046 6.52 3.65 12.55
3/21/2021 1:45:00 AM 4.19 39.542 0.046 6.52 3.59 12.58
3/21/2021 2:00:00 AM 4.11 39.398 0.046 6.51 3.71 12.6
3/21/2021 2:15:00 AM 4.04 39.272 0.046 6.52 3.75 12.63
3/21/2021 2:30:00 AM 3.96 39.128 0.046 6.53 3.79 12.66
3/21/2021 2:45:00 AM 3.88 38.984 0.046 6.52 3.6 12.69
3/21/2021 3:00:00 AM 3.81 38.858 0.046 6.52 3.68 12.7
3/21/2021 3:15:00 AM 3.74 38.732 0.046 6.51 3.53 12.74
3/21/2021 3:30:00 AM 3.67 38.606 0.046 6.52 3.4 12.76
3/21/2021 3:45:00 AM 3.6 38.48 0.046 6.51 3.43 12.79
3/21/2021 4:00:00 AM 3.53 38.354 0.046 6.51 3.48 12.81
3/21/2021 4:15:00 AM 3.46 38.228 0.046 6.52 3.5 12.84
3/21/2021 4:30:00 AM 3.4 38.12 0.046 6.5 3.62 12.85
3/21/2021 4:45:00 AM 3.33 37.994 0.046 6.52 3.52 12.88
3/21/2021 5:00:00 AM 3.27 37.886 0.046 6.51 3.48 12.9
3/21/2021 5:15:00 AM 3.21 37.778 0.046 6.5 3.5 12.92
3/21/2021 5:30:00 AM 3.15 37.67 0.046 6.51 3.4 12.94
3/21/2021 5:45:00 AM 3.1 37.58 0.046 6.51 3.52 12.96
3/21/2021 6:00:00 AM 3.04 37.472 0.046 6.5 3.36 12.98
3/21/2021 6:15:00 AM 2.98 37.364 0.046 6.52 3.41 13
3/21/2021 6:30:00 AM 2.93 37.274 0.046 6.5 3.34 13.03
3/21/2021 6:45:00 AM 2.88 37.184 0.046 6.49 3.41 13.05
3/21/2021 7:00:00 AM 2.83 37.094 0.046 6.49 3.33 13.07
3/21/2021 7:15:00 AM 2.77 36.986 0.046 6.49 3.43 13.09
3/21/2021 7:30:00 AM 2.73 36.914 0.046 6.52 3.43 13.12
3/21/2021 7:45:00 AM 2.68 36.824 0.046 6.51 3.47 13.15
3/21/2021 8:00:00 AM 2.64 36.752 0.046 6.49 3.39 13.19
3/21/2021 8:15:00 AM 2.62 36.716 0.046 6.52 3.39 13.23
3/21/2021 8:30:00 AM 2.59 36.662 0.046 6.51 3.35 13.27
3/21/2021 8:45:00 AM 2.59 36.662 0.046 6.55 3.24 13.3
3/21/2021 9:00:00 AM 2.6 36.68 0.046 6.53 3.25 13.32
3/21/2021 9:15:00 AM 2.62 36.716 0.046 6.56 3.19 13.35
3/21/2021 9:30:00 AM 2.67 36.806 0.046 6.56 3.27 13.36
3/21/2021 9:45:00 AM 2.73 36.914 0.046 6.55 4.32 13.37
3/21/2021 10:00:00 AM 2.8 37.04 0.046 6.6 3.16 13.37
3/21/2021 10:15:00 AM 2.89 37.202 0.046 6.59 3.4 13.37
3/21/2021 10:30:00 AM 3.01 37.418 0.046 6.6 3.08 13.35
3/21/2021 10:45:00 AM 3.17 37.706 0.046 6.62 3.14 13.33
3/21/2021 11:00:00 AM 3.34 38.012 0.046 6.64 3.18 13.29
3/21/2021 11:15:00 AM 3.54 38.372 0.046 6.64 3.1 13.25
3/21/2021 11:30:00 AM 3.74 38.732 0.046 6.67 3.19 13.19
3/21/2021 11:45:00 AM 3.99 39.182 0.046 6.68 3.1 13.14
3/21/2021 12:00:00 PM 4.26 39.668 0.046 6.69 3.09 13.07
3/21/2021 12:15:00 PM 4.53 40.154 0.046 6.7 3.03 12.98
3/21/2021 12:30:00 PM 4.82 40.676 0.046 6.7 3.04 12.91
3/21/2021 12:45:00 PM 5.11 41.198 0.046 6.72 3.08 12.82
3/21/2021 1:00:00 PM 5.4 41.72 0.046 6.72 3.11 12.73
3/21/2021 1:15:00 PM 5.69 42.242 0.046 6.74 3.11 12.64
3/21/2021 1:30:00 PM 5.96 42.728 0.046 6.75 3.04 12.56
3/21/2021 1:45:00 PM 6.24 43.232 0.046 6.76 3.03 12.47
3/21/2021 2:00:00 PM 6.53 43.754 0.046 6.76 2.93 12.38
3/21/2021 2:15:00 PM 6.77 44.186 0.046 6.75 3.21 12.3
3/21/2021 2:30:00 PM 7.02 44.636 0.046 6.76 3.23 12.21
3/21/2021 2:45:00 PM 7.23 45.014 0.045 6.75 3.12 12.14
3/21/2021 3:00:00 PM 7.46 45.428 0.045 6.75 3.04 12.06
3/21/2021 3:15:00 PM 7.65 45.77 0.045 6.76 3.17 12
3/21/2021 3:30:00 PM 7.82 46.076 0.046 6.76 3.05 11.94
3/21/2021 3:45:00 PM 7.94 46.292 0.045 6.77 3.34 11.88
3/21/2021 4:00:00 PM 8.06 46.508 0.045 6.76 3.7 11.84
3/21/2021 4:15:00 PM 8.16 46.688 0.046 6.76 3.6 11.79
3/21/2021 4:30:00 PM 8.21 46.778 0.045 6.75 3.42 11.75
3/21/2021 4:45:00 PM 8.26 46.868 0.045 6.73 3.25 11.72
3/21/2021 5:00:00 PM 8.28 46.904 0.045 6.73 3.3 11.69
3/21/2021 5:15:00 PM 8.27 46.886 0.045 6.72 3.39 11.68
3/21/2021 5:30:00 PM 8.23 46.814 0.045 6.72 3.34 11.66
3/21/2021 5:45:00 PM 8.19 46.742 0.046 6.71 3.37 11.64
3/21/2021 6:00:00 PM 8.12 46.616 0.046 6.7 3.39 11.63
3/21/2021 6:15:00 PM 8.02 46.436 0.046 6.7 3.35 11.63
3/21/2021 6:30:00 PM 7.92 46.256 0.046 6.68 3.34 11.62
3/21/2021 6:45:00 PM 7.79 46.022 0.046 6.66 3.5 11.62
3/21/2021 7:00:00 PM 7.66 45.788 0.046 6.66 3.49 11.63
3/21/2021 7:15:00 PM 7.54 45.572 0.046 6.64 3.7 11.63
3/21/2021 7:30:00 PM 7.42 45.356 0.046 6.62 3.63 11.63
3/21/2021 7:45:00 PM 7.29 45.122 0.046 6.62 3.59 11.63
3/21/2021 8:00:00 PM 7.16 44.888 0.046 6.58 3.68 11.64
3/21/2021 8:15:00 PM 7.03 44.654 0.046 6.58 3.61 11.66
3/21/2021 8:30:00 PM 6.9 44.42 0.046 6.56 3.51 11.69
3/21/2021 8:45:00 PM 6.77 44.186 0.046 6.56 3.63 11.72
3/21/2021 9:00:00 PM 6.66 43.988 0.046 6.54 3.72 11.74
3/21/2021 9:15:00 PM 6.55 43.79 0.046 6.56 3.67 11.77
3/21/2021 9:30:00 PM 6.45 43.61 0.046 6.56 3.6 11.79
3/21/2021 9:45:00 PM 6.35 43.43 0.046 6.54 3.68 11.82
3/21/2021 10:00:00 PM 6.26 43.268 0.046 6.54 3.63 11.85
3/21/2021 10:15:00 PM 6.15 43.07 0.046 6.54 3.58 11.88
3/21/2021 10:30:00 PM 6.06 42.908 0.046 6.54 3.75 11.91
3/21/2021 10:45:00 PM 5.96 42.728 0.046 6.53 3.68 11.93
3/21/2021 11:00:00 PM 5.86 42.548 0.046 6.52 3.67 11.97
3/21/2021 11:15:00 PM 5.76 42.368 0.047 6.53 3.66 11.99
3/21/2021 11:30:00 PM 5.66 42.188 0.046 6.54 3.61 12.03
3/21/2021 11:45:00 PM 5.56 42.008 0.046 6.53 3.55 12.06
3/22/2021 12:00:00 AM 5.46 41.828 0.047 6.53 3.59 12.09
3/22/2021 12:15:00 AM 5.36 41.648 0.047 6.54 3.66 12.13
3/22/2021 12:30:00 AM 5.26 41.468 0.047 6.54 3.56 12.16
3/22/2021 12:45:00 AM 5.16 41.288 0.047 6.51 3.51 12.19
3/22/2021 1:00:00 AM 5.07 41.126 0.047 6.53 3.55 12.22
3/22/2021 1:15:00 AM 4.97 40.946 0.047 6.54 3.58 12.25
3/22/2021 1:30:00 AM 4.88 40.784 0.047 6.51 3.54 12.29
3/22/2021 1:45:00 AM 4.78 40.604 0.047 6.52 3.46 12.32
3/22/2021 2:00:00 AM 4.69 40.442 0.047 6.53 3.44 12.34
3/22/2021 2:15:00 AM 4.6 40.28 0.047 6.52 3.42 12.37
3/22/2021 2:30:00 AM 4.51 40.118 0.047 6.53 3.45 12.4
3/22/2021 2:45:00 AM 4.42 39.956 0.047 6.52 3.49 12.43
3/22/2021 3:00:00 AM 4.33 39.794 0.047 6.52 3.49 12.47
3/22/2021 3:15:00 AM 4.25 39.65 0.047 6.52 3.5 12.49
3/22/2021 3:30:00 AM 4.16 39.488 0.047 6.51 3.42 12.52
3/22/2021 3:45:00 AM 4.08 39.344 0.047 6.51 3.43 12.55
3/22/2021 4:00:00 AM 4 39.2 0.047 6.53 3.32 12.58
3/22/2021 4:15:00 AM 3.92 39.056 0.047 6.52 3.3 12.61
3/22/2021 4:30:00 AM 3.84 38.912 0.047 6.53 3.35 12.63
3/22/2021 4:45:00 AM 3.77 38.786 0.047 6.53 3.28 12.66
3/22/2021 5:00:00 AM 3.69 38.642 0.047 6.53 3.29 12.69
3/22/2021 5:15:00 AM 3.62 38.516 0.047 6.52 3.24 12.72
3/22/2021 5:30:00 AM 3.55 38.39 0.047 6.52 3.26 12.73
3/22/2021 5:45:00 AM 3.48 38.264 0.047 6.52 3.24 12.77
3/22/2021 6:00:00 AM 3.42 38.156 0.047 6.5 3.25 12.79
3/22/2021 6:15:00 AM 3.35 38.03 0.047 6.52 3.12 12.81
3/22/2021 6:30:00 AM 3.29 37.922 0.047 6.52 3.21 12.84
3/22/2021 6:45:00 AM 3.23 37.814 0.047 6.52 3.59 12.85
3/22/2021 7:00:00 AM 3.17 37.706 0.047 6.53 3.22 12.88
3/22/2021 7:15:00 AM 3.11 37.598 0.047 6.51 3.22 12.9
3/22/2021 7:30:00 AM 3.06 37.508 0.047 6.52 3.29 12.93
3/22/2021 7:45:00 AM 3.01 37.418 0.047 6.53 3.15 12.97
3/22/2021 8:00:00 AM 2.97 37.346 0.047 6.54 3.21 13.01
3/22/2021 8:15:00 AM 2.93 37.274 0.047 6.54 3.12 13.05
3/22/2021 8:30:00 AM 2.91 37.238 0.047 6.54 3.1 13.1
3/22/2021 8:45:00 AM 2.91 37.238 0.047 6.55 3.1 13.13
3/22/2021 9:00:00 AM 2.91 37.238 0.047 6.56 3.13 13.16
3/22/2021 9:15:00 AM 2.94 37.292 0.047 6.58 3.06 13.18
3/22/2021 9:30:00 AM 2.99 37.382 0.047 6.6 3.14 13.2
3/22/2021 9:45:00 AM 3.06 37.508 0.047 6.59 2.96 13.22
3/22/2021 10:00:00 AM 3.14 37.652 0.047 6.62 3.05 13.21
3/22/2021 10:15:00 AM 3.23 37.814 0.047 6.63 2.93 13.21
3/22/2021 10:30:00 AM 3.35 38.03 0.047 6.66 2.93 13.2
3/22/2021 10:45:00 AM 3.51 38.318 0.047 6.66 2.88 13.17
3/22/2021 11:00:00 AM 3.7 38.66 0.047 6.66 2.94 13.14
3/22/2021 11:15:00 AM 3.9 39.02 0.047 6.68 2.87 13.08
3/22/2021 11:30:00 AM 4.13 39.434 0.047 6.7 2.88 13.04
3/22/2021 11:45:00 AM 4.38 39.884 0.046 6.71 2.91 12.97
3/22/2021 12:00:00 PM 4.65 40.37 0.046 6.73 2.93 12.9
3/22/2021 12:15:00 PM 4.93 40.874 0.046 6.74 2.76 12.82
3/22/2021 12:30:00 PM 5.22 41.396 0.046 6.75 2.85 12.74
3/22/2021 12:45:00 PM 5.52 41.936 0.046 6.75 2.86 12.65
3/22/2021 1:00:00 PM 5.82 42.476 0.046 6.76 2.81 12.57
3/22/2021 1:15:00 PM 6.12 43.016 0.046 6.77 2.8 12.48
3/22/2021 1:30:00 PM 6.4 43.52 0.046 6.78 2.82 12.39
3/22/2021 1:45:00 PM 6.69 44.042 0.046 6.78 2.8 12.3
3/22/2021 2:00:00 PM 6.96 44.528 0.046 6.78 2.8 12.21
3/22/2021 2:15:00 PM 7.23 45.014 0.046 6.79 2.89 12.13
3/22/2021 2:30:00 PM 7.49 45.482 0.046 6.79 2.78 12.04
3/22/2021 2:45:00 PM 7.72 45.896 0.046 6.81 2.79 11.96
3/22/2021 3:00:00 PM 7.93 46.274 0.046 6.8 2.86 11.89
3/22/2021 3:15:00 PM 8.14 46.652 0.046 6.82 2.99 11.82
3/22/2021 3:30:00 PM 8.31 46.958 0.046 6.81 2.89 11.76
3/22/2021 3:45:00 PM 8.45 47.21 0.046 6.8 2.9 11.7
3/22/2021 4:00:00 PM 8.59 47.462 0.046 6.81 2.9 11.65
3/22/2021 4:15:00 PM 8.69 47.642 0.046 6.8 2.99 11.61
3/22/2021 4:30:00 PM 8.76 47.768 0.046 6.79 2.95 11.56
3/22/2021 4:45:00 PM 8.81 47.858 0.046 6.79 3.16 11.54
3/22/2021 5:00:00 PM 8.83 47.894 0.046 6.78 3.31 11.51
3/22/2021 5:15:00 PM 8.83 47.894 0.046 6.75 3.24 11.47
3/22/2021 5:30:00 PM 8.81 47.858 0.046 6.76 3.34 11.45
3/22/2021 5:45:00 PM 8.77 47.786 0.046 6.74 3.14 11.44
3/22/2021 6:00:00 PM 8.71 47.678 0.046 6.74 3.19 11.43
3/22/2021 6:15:00 PM 8.61 47.498 0.046 6.72 3.2 11.42
3/22/2021 6:30:00 PM 8.52 47.336 0.046 6.72 3.16 11.4
3/22/2021 6:45:00 PM 8.4 47.12 0.046 6.7 3.22 11.4
3/22/2021 7:00:00 PM 8.27 46.886 0.046 6.7 3.2 11.4
3/22/2021 7:15:00 PM 8.14 46.652 0.046 6.67 3.33 11.39
3/22/2021 7:30:00 PM 8.02 46.436 0.046 6.65 3.28 11.39
3/22/2021 7:45:00 PM 7.89 46.202 0.046 6.65 3.34 11.39
3/22/2021 8:00:00 PM 7.77 45.986 0.046 6.61 3.27 11.4
3/22/2021 8:15:00 PM 7.63 45.734 0.046 6.61 3.26 11.42
3/22/2021 8:30:00 PM 7.49 45.482 0.047 6.6 3.37 11.44
3/22/2021 8:45:00 PM 7.36 45.248 0.047 6.58 3.35 11.47
3/22/2021 9:00:00 PM 7.23 45.014 0.047 6.57 3.3 11.5
3/22/2021 9:15:00 PM 7.12 44.816 0.047 6.57 3.34 11.52
3/22/2021 9:30:00 PM 7.01 44.618 0.047 6.56 3.4 11.55
3/22/2021 9:45:00 PM 6.91 44.438 0.047 6.57 3.35 11.57
3/22/2021 10:00:00 PM 6.81 44.258 0.047 6.57 3.28 11.6
3/22/2021 10:15:00 PM 6.71 44.078 0.047 6.55 3.36 11.63
3/22/2021 10:30:00 PM 6.61 43.898 0.047 6.55 3.37 11.66
3/22/2021 10:45:00 PM 6.51 43.718 0.047 6.55 3.42 11.69
3/22/2021 11:00:00 PM 6.42 43.556 0.047 6.55 3.6 11.72
3/22/2021 11:15:00 PM 6.32 43.376 0.047 6.55 3.3 11.75
3/22/2021 11:30:00 PM 6.22 43.196 0.047 6.56 3.33 11.78
3/22/2021 11:45:00 PM 6.12 43.016 0.047 6.56 3.34 11.81
3/23/2021 12:00:00 AM 6.02 42.836 0.047 6.55 3.4 11.84
3/23/2021 12:15:00 AM 5.93 42.674 0.047 6.55 3.38 11.87
3/23/2021 12:30:00 AM 5.83 42.494 0.047 6.56 3.35 11.91
3/23/2021 12:45:00 AM 5.74 42.332 0.047 6.55 3.47 11.93
3/23/2021 1:00:00 AM 5.65 42.17 0.047 6.56 3.29 11.97
3/23/2021 1:15:00 AM 5.56 42.008 0.047 6.57 3.46 12
3/23/2021 1:30:00 AM 5.47 41.846 0.047 6.55 3.36 12.03
3/23/2021 1:45:00 AM 5.38 41.684 0.047 6.56 3.38 12.06
3/23/2021 2:00:00 AM 5.29 41.522 0.047 6.55 3.24 12.09
3/23/2021 2:15:00 AM 5.19 41.342 0.047 6.55 3.28 12.12
3/23/2021 2:30:00 AM 5.1 41.18 0.047 6.55 3.34 12.14
3/23/2021 2:45:00 AM 5.01 41.018 0.047 6.55 3.29 12.18
3/23/2021 3:00:00 AM 4.92 40.856 0.047 6.54 3.27 12.21
3/23/2021 3:15:00 AM 4.83 40.694 0.047 6.54 3.24 12.24
3/23/2021 3:30:00 AM 4.74 40.532 0.047 6.53 3.22 12.27
3/23/2021 3:45:00 AM 4.66 40.388 0.047 6.54 3.37 12.29
3/23/2021 4:00:00 AM 4.57 40.226 0.047 6.53 3.27 12.33
3/23/2021 4:15:00 AM 4.49 40.082 0.047 6.55 3.25 12.36
3/23/2021 4:30:00 AM 4.4 39.92 0.047 6.54 3.26 12.38
3/23/2021 4:45:00 AM 4.32 39.776 0.047 6.53 3.11 12.41
3/23/2021 5:00:00 AM 4.25 39.65 0.047 6.53 3.2 12.43
3/23/2021 5:15:00 AM 4.17 39.506 0.047 6.53 3.11 12.46
3/23/2021 5:30:00 AM 4.09 39.362 0.047 6.53 3.11 12.49
3/23/2021 5:45:00 AM 4.02 39.236 0.047 6.54 3.11 12.52
3/23/2021 6:00:00 AM 3.95 39.11 0.047 6.54 3.1 12.54
3/23/2021 6:15:00 AM 3.87 38.966 0.047 6.55 3.18 12.57
3/23/2021 6:30:00 AM 3.8 38.84 0.047 6.52 3.08 12.6
3/23/2021 6:45:00 AM 3.74 38.732 0.047 6.55 3.17 12.62
3/23/2021 7:00:00 AM 3.67 38.606 0.047 6.54 3.14 12.64
3/23/2021 7:15:00 AM 3.6 38.48 0.047 6.55 3.05 12.67
3/23/2021 7:30:00 AM 3.55 38.39 0.048 6.55 3.01 12.7
3/23/2021 7:45:00 AM 3.5 38.3 0.047 6.55 3.06 12.75
3/23/2021 8:00:00 AM 3.46 38.228 0.047 6.56 3.02 12.8
3/23/2021 8:15:00 AM 3.43 38.174 0.047 6.58 3.06 12.84
3/23/2021 8:30:00 AM 3.41 38.138 0.047 6.59 3.01 12.89
3/23/2021 8:45:00 AM 3.41 38.138 0.047 6.6 3.03 12.93
3/23/2021 9:00:00 AM 3.41 38.138 0.047 6.62 3.05 12.97
3/23/2021 9:15:00 AM 3.45 38.21 0.047 6.62 2.89 12.99
3/23/2021 9:30:00 AM 3.5 38.3 0.047 6.63 2.93 13.01
3/23/2021 9:45:00 AM 3.55 38.39 0.047 6.63 2.9 13.02
3/23/2021 10:00:00 AM 3.64 38.552 0.047 6.66 2.93 13.03
3/23/2021 10:15:00 AM 3.73 38.714 0.047 6.68 2.86 13.01
3/23/2021 10:30:00 AM 3.86 38.948 0.047 6.69 2.82 13
3/23/2021 10:45:00 AM 4.01 39.218 0.047 6.71 2.8 12.98
3/23/2021 11:00:00 AM 4.16 39.488 0.047 6.73 2.82 12.95
3/23/2021 11:15:00 AM 4.36 39.848 0.047 6.75 2.87 12.91
3/23/2021 11:30:00 AM 4.58 40.244 0.047 6.76 2.78 12.86
3/23/2021 11:45:00 AM 4.82 40.676 0.047 6.77 2.79 12.81
3/23/2021 12:00:00 PM 5.07 41.126 0.047 6.78 2.8 12.74
3/23/2021 12:15:00 PM 5.32 41.576 0.046 6.79 2.81 12.68
3/23/2021 12:30:00 PM 5.59 42.062 0.046 6.8 2.71 12.61
3/23/2021 12:45:00 PM 5.86 42.548 0.046 6.81 2.77 12.53
3/23/2021 1:00:00 PM 6.11 42.998 0.046 6.81 2.71 12.46
3/23/2021 1:15:00 PM 6.38 43.484 0.046 6.84 2.75 12.38
3/23/2021 1:30:00 PM 6.61 43.898 0.046 6.83 2.77 12.3
3/23/2021 1:45:00 PM 6.83 44.294 0.046 6.84 2.72 12.23
3/23/2021 2:00:00 PM 6.97 44.546 0.046 6.83 2.67 12.15
3/23/2021 2:15:00 PM 7.12 44.816 0.046 6.82 2.67 12.1
3/23/2021 2:30:00 PM 7.3 45.14 0.046 6.84 2.71 12.04
3/23/2021 2:45:00 PM 7.44 45.392 0.046 6.84 2.71 11.98
3/23/2021 3:00:00 PM 7.54 45.572 0.046 6.84 2.79 11.94
3/23/2021 3:15:00 PM 7.7 45.86 0.046 6.84 2.75 11.89
3/23/2021 3:30:00 PM 7.81 46.058 0.046 6.83 2.7 11.84
3/23/2021 3:45:00 PM 7.9 46.22 0.046 6.84 2.75 11.8
3/23/2021 4:00:00 PM 8 46.4 0.046 6.84 2.76 11.77
3/23/2021 4:15:00 PM 8.08 46.544 0.046 6.83 2.79 11.73
3/23/2021 4:30:00 PM 8.17 46.706 0.046 6.84 2.93 11.71
3/23/2021 4:45:00 PM 8.19 46.742 0.046 6.81 2.77 11.68
3/23/2021 5:00:00 PM 8.19 46.742 0.046 6.81 2.82 11.65
3/23/2021 5:15:00 PM 8.22 46.796 0.046 6.81 2.86 11.63
3/23/2021 5:30:00 PM 8.26 46.868 0.046 6.81 2.8 11.62
3/23/2021 5:45:00 PM 8.26 46.868 0.046 6.8 2.98 11.6
3/23/2021 6:00:00 PM 8.25 46.85 0.046 6.8 2.9 11.58
3/23/2021 6:15:00 PM 8.23 46.814 0.046 6.78 2.9 11.56
3/23/2021 6:30:00 PM 8.21 46.778 0.046 6.78 3.03 11.55
3/23/2021 6:45:00 PM 8.18 46.724 0.046 6.76 2.92 11.52
3/23/2021 7:00:00 PM 8.14 46.652 0.046 6.75 3.02 11.47
3/23/2021 7:15:00 PM 8.09 46.562 0.046 6.74 3.13 11.43
3/23/2021 7:30:00 PM 8.04 46.472 0.046 6.71 3.07 11.39
3/23/2021 7:45:00 PM 8 46.4 0.046 6.69 3.06 11.36
3/23/2021 8:00:00 PM 7.96 46.328 0.046 6.69 3.11 11.34
3/23/2021 8:15:00 PM 7.92 46.256 0.046 6.67 3.09 11.33
3/23/2021 8:30:00 PM 7.88 46.184 0.047 6.67 3.24 11.32
3/23/2021 8:45:00 PM 7.84 46.112 0.047 6.66 3.28 11.32
3/23/2021 9:00:00 PM 7.8 46.04 0.047 6.65 3.2 11.33
3/23/2021 9:15:00 PM 7.75 45.95 0.047 6.65 3.21 11.32
3/23/2021 9:30:00 PM 7.69 45.842 0.047 6.65 3.26 11.34
3/23/2021 9:45:00 PM 7.63 45.734 0.047 6.65 3.28 11.35
3/23/2021 10:00:00 PM 7.57 45.626 0.047 6.64 3.27 11.36
3/23/2021 10:15:00 PM 7.51 45.518 0.047 6.64 3.23 11.37
3/23/2021 10:30:00 PM 7.45 45.41 0.047 6.63 3.37 11.38
3/23/2021 10:45:00 PM 7.38 45.284 0.047 6.64 3.39 11.41
3/23/2021 11:00:00 PM 7.32 45.176 0.047 6.62 3.54 11.41
3/23/2021 11:15:00 PM 7.25 45.05 0.047 6.63 3.34 11.44
3/23/2021 11:30:00 PM 7.19 44.942 0.047 6.63 3.23 11.45
3/23/2021 11:45:00 PM 7.13 44.834 0.047 6.64 3.25 11.47
3/24/2021 12:00:00 AM 7.07 44.726 0.047 6.62 3.36 11.49
3/24/2021 12:15:00 AM 7.02 44.636 0.047 6.62 3.36 11.5
3/24/2021 12:30:00 AM 6.98 44.564 0.047 6.62 3.3 11.52
3/24/2021 12:45:00 AM 6.94 44.492 0.047 6.62 3.33 11.54
3/24/2021 1:00:00 AM 6.91 44.438 0.047 6.62 3.25 11.55
3/24/2021 1:15:00 AM 6.88 44.384 0.047 6.62 3.37 11.56
3/24/2021 1:30:00 AM 6.84 44.312 0.047 6.61 3.37 11.58
3/24/2021 1:45:00 AM 6.8 44.24 0.048 6.62 3.39 11.58
3/24/2021 2:00:00 AM 6.77 44.186 0.047 6.63 3.29 11.6
3/24/2021 2:15:00 AM 6.74 44.132 0.047 6.61 3.42 11.6
3/24/2021 2:30:00 AM 6.7 44.06 0.047 6.62 3.23 11.61
3/24/2021 2:45:00 AM 6.67 44.006 0.048 6.64 3.12 11.62
3/24/2021 3:00:00 AM 6.65 43.97 0.047 6.64 3.17 11.63
3/24/2021 3:15:00 AM 6.63 43.934 0.048 6.62 3.14 11.64
3/24/2021 3:30:00 AM 6.61 43.898 0.047 6.63 3.24 11.65
3/24/2021 3:45:00 AM 6.6 43.88 0.048 6.65 3.12 11.65
3/24/2021 4:00:00 AM 6.59 43.862 0.047 6.64 3.16 11.66
3/24/2021 4:15:00 AM 6.57 43.826 0.047 6.65 3.14 11.66
3/24/2021 4:30:00 AM 6.56 43.808 0.048 6.64 3.06 11.66
3/24/2021 4:45:00 AM 6.54 43.772 0.047 6.64 3.13 11.67
3/24/2021 5:00:00 AM 6.53 43.754 0.048 6.63 3.09 11.67
3/24/2021 5:15:00 AM 6.51 43.718 0.047 6.63 3.08 11.68
3/24/2021 5:30:00 AM 6.49 43.682 0.047 6.63 3.08 11.68
3/24/2021 5:45:00 AM 6.47 43.646 0.048 6.64 3.02 11.69
3/24/2021 6:00:00 AM 6.46 43.628 0.048 6.64 3.11 11.69
3/24/2021 6:15:00 AM 6.44 43.592 0.048 6.63 3.07 11.7
3/24/2021 6:30:00 AM 6.43 43.574 0.048 6.64 3.02 11.7
3/24/2021 6:45:00 AM 6.43 43.574 0.048 6.63 2.92 11.7
3/24/2021 7:00:00 AM 6.41 43.538 0.047 6.62 2.91 11.71
3/24/2021 7:15:00 AM 6.4 43.52 0.048 6.6 3 11.71
3/24/2021 7:30:00 AM 6.39 43.502 0.047 6.61 2.86 11.71
3/24/2021 7:45:00 AM 6.39 43.502 0.047 6.62 2.96 11.71
3/24/2021 8:00:00 AM 6.4 43.52 0.053 6.61 3.08 11.73
3/24/2021 8:15:00 AM 6.4 43.52 0.049 6.65 3.03 11.75
3/24/2021 8:30:00 AM 6.41 43.538 0.048 6.63 3.05 11.76
3/24/2021 8:45:00 AM 6.42 43.556 0.048 6.63 2.86 11.79
3/24/2021 9:00:00 AM 6.43 43.574 0.048 6.67 3.01 11.82
3/24/2021 9:15:00 AM 6.46 43.628 0.048 6.66 3.03 11.86
3/24/2021 9:30:00 AM 6.48 43.664 0.047 6.67 3.11 11.9
3/24/2021 9:45:00 AM 6.51 43.718 0.047 6.68 2.97 11.92
3/24/2021 10:00:00 AM 6.54 43.772 0.047 6.7 2.96 11.94
3/24/2021 10:15:00 AM 6.59 43.862 0.047 6.72 2.94 11.95
3/24/2021 10:30:00 AM 6.63 43.934 0.047 6.72 3.04 11.96
3/24/2021 10:45:00 AM 6.67 44.006 0.047 6.74 3 11.96
3/24/2021 11:00:00 AM 6.72 44.096 0.047 6.75 3.17 11.96
3/24/2021 11:15:00 AM 6.79 44.222 0.047 6.75 3.2 11.97
3/24/2021 11:30:00 AM 6.86 44.348 0.047 6.77 3.44 11.96
3/24/2021 11:45:00 AM 6.95 44.51 0.047 6.79 3.44 11.95
3/24/2021 12:00:00 PM 7.02 44.636 0.047 6.79 3.42 11.95
3/24/2021 12:15:00 PM 7.07 44.726 0.047 6.79 3.46 11.93
3/24/2021 12:30:00 PM 7.14 44.852 0.048 6.8 3.48 11.92
3/24/2021 12:45:00 PM 7.21 44.978 0.048 6.8 3.61 11.91
3/24/2021 1:00:00 PM 7.25 45.05 0.048 6.82 3.72 11.89
3/24/2021 1:15:00 PM 7.32 45.176 0.048 6.81 3.73 11.88
3/24/2021 1:30:00 PM 7.38 45.284 0.048 6.82 3.97 11.86
3/24/2021 1:45:00 PM 7.45 45.41 0.048 6.83 4.08 11.84
3/24/2021 2:00:00 PM 7.53 45.554 0.048 6.83 4.13 11.82
3/24/2021 2:15:00 PM 7.62 45.716 0.048 6.82 4.44 11.79
3/24/2021 2:30:00 PM 7.72 45.896 0.048 6.84 4.4 11.77
3/24/2021 2:45:00 PM 7.86 46.148 0.048 6.85 4.33 11.74
3/24/2021 3:00:00 PM 8 46.4 0.048 6.86 4.2 11.71
3/24/2021 3:15:00 PM 8.16 46.688 0.048 6.88 4.15 11.69
3/24/2021 3:30:00 PM 8.33 46.994 0.048 6.89 4.09 11.65
3/24/2021 3:45:00 PM 8.45 47.21 0.048 6.87 4 11.62
3/24/2021 4:00:00 PM 8.56 47.408 0.048 6.88 4.02 11.58
3/24/2021 4:15:00 PM 8.65 47.57 0.048 6.87 3.91 11.54
3/24/2021 4:30:00 PM 8.8 47.84 0.048 6.91 3.76 11.52
3/24/2021 4:45:00 PM 8.92 48.056 0.048 6.89 3.74 11.48
3/24/2021 5:00:00 PM 8.95 48.11 0.048 6.87 3.64 11.45
3/24/2021 5:15:00 PM 8.94 48.092 0.048 6.85 3.65 11.43
3/24/2021 5:30:00 PM 8.94 48.092 0.048 6.86 3.47 11.4
3/24/2021 5:45:00 PM 8.96 48.128 0.048 6.84 3.4 11.38
3/24/2021 6:00:00 PM 9.01 48.218 0.048 6.86 3.34 11.35
3/24/2021 6:15:00 PM 9.06 48.308 0.048 6.85 3.34 11.3
3/24/2021 6:30:00 PM 9.12 48.416 0.048 6.84 3.4 11.24
3/24/2021 6:45:00 PM 9.17 48.506 0.048 6.83 3.27 11.17
3/24/2021 7:00:00 PM 9.2 48.56 0.048 6.81 3.27 11.1
3/24/2021 7:15:00 PM 9.21 48.578 0.048 6.78 3.41 11.04
3/24/2021 7:30:00 PM 9.18 48.524 0.048 6.75 3.24 11.01
3/24/2021 7:45:00 PM 9.13 48.434 0.049 6.74 3.27 10.98
3/24/2021 8:00:00 PM 9.07 48.326 0.049 6.72 3.38 10.96
3/24/2021 8:15:00 PM 9 48.2 0.049 6.71 3.44 10.96
3/24/2021 8:30:00 PM 8.94 48.092 0.049 6.7 3.29 10.97
3/24/2021 8:45:00 PM 8.89 48.002 0.049 6.72 3.26 10.97
3/24/2021 9:00:00 PM 8.84 47.912 0.049 6.71 3.21 10.98
3/24/2021 9:15:00 PM 8.8 47.84 0.049 6.7 3.26 10.98
3/24/2021 9:30:00 PM 8.77 47.786 0.049 6.7 3.29 10.99
3/24/2021 9:45:00 PM 8.74 47.732 0.049 6.7 3.34 10.99
3/24/2021 10:00:00 PM 8.71 47.678 0.049 6.7 3.34 11
3/24/2021 10:15:00 PM 8.68 47.624 0.049 6.7 3.14 11.01
3/24/2021 10:30:00 PM 8.65 47.57 0.049 6.7 3.33 11.02
3/24/2021 10:45:00 PM 8.63 47.534 0.049 6.7 3.28 11.02
3/24/2021 11:00:00 PM 8.61 47.498 0.049 6.69 3.31 11.03
3/24/2021 11:15:00 PM 8.59 47.462 0.049 6.69 3.22 11.04
3/24/2021 11:30:00 PM 8.57 47.426 0.049 6.69 3.3 11.04
3/24/2021 11:45:00 PM 8.54 47.372 0.049 6.68 3.24 11.05
3/25/2021 12:00:00 AM 8.52 47.336 0.049 6.69 3.24 11.06
3/25/2021 12:15:00 AM 8.49 47.282 0.049 6.7 3.26 11.07
3/25/2021 12:30:00 AM 8.46 47.228 0.049 6.69 3.18 11.07
3/25/2021 12:45:00 AM 8.44 47.192 0.049 6.68 3.36 11.08
3/25/2021 1:00:00 AM 8.41 47.138 0.049 6.68 3.18 11.08
3/25/2021 1:15:00 AM 8.39 47.102 0.049 6.67 3.33 11.09
3/25/2021 1:30:00 AM 8.37 47.066 0.049 6.68 3.26 11.1
3/25/2021 1:45:00 AM 8.34 47.012 0.049 6.69 3.14 11.11
3/25/2021 2:00:00 AM 8.31 46.958 0.049 6.68 3.23 11.11
3/25/2021 2:15:00 AM 8.28 46.904 0.049 6.69 3.24 11.12
3/25/2021 2:30:00 AM 8.26 46.868 0.049 6.67 3.25 11.13
3/25/2021 2:45:00 AM 8.23 46.814 0.049 6.66 3.32 11.13
3/25/2021 3:00:00 AM 8.2 46.76 0.049 6.67 3.24 11.14
3/25/2021 3:15:00 AM 8.17 46.706 0.049 6.65 3.26 11.14
3/25/2021 3:30:00 AM 8.14 46.652 0.049 6.65 3.16 11.15
3/25/2021 3:45:00 AM 8.12 46.616 0.049 6.65 3.15 11.17
3/25/2021 4:00:00 AM 8.09 46.562 0.049 6.65 3.26 11.17
3/25/2021 4:15:00 AM 8.06 46.508 0.049 6.64 3.17 11.18
3/25/2021 4:30:00 AM 8.03 46.454 0.049 6.64 3.17 11.19
3/25/2021 4:45:00 AM 8 46.4 0.049 6.63 3.15 11.2
3/25/2021 5:00:00 AM 7.97 46.346 0.049 6.64 3.24 11.2
3/25/2021 5:15:00 AM 7.94 46.292 0.049 6.66 3.16 11.21
3/25/2021 5:30:00 AM 7.92 46.256 0.049 6.63 3.14 11.22
3/25/2021 5:45:00 AM 7.89 46.202 0.049 6.63 3.27 11.23
3/25/2021 6:00:00 AM 7.86 46.148 0.049 6.64 3.2 11.24
3/25/2021 6:15:00 AM 7.83 46.094 0.049 6.63 3.32 11.24
3/25/2021 6:30:00 AM 7.81 46.058 0.049 6.64 3.18 11.26
3/25/2021 6:45:00 AM 7.78 46.004 0.049 6.64 3.27 11.26
3/25/2021 7:00:00 AM 7.75 45.95 0.049 6.63 3.28 11.28
3/25/2021 7:15:00 AM 7.72 45.896 0.049 6.63 3.17 11.29
3/25/2021 7:30:00 AM 7.7 45.86 0.049 6.64 3.28 11.31
3/25/2021 7:45:00 AM 7.69 45.842 0.049 6.63 3.19 11.35
3/25/2021 8:00:00 AM 7.67 45.806 0.049 6.64 3.29 11.38
3/25/2021 8:15:00 AM 7.66 45.788 0.049 6.66 3.12 11.43
3/25/2021 8:30:00 AM 7.68 45.824 0.048 6.68 3.07 11.49
3/25/2021 8:45:00 AM 7.69 45.842 0.048 6.69 3.1 11.54
3/25/2021 9:00:00 AM 7.72 45.896 0.048 6.71 3.05 11.58
3/25/2021 9:15:00 AM 7.76 45.968 0.048 6.74 3.01 11.61
3/25/2021 9:30:00 AM 7.82 46.076 0.048 6.76 3.06 11.65
3/25/2021 9:45:00 AM 7.89 46.202 0.048 6.78 3.02 11.66
3/25/2021 10:00:00 AM 7.97 46.346 0.048 6.81 2.95 11.68
3/25/2021 10:15:00 AM 8.09 46.562 0.048 6.82 2.96 11.68
3/25/2021 10:30:00 AM 8.21 46.778 0.048 6.84 2.98 11.67
3/25/2021 10:45:00 AM 8.34 47.012 0.048 6.86 2.93 11.67
3/25/2021 11:00:00 AM 8.5 47.3 0.048 6.88 2.92 11.64
3/25/2021 11:15:00 AM 8.68 47.624 0.048 6.9 2.95 11.62
3/25/2021 11:30:00 AM 8.86 47.948 0.048 6.92 2.92 11.58
3/25/2021 11:45:00 AM 9.08 48.344 0.048 6.92 2.91 11.54
3/25/2021 12:00:00 PM 9.31 48.758 0.048 6.93 2.86 11.5
3/25/2021 12:15:00 PM 9.53 49.154 0.047 6.94 2.99 11.45
3/25/2021 12:30:00 PM 9.76 49.568 0.047 6.95 2.84 11.4
3/25/2021 12:45:00 PM 10 50 0.047 6.96 2.88 11.36
3/25/2021 1:00:00 PM 10.21 50.378 0.047 6.96 2.82 11.3
3/25/2021 1:15:00 PM 10.42 50.756 0.047 6.96 2.94 11.25
3/25/2021 1:30:00 PM 10.6 51.08 0.047 6.97 2.89 11.2
3/25/2021 1:45:00 PM 10.8 51.44 0.047 6.98 3.02 11.14
3/25/2021 2:00:00 PM 10.98 51.764 0.047 6.98 2.85 11.09
3/25/2021 2:15:00 PM 11.15 52.07 0.047 6.99 2.87 11.05
3/25/2021 2:30:00 PM 11.31 52.358 0.047 6.98 2.86 11
3/25/2021 2:45:00 PM 11.46 52.628 0.047 6.99 2.93 10.95
3/25/2021 3:00:00 PM 11.58 52.844 0.047 6.99 2.95 10.91
3/25/2021 3:15:00 PM 11.68 53.024 0.047 6.98 2.97 10.86
3/25/2021 3:30:00 PM 11.72 53.096 0.047 6.97 2.89 10.83
3/25/2021 3:45:00 PM 11.77 53.186 0.047 6.96 3.04 10.8
3/25/2021 4:00:00 PM 11.8 53.24 0.047 6.96 3.02 10.76
3/25/2021 4:15:00 PM 11.8 53.24 0.047 6.95 3.09 10.74
3/25/2021 4:30:00 PM 11.81 53.258 0.047 6.95 3.04 10.72
3/25/2021 4:45:00 PM 11.8 53.24 0.047 6.93 3 10.7
3/25/2021 5:00:00 PM 11.79 53.222 0.047 6.92 3.09 10.69
3/25/2021 5:15:00 PM 11.77 53.186 0.047 6.92 3.13 10.67
3/25/2021 5:30:00 PM 11.73 53.114 0.047 6.89 3 10.64
3/25/2021 5:45:00 PM 11.69 53.042 0.047 6.89 3.09 10.61
3/25/2021 6:00:00 PM 11.63 52.934 0.047 6.85 3.06 10.58
3/25/2021 6:15:00 PM 11.57 52.826 0.047 6.84 3.08 10.54
3/25/2021 6:30:00 PM 11.5 52.7 0.047 6.83 3.31 10.52
3/25/2021 6:45:00 PM 11.43 52.574 0.047 6.79 3.34 10.48
3/25/2021 7:00:00 PM 11.36 52.448 0.047 6.78 3.28 10.46
3/25/2021 7:15:00 PM 11.29 52.322 0.047 6.77 3.28 10.45
3/25/2021 7:30:00 PM 11.22 52.196 0.047 6.75 3.21 10.42
3/25/2021 7:45:00 PM 11.17 52.106 0.048 6.73 3.33 10.4
3/25/2021 8:00:00 PM 11.11 51.998 0.048 6.73 3.37 10.38
3/25/2021 8:15:00 PM 11.06 51.908 0.048 6.72 3.29 10.38
3/25/2021 8:30:00 PM 11 51.8 0.048 6.72 3.3 10.37
3/25/2021 8:45:00 PM 10.96 51.728 0.048 6.71 3.4 10.37
3/25/2021 9:00:00 PM 10.92 51.656 0.048 6.71 3.35 10.38
3/25/2021 9:15:00 PM 10.88 51.584 0.048 6.72 3.47 10.38
3/25/2021 9:30:00 PM 10.84 51.512 0.048 6.71 3.3 10.39
3/25/2021 9:45:00 PM 10.8 51.44 0.048 6.7 3.35 10.39
3/25/2021 10:00:00 PM 10.76 51.368 0.048 6.69 3.45 10.4
3/25/2021 10:15:00 PM 10.73 51.314 0.048 6.7 3.28 10.41
3/25/2021 10:30:00 PM 10.7 51.26 0.048 6.69 3.46 10.41
3/25/2021 10:45:00 PM 10.66 51.188 0.048 6.69 3.5 10.42
3/25/2021 11:00:00 PM 10.63 51.134 0.048 6.68 3.42 10.42
3/25/2021 11:15:00 PM 10.6 51.08 0.048 6.68 3.54 10.43
3/25/2021 11:30:00 PM 10.58 51.044 0.048 6.68 3.32 10.44
3/25/2021 11:45:00 PM 10.55 50.99 0.048 6.69 3.38 10.44
3/26/2021 12:00:00 AM 10.53 50.954 0.048 6.68 3.5 10.45
3/26/2021 12:15:00 AM 10.5 50.9 0.048 6.68 3.39 10.45
3/26/2021 12:30:00 AM 10.48 50.864 0.048 6.68 3.37 10.46
3/26/2021 12:45:00 AM 10.45 50.81 0.048 6.69 3.46 10.46
3/26/2021 1:00:00 AM 10.43 50.774 0.048 6.69 3.39 10.47
3/26/2021 1:15:00 AM 10.4 50.72 0.048 6.7 3.42 10.46
3/26/2021 1:30:00 AM 10.38 50.684 0.048 6.7 3.39 10.48
3/26/2021 1:45:00 AM 10.36 50.648 0.048 6.71 3.34 10.48
3/26/2021 2:00:00 AM 10.33 50.594 0.049 6.71 3.4 10.47
3/26/2021 2:15:00 AM 10.31 50.558 0.048 6.7 3.44 10.49
3/26/2021 2:30:00 AM 10.29 50.522 0.048 6.7 3.38 10.48
3/26/2021 2:45:00 AM 10.26 50.468 0.049 6.7 3.35 10.5
3/26/2021 3:00:00 AM 10.23 50.414 0.048 6.7 3.41 10.5
3/26/2021 3:15:00 AM 10.21 50.378 0.049 6.7 3.32 10.49
3/26/2021 3:30:00 AM 10.18 50.324 0.048 6.69 3.35 10.5
3/26/2021 3:45:00 AM 10.16 50.288 0.049 6.7 3.33 10.51
3/26/2021 4:00:00 AM 10.13 50.234 0.049 6.69 3.37 10.51
3/26/2021 4:15:00 AM 10.11 50.198 0.049 6.7 3.31 10.51
3/26/2021 4:30:00 AM 10.08 50.144 0.049 6.69 3.35 10.51
3/26/2021 4:45:00 AM 10.05 50.09 0.049 6.68 3.31 10.52
3/26/2021 5:00:00 AM 10.01 50.018 0.049 6.68 3.3 10.51
3/26/2021 5:15:00 AM 9.97 49.946 0.049 6.68 3.26 10.52
3/26/2021 5:30:00 AM 9.94 49.892 0.049 6.69 3.35 10.54
3/26/2021 5:45:00 AM 9.93 49.874 0.049 6.69 3.47 10.53
3/26/2021 6:00:00 AM 9.92 49.856 0.048 6.71 3.33 10.53
3/26/2021 6:15:00 AM 9.9 49.82 0.048 6.71 3.36 10.53
3/26/2021 6:30:00 AM 9.87 49.766 0.049 6.7 3.26 10.55
3/26/2021 6:45:00 AM 9.83 49.694 0.049 6.69 3.37 10.54
3/26/2021 7:00:00 AM 9.8 49.64 0.048 6.69 3.48 10.56
3/26/2021 7:15:00 AM 9.76 49.568 0.049 6.7 3.37 10.57
3/26/2021 7:30:00 AM 9.73 49.514 0.048 6.69 3.47 10.59
3/26/2021 7:45:00 AM 9.72 49.496 0.048 6.7 3.36 10.62
3/26/2021 8:00:00 AM 9.71 49.478 0.048 6.71 3.41 10.66
3/26/2021 8:15:00 AM 9.72 49.496 0.048 6.73 3.47 10.72
3/26/2021 8:30:00 AM 9.74 49.532 0.048 6.77 3.33 10.74
3/26/2021 8:45:00 AM 9.76 49.568 0.048 6.77 3.37 10.78
3/26/2021 9:00:00 AM 9.8 49.64 0.048 6.79 3.28 10.84
3/26/2021 9:15:00 AM 9.82 49.676 0.048 6.8 3.41 10.84
3/26/2021 9:30:00 AM 9.83 49.694 0.048 6.81 3.51 10.82
3/26/2021 9:45:00 AM 9.86 49.748 0.048 6.82 3.56 10.86
3/26/2021 10:00:00 AM 9.95 49.91 0.048 6.85 3.59 10.91
3/26/2021 10:15:00 AM 10 50 0.048 6.86 3.72 10.92
3/26/2021 10:30:00 AM 10.01 50.018 0.048 6.85 3.86 10.94
3/26/2021 10:45:00 AM 10.01 50.018 0.048 6.88 3.91 10.91
3/26/2021 11:00:00 AM 10.01 50.018 0.048 6.86 4.36 10.87
3/26/2021 11:15:00 AM 10.01 50.018 0.048 6.87 4.38 10.9
3/26/2021 11:30:00 AM 10.02 50.036 0.048 6.86 4.94 10.93
3/26/2021 11:45:00 AM 10.01 50.018 0.048 6.87 4.94 10.9
3/26/2021 12:00:00 PM 9.99 49.982 0.049 6.86 5.09 10.88
3/26/2021 12:15:00 PM 9.98 49.964 0.048 6.83 5.23 10.89
3/26/2021 12:30:00 PM 9.99 49.982 0.048 6.84 5.23 10.92
3/26/2021 12:45:00 PM 10.05 50.09 0.048 6.88 4.9 10.97
3/26/2021 1:00:00 PM 10.13 50.234 0.048 6.91 4.88 11
3/26/2021 1:15:00 PM 10.18 50.324 0.048 6.91 4.52 11
3/26/2021 1:30:00 PM 10.21 50.378 0.048 6.92 4.52 11.02
3/26/2021 1:45:00 PM 10.26 50.468 0.048 6.92 4.32 11.02
3/26/2021 2:00:00 PM 10.24 50.432 0.048 6.91 4.25 11
3/26/2021 2:15:00 PM 10.24 50.432 0.048 6.91 4.22 11.02
3/26/2021 2:30:00 PM 10.24 50.432 0.048 6.92 4.04 11.03
3/26/2021 2:45:00 PM 10.23 50.414 0.048 6.93 3.95 11.04
3/26/2021 3:00:00 PM 10.19 50.342 0.048 6.92 3.93 11.03
3/26/2021 3:15:00 PM 10.18 50.324 0.048 6.92 3.91 11.03
3/26/2021 3:30:00 PM 10.14 50.252 0.048 6.92 3.73 11.03
3/26/2021 3:45:00 PM 10.1 50.18 0.049 6.91 3.77 11.01
3/26/2021 4:00:00 PM 10.06 50.108 0.049 6.91 3.76 11.02
3/26/2021 4:15:00 PM 10.04 50.072 0.048 6.91 3.68 11.04
3/26/2021 4:30:00 PM 10.02 50.036 0.048 6.92 3.54 11.05
3/26/2021 4:45:00 PM 10 50 0.049 6.92 3.72 11.07
3/26/2021 5:00:00 PM 9.95 49.91 0.048 6.92 3.55 11.07
3/26/2021 5:15:00 PM 9.91 49.838 0.049 6.9 3.6 11.05
3/26/2021 5:30:00 PM 9.84 49.712 0.048 6.88 3.49 11.05
3/26/2021 5:45:00 PM 9.78 49.604 0.049 6.88 3.52 11.04
3/26/2021 6:00:00 PM 9.72 49.496 0.049 6.86 3.45 11.03
3/26/2021 6:15:00 PM 9.65 49.37 0.049 6.85 3.51 11.03
3/26/2021 6:30:00 PM 9.58 49.244 0.049 6.84 3.47 11.02
3/26/2021 6:45:00 PM 9.51 49.118 0.049 6.82 3.45 11.01
3/26/2021 7:00:00 PM 9.43 48.974 0.049 6.82 3.48 11
3/26/2021 7:15:00 PM 9.35 48.83 0.049 6.81 3.69 10.98
3/26/2021 7:30:00 PM 9.28 48.704 0.049 6.78 3.48 10.97
3/26/2021 7:45:00 PM 9.21 48.578 0.049 6.77 3.49 10.95
3/26/2021 8:00:00 PM 9.14 48.452 0.049 6.76 3.43 10.94
3/26/2021 8:15:00 PM 9.07 48.326 0.049 6.74 3.56 10.95
3/26/2021 8:30:00 PM 9 48.2 0.049 6.7 3.58 10.95
3/26/2021 8:45:00 PM 8.93 48.074 0.049 6.73 3.32 10.95
3/26/2021 9:00:00 PM 8.87 47.966 0.049 6.73 3.3 10.97
3/26/2021 9:15:00 PM 8.81 47.858 0.05 6.71 3.33 10.98
3/26/2021 9:30:00 PM 8.75 47.75 0.049 6.71 3.38 11
3/26/2021 9:45:00 PM 8.7 47.66 0.05 6.71 3.39 11.01
3/26/2021 10:00:00 PM 8.65 47.57 0.05 6.71 3.47 11.03
3/26/2021 10:15:00 PM 8.6 47.48 0.05 6.69 3.5 11.05
3/26/2021 10:30:00 PM 8.55 47.39 0.049 6.71 3.3 11.06
3/26/2021 10:45:00 PM 8.5 47.3 0.05 6.7 3.52 11.07
3/26/2021 11:00:00 PM 8.46 47.228 0.05 6.7 3.36 11.09
3/26/2021 11:15:00 PM 8.41 47.138 0.049 6.71 3.47 11.1
3/26/2021 11:30:00 PM 8.37 47.066 0.049 6.7 3.38 11.11
3/26/2021 11:45:00 PM 8.33 46.994 0.05 6.7 3.46 11.12
3/27/2021 12:00:00 AM 8.29 46.922 0.05 6.68 3.42 11.13
3/27/2021 12:15:00 AM 8.26 46.868 0.05 6.7 3.34 11.14
3/27/2021 12:30:00 AM 8.22 46.796 0.049 6.7 3.35 11.15
3/27/2021 12:45:00 AM 8.18 46.724 0.05 6.66 3.33 11.16
3/27/2021 1:00:00 AM 8.15 46.67 0.05 6.71 3.24 11.17
3/27/2021 1:15:00 AM 8.11 46.598 0.049 6.68 3.38 11.18
3/27/2021 1:30:00 AM 8.08 46.544 0.05 6.69 3.19 11.19
3/27/2021 1:45:00 AM 8.05 46.49 0.05 6.71 3.24 11.2
3/27/2021 2:00:00 AM 8.02 46.436 0.05 6.7 3.16 11.21
3/27/2021 2:15:00 AM 7.99 46.382 0.049 6.7 3.36 11.22
3/27/2021 2:30:00 AM 7.96 46.328 0.05 6.69 3.28 11.23
3/27/2021 2:45:00 AM 7.93 46.274 0.05 6.69 3.21 11.23
3/27/2021 3:00:00 AM 7.9 46.22 0.05 6.7 3.24 11.24
3/27/2021 3:15:00 AM 7.87 46.166 0.05 6.7 3.27 11.25
3/27/2021 3:30:00 AM 7.85 46.13 0.05 6.69 3.3 11.25
3/27/2021 3:45:00 AM 7.82 46.076 0.05 6.7 3.4 11.26
3/27/2021 4:00:00 AM 7.8 46.04 0.05 6.69 3.41 11.26
3/27/2021 4:15:00 AM 7.78 46.004 0.05 6.69 3.3 11.28
3/27/2021 4:30:00 AM 7.75 45.95 0.05 6.69 3.2 11.29
3/27/2021 4:45:00 AM 7.73 45.914 0.05 6.69 3.2 11.29
3/27/2021 5:00:00 AM 7.7 45.86 0.05 6.68 3.24 11.3
3/27/2021 5:15:00 AM 7.67 45.806 0.05 6.69 3.26 11.31
3/27/2021 5:30:00 AM 7.64 45.752 0.05 6.68 3.18 11.31
3/27/2021 5:45:00 AM 7.61 45.698 0.05 6.67 3.45 11.32
3/27/2021 6:00:00 AM 7.58 45.644 0.05 6.68 3.19 11.33
3/27/2021 6:15:00 AM 7.54 45.572 0.05 6.68 3.06 11.34
3/27/2021 6:30:00 AM 7.51 45.518 0.05 6.67 3.14 11.35
3/27/2021 6:45:00 AM 7.48 45.464 0.05 6.68 3.17 11.37
3/27/2021 7:00:00 AM 7.45 45.41 0.05 6.68 3.13 11.38
3/27/2021 7:15:00 AM 7.42 45.356 0.05 6.68 3.12 11.39
3/27/2021 7:30:00 AM 7.41 45.338 0.05 6.68 3.1 11.42
3/27/2021 7:45:00 AM 7.38 45.284 0.05 6.69 2.97 11.46
3/27/2021 8:00:00 AM 7.36 45.248 0.05 6.71 3.08 11.52
3/27/2021 8:15:00 AM 7.36 45.248 0.05 6.72 3.06 11.57
3/27/2021 8:30:00 AM 7.38 45.284 0.049 6.73 2.95 11.63
3/27/2021 8:45:00 AM 7.39 45.302 0.05 6.75 2.98 11.68
3/27/2021 9:00:00 AM 7.41 45.338 0.049 6.77 2.95 11.74
3/27/2021 9:15:00 AM 7.46 45.428 0.049 6.8 3.09 11.77
3/27/2021 9:30:00 AM 7.53 45.554 0.049 6.81 2.93 11.78
3/27/2021 9:45:00 AM 7.59 45.662 0.049 6.84 2.86 11.81
3/27/2021 10:00:00 AM 7.67 45.806 0.049 6.85 2.78 11.82
3/27/2021 10:15:00 AM 7.74 45.932 0.049 6.86 2.79 11.81
3/27/2021 10:30:00 AM 7.81 46.058 0.049 6.88 2.81 11.81
3/27/2021 10:45:00 AM 7.93 46.274 0.049 6.9 2.74 11.81
3/27/2021 11:00:00 AM 8.05 46.49 0.049 6.91 2.84 11.79
3/27/2021 11:15:00 AM 8.13 46.634 0.049 6.92 2.85 11.78
3/27/2021 11:30:00 AM 8.19 46.742 0.049 6.93 2.85 11.76
3/27/2021 11:45:00 AM 8.39 47.102 0.049 6.96 2.62 11.73
3/27/2021 12:00:00 PM 8.67 47.606 0.049 6.98 2.72 11.68
3/27/2021 12:15:00 PM 8.97 48.146 0.049 6.98 2.8 11.63
3/27/2021 12:30:00 PM 9.1 48.38 0.049 6.97 2.8 11.59
3/27/2021 12:45:00 PM 9.27 48.686 0.048 6.99 2.81 11.55
3/27/2021 1:00:00 PM 9.56 49.208 0.049 7.01 2.75 11.49
3/27/2021 1:15:00 PM 9.78 49.604 0.048 7 2.67 11.44
3/27/2021 1:30:00 PM 9.92 49.856 0.048 7.01 2.56 11.39
3/27/2021 1:45:00 PM 10.08 50.144 0.048 7.01 2.77 11.35
3/27/2021 2:00:00 PM 10.22 50.396 0.048 7.01 2.78 11.32
3/27/2021 2:15:00 PM 10.39 50.702 0.048 7.03 2.89 11.27
3/27/2021 2:30:00 PM 10.58 51.044 0.048 7.03 2.85 11.22
3/27/2021 2:45:00 PM 10.75 51.35 0.048 7.03 2.83 11.17
3/27/2021 3:00:00 PM 10.87 51.566 0.048 7.03 2.8 11.12
3/27/2021 3:15:00 PM 10.97 51.746 0.048 7.04 2.8 11.08
3/27/2021 3:30:00 PM 11.09 51.962 0.048 7.04 2.77 11.04
3/27/2021 3:45:00 PM 11.18 52.124 0.048 7.04 2.83 11
3/27/2021 4:00:00 PM 11.26 52.268 0.048 7.04 2.74 10.96
3/27/2021 4:15:00 PM 11.33 52.394 0.048 7.03 2.86 10.93
3/27/2021 4:30:00 PM 11.37 52.466 0.048 7.03 2.87 10.91
3/27/2021 4:45:00 PM 11.41 52.538 0.048 7.03 3.04 10.89
3/27/2021 5:00:00 PM 11.46 52.628 0.048 7.02 3.02 10.87
3/27/2021 5:15:00 PM 11.49 52.682 0.048 7.01 3 10.84
3/27/2021 5:30:00 PM 11.5 52.7 0.048 6.99 2.96 10.82
3/27/2021 5:45:00 PM 11.48 52.664 0.048 6.98 2.88 10.8
3/27/2021 6:00:00 PM 11.43 52.574 0.048 6.97 2.82 10.77
3/27/2021 6:15:00 PM 11.35 52.43 0.048 6.96 2.78 10.74
3/27/2021 6:30:00 PM 11.25 52.25 0.048 6.93 2.89 10.7
3/27/2021 6:45:00 PM 11.17 52.106 0.048 6.91 2.88 10.67
3/27/2021 7:00:00 PM 11.07 51.926 0.048 6.9 2.96 10.63
3/27/2021 7:15:00 PM 10.97 51.746 0.049 6.86 3.08 10.6
3/27/2021 7:30:00 PM 10.86 51.548 0.049 6.83 3.08 10.57
3/27/2021 7:45:00 PM 10.75 51.35 0.049 6.82 3.06 10.54
3/27/2021 8:00:00 PM 10.63 51.134 0.049 6.79 2.99 10.53
3/27/2021 8:15:00 PM 10.53 50.954 0.049 6.77 3.05 10.52
3/27/2021 8:30:00 PM 10.42 50.756 0.049 6.76 3.06 10.52
3/27/2021 8:45:00 PM 10.32 50.576 0.049 6.74 3.22 10.54
3/27/2021 9:00:00 PM 10.22 50.396 0.049 6.74 3.14 10.53
3/27/2021 9:15:00 PM 10.11 50.198 0.049 6.73 3 10.57
3/27/2021 9:30:00 PM 10 50 0.049 6.7 3.11 10.59
3/27/2021 9:45:00 PM 9.88 49.784 0.049 6.7 3.11 10.61
3/27/2021 10:00:00 PM 9.76 49.568 0.05 6.71 3.08 10.64
3/27/2021 10:15:00 PM 9.65 49.37 0.05 6.7 3.1 10.66
3/27/2021 10:30:00 PM 9.55 49.19 0.05 6.69 3.31 10.69
3/27/2021 10:45:00 PM 9.45 49.01 0.05 6.7 3.21 10.71
3/27/2021 11:00:00 PM 9.35 48.83 0.05 6.69 3.38 10.74
3/27/2021 11:15:00 PM 9.26 48.668 0.05 6.7 3.27 10.76
3/27/2021 11:30:00 PM 9.17 48.506 0.05 6.69 3.24 10.78
3/27/2021 11:45:00 PM 9.08 48.344 0.05 6.7 3.23 10.8
3/28/2021 12:00:00 AM 8.99 48.182 0.05 6.69 3.23 10.82
3/28/2021 12:15:00 AM 8.9 48.02 0.05 6.69 3.19 10.85
3/28/2021 12:30:00 AM 8.8 47.84 0.05 6.7 3.04 10.87
3/28/2021 12:45:00 AM 8.72 47.696 0.05 6.69 3.07 10.89
3/28/2021 1:00:00 AM 8.63 47.534 0.05 6.69 3.11 10.91
3/28/2021 1:15:00 AM 8.54 47.372 0.05 6.69 3.07 10.93
3/28/2021 1:30:00 AM 8.45 47.21 0.05 6.69 3.06 10.96
3/28/2021 1:45:00 AM 8.37 47.066 0.05 6.68 3.11 10.98
3/28/2021 2:00:00 AM 8.28 46.904 0.05 6.69 3.01 11
3/28/2021 2:15:00 AM 8.2 46.76 0.05 6.68 3.05 11.02
3/28/2021 2:30:00 AM 8.12 46.616 0.05 6.69 3.02 11.04
3/28/2021 2:45:00 AM 8.04 46.472 0.05 6.69 3.08 11.06
3/28/2021 3:00:00 AM 7.96 46.328 0.05 6.7 3.04 11.09
3/28/2021 3:15:00 AM 7.88 46.184 0.05 6.69 3 11.11
3/28/2021 3:30:00 AM 7.8 46.04 0.05 6.69 2.96 11.13
3/28/2021 3:45:00 AM 7.72 45.896 0.05 6.68 3.1 11.15
3/28/2021 4:00:00 AM 7.65 45.77 0.05 6.69 3.19 11.17
3/28/2021 4:15:00 AM 7.59 45.662 0.05 6.69 3.05 11.18
3/28/2021 4:30:00 AM 7.52 45.536 0.05 6.69 3.09 11.19
3/28/2021 4:45:00 AM 7.46 45.428 0.05 6.69 3.05 11.21
3/28/2021 5:00:00 AM 7.41 45.338 0.05 6.69 3.08 11.23
3/28/2021 5:15:00 AM 7.36 45.248 0.05 6.69 2.99 11.25
3/28/2021 5:30:00 AM 7.32 45.176 0.05 6.69 2.98 11.26
3/28/2021 5:45:00 AM 7.28 45.104 0.05 6.7 2.92 11.27
3/28/2021 6:00:00 AM 7.25 45.05 0.05 6.7 2.87 11.28
3/28/2021 6:15:00 AM 7.22 44.996 0.05 6.7 2.91 11.29
3/28/2021 6:30:00 AM 7.19 44.942 0.05 6.7 2.99 11.3
3/28/2021 6:45:00 AM 7.17 44.906 0.05 6.7 3.02 11.31
3/28/2021 7:00:00 AM 7.15 44.87 0.05 6.7 2.84 11.31
3/28/2021 7:15:00 AM 7.13 44.834 0.05 6.7 2.8 11.32
3/28/2021 7:30:00 AM 7.11 44.798 0.05 6.71 2.87 11.33
3/28/2021 7:45:00 AM 7.1 44.78 0.05 6.71 2.96 11.34
3/28/2021 8:00:00 AM 7.09 44.762 0.05 6.71 3.1 11.36
3/28/2021 8:15:00 AM 7.08 44.744 0.05 6.71 2.97 11.37
3/28/2021 8:30:00 AM 7.08 44.744 0.05 6.73 2.85 11.39
3/28/2021 8:45:00 AM 7.08 44.744 0.05 6.73 2.84 11.42
3/28/2021 9:00:00 AM 7.1 44.78 0.053 6.74 2.89 11.43
3/28/2021 9:15:00 AM 7.12 44.816 0.052 6.75 2.84 11.44
3/28/2021 9:30:00 AM 7.15 44.87 0.051 6.75 2.78 11.45
3/28/2021 9:45:00 AM 7.18 44.924 0.05 6.77 2.8 11.46
3/28/2021 10:00:00 AM 7.23 45.014 0.051 6.78 2.77 11.48
3/28/2021 10:15:00 AM 7.28 45.104 0.051 6.79 2.81 11.5
3/28/2021 10:30:00 AM 7.34 45.212 0.05 6.81 2.86 11.52
3/28/2021 10:45:00 AM 7.41 45.338 0.05 6.83 2.83 11.54
3/28/2021 11:00:00 AM 7.49 45.482 0.05 6.85 2.7 11.57
3/28/2021 11:15:00 AM 7.56 45.608 0.05 6.86 2.7 11.56
3/28/2021 11:30:00 AM 7.63 45.734 0.05 6.87 2.63 11.53
3/28/2021 11:45:00 AM 7.71 45.878 0.05 6.88 2.7 11.54
3/28/2021 12:00:00 PM 7.79 46.022 0.05 6.9 2.69 11.54
3/28/2021 12:15:00 PM 7.86 46.148 0.05 6.9 2.68 11.52
3/28/2021 12:30:00 PM 7.93 46.274 0.05 6.92 2.8 11.51
3/28/2021 12:45:00 PM 8.04 46.472 0.05 6.94 2.79 11.52
3/28/2021 1:00:00 PM 8.14 46.652 0.051 6.94 2.73 11.49
3/28/2021 1:15:00 PM 8.22 46.796 0.05 6.95 2.88 11.46
3/28/2021 1:30:00 PM 8.3 46.94 0.05 6.95 2.9 11.44
3/28/2021 1:45:00 PM 8.38 47.084 0.052 6.95 3.26 11.39
3/28/2021 2:00:00 PM 8.45 47.21 0.05 6.94 3.14 11.35
3/28/2021 2:15:00 PM 8.49 47.282 0.05 6.94 3.04 11.33
3/28/2021 2:30:00 PM 8.53 47.354 0.05 6.94 3.2 11.32
3/28/2021 2:45:00 PM 8.55 47.39 0.05 6.93 3.37 11.28
3/28/2021 3:00:00 PM 8.63 47.534 0.05 6.95 3.2 11.28
3/28/2021 3:15:00 PM 8.66 47.588 0.05 6.93 3.22 11.25
3/28/2021 3:30:00 PM 8.68 47.624 0.053 6.94 3.82 11.23
3/28/2021 3:45:00 PM 8.69 47.642 0.051 6.92 3.61 11.2
3/28/2021 4:00:00 PM 8.7 47.66 0.051 6.92 3.85 11.18
3/28/2021 4:15:00 PM 8.7 47.66 0.051 6.91 4.23 11.16
3/28/2021 4:30:00 PM 8.73 47.714 0.051 6.92 5.18 11.18
3/28/2021 4:45:00 PM 8.76 47.768 0.051 6.92 5.48 11.19
3/28/2021 5:00:00 PM 8.74 47.732 0.051 6.9 5.26 11.15
3/28/2021 5:15:00 PM 8.74 47.732 0.052 6.9 5.53 11.12
3/28/2021 5:30:00 PM 8.77 47.786 0.052 6.91 5.82 11.15
3/28/2021 5:45:00 PM 8.78 47.804 0.053 6.91 5.96 11.13
3/28/2021 6:00:00 PM 8.77 47.786 0.053 6.9 6.71 11.13
3/28/2021 6:15:00 PM 8.77 47.786 0.053 6.91 6.59 11.14
3/28/2021 6:30:00 PM 8.75 47.75 0.054 6.91 6.72 11.13
3/28/2021 6:45:00 PM 8.72 47.696 0.054 6.9 6.67 11.09
3/28/2021 7:00:00 PM 8.68 47.624 0.055 6.88 7.16 11.07
3/28/2021 7:15:00 PM 8.62 47.516 0.056 6.87 8.56 11.04
3/28/2021 7:30:00 PM 8.56 47.408 0.056 6.86 8.66 11.01
3/28/2021 7:45:00 PM 8.49 47.282 0.057 6.84 9.02 10.99
3/28/2021 8:00:00 PM 8.41 47.138 0.057 6.83 8.85 10.98
3/28/2021 8:15:00 PM 8.34 47.012 0.057 6.82 9 10.98
3/28/2021 8:30:00 PM 8.27 46.886 0.057 6.81 8.61 10.99
3/28/2021 8:45:00 PM 8.2 46.76 0.057 6.81 8.01 11
3/28/2021 9:00:00 PM 8.12 46.616 0.057 6.79 7.86 11.02
3/28/2021 9:15:00 PM 8.06 46.508 0.058 6.78 7.69 11.04
3/28/2021 9:30:00 PM 7.99 46.382 0.057 6.78 7.04 11.05
3/28/2021 9:45:00 PM 7.93 46.274 0.057 6.77 7.25 11.07
3/28/2021 10:00:00 PM 7.86 46.148 0.057 6.77 6.91 11.09
3/28/2021 10:15:00 PM 7.79 46.022 0.057 6.77 6.3 11.11
3/28/2021 10:30:00 PM 7.72 45.896 0.057 6.76 6.53 11.14
3/28/2021 10:45:00 PM 7.65 45.77 0.057 6.77 6.43 11.15
3/28/2021 11:00:00 PM 7.58 45.644 0.057 6.75 6.42 11.19
3/28/2021 11:15:00 PM 7.51 45.518 0.057 6.77 6.08 11.21
3/28/2021 11:30:00 PM 7.44 45.392 0.057 6.76 5.88 11.22
3/28/2021 11:45:00 PM 7.35 45.23 0.057 6.75 5.91 11.25
3/29/2021 12:00:00 AM 7.28 45.104 0.057 6.75 5.62 11.27
3/29/2021 12:15:00 AM 7.21 44.978 0.057 6.76 5.62 11.29
3/29/2021 12:30:00 AM 7.13 44.834 0.057 6.77 5.55 11.32
3/29/2021 12:45:00 AM 7.06 44.708 0.057 6.77 5.33 11.34
3/29/2021 1:00:00 AM 6.99 44.582 0.057 6.75 5.27 11.37
3/29/2021 1:15:00 AM 6.92 44.456 0.057 6.75 5.15 11.39
3/29/2021 1:30:00 AM 6.86 44.348 0.057 6.74 4.8 11.41
3/29/2021 1:45:00 AM 6.79 44.222 0.057 6.75 4.83 11.44
3/29/2021 2:00:00 AM 6.68 44.024 0.057 6.74 4.85 11.46
3/29/2021 2:15:00 AM 6.63 43.934 0.057 6.74 4.73 11.48
3/29/2021 2:30:00 AM 6.57 43.826 0.057 6.74 4.69 11.51
3/29/2021 2:45:00 AM 6.51 43.718 0.057 6.74 4.58 11.54
3/29/2021 3:00:00 AM 6.44 43.592 0.057 6.73 4.68 11.55
3/29/2021 3:15:00 AM 6.37 43.466 0.057 6.75 4.65 11.57
3/29/2021 3:30:00 AM 6.3 43.34 0.057 6.74 4.35 11.59
3/29/2021 3:45:00 AM 6.23 43.214 0.057 6.74 4.11 11.63
3/29/2021 4:00:00 AM 6.16 43.088 0.057 6.75 4.4 11.66
3/29/2021 4:15:00 AM 6.1 42.98 0.057 6.73 4.41 11.68
3/29/2021 4:30:00 AM 6.04 42.872 0.057 6.74 4.24 11.7
3/29/2021 4:45:00 AM 5.99 42.782 0.057 6.74 4.17 11.72
3/29/2021 5:00:00 AM 5.93 42.674 0.057 6.73 3.98 11.74
3/29/2021 5:15:00 AM 5.88 42.584 0.057 6.73 4.2 11.76
3/29/2021 5:30:00 AM 5.82 42.476 0.057 6.74 4.16 11.78
3/29/2021 5:45:00 AM 5.77 42.386 0.057 6.74 3.97 11.8
3/29/2021 6:00:00 AM 5.72 42.296 0.057 6.74 3.99 11.82
3/29/2021 6:15:00 AM 5.66 42.188 0.057 6.75 3.76 11.85
3/29/2021 6:30:00 AM 5.59 42.062 0.057 6.74 3.79 11.87
3/29/2021 6:45:00 AM 5.54 41.972 0.057 6.74 3.91 11.89
3/29/2021 7:00:00 AM 5.49 41.882 0.057 6.74 3.94 11.92
3/29/2021 7:15:00 AM 5.45 41.81 0.057 6.74 3.61 11.94
3/29/2021 7:30:00 AM 5.41 41.738 0.057 6.74 3.81 11.96
3/29/2021 7:45:00 AM 5.36 41.648 0.057 6.74 3.68 11.99
3/29/2021 8:00:00 AM 5.32 41.576 0.057 6.76 3.56 12.04
3/29/2021 8:15:00 AM 5.3 41.54 0.057 6.75 3.56 12.09
3/29/2021 8:30:00 AM 5.27 41.486 0.057 6.76 3.56 12.15
3/29/2021 8:45:00 AM 5.24 41.432 0.057 6.78 3.62 12.2
3/29/2021 9:00:00 AM 5.22 41.396 0.057 6.79 3.4 12.26
3/29/2021 9:15:00 AM 5.22 41.396 0.057 6.81 3.36 12.31
3/29/2021 9:30:00 AM 5.22 41.396 0.056 6.82 3.48 12.35
3/29/2021 9:45:00 AM 5.21 41.378 0.056 6.82 3.32 12.38
3/29/2021 10:00:00 AM 5.21 41.378 0.056 6.83 3.24 12.41
3/29/2021 10:15:00 AM 5.22 41.396 0.056 6.85 3.18 12.44
3/29/2021 10:30:00 AM 5.24 41.432 0.056 6.86 3.32 12.46
3/29/2021 10:45:00 AM 5.27 41.486 0.056 6.86 3.31 12.48
3/29/2021 11:00:00 AM 5.32 41.576 0.056 6.88 3.04 12.5
3/29/2021 11:15:00 AM 5.36 41.648 0.056 6.88 3.11 12.51
3/29/2021 11:30:00 AM 5.43 41.774 0.055 6.89 3.01 12.51
3/29/2021 11:45:00 AM 5.5 41.9 0.055 6.9 2.99 12.52
3/29/2021 12:00:00 PM 5.56 42.008 0.055 6.91 3 12.51
3/29/2021 12:15:00 PM 5.64 42.152 0.055 6.92 2.97 12.5
3/29/2021 12:30:00 PM 5.73 42.314 0.055 6.92 2.88 12.49
3/29/2021 12:45:00 PM 5.9 42.62 0.055 6.95 2.85 12.47
3/29/2021 1:00:00 PM 6.04 42.872 0.055 6.95 2.96 12.43
3/29/2021 1:15:00 PM 6.19 43.142 0.055 6.96 2.94 12.39
3/29/2021 1:30:00 PM 6.31 43.358 0.055 6.95 2.81 12.37
3/29/2021 1:45:00 PM 6.48 43.664 0.055 6.97 2.84 12.33
3/29/2021 2:00:00 PM 6.74 44.132 0.055 6.99 2.97 12.29
3/29/2021 2:15:00 PM 6.97 44.546 0.054 6.98 2.9 12.23
3/29/2021 2:30:00 PM 7.22 44.996 0.054 7 2.73 12.17
3/29/2021 2:45:00 PM 7.46 45.428 0.054 7 2.82 12.11
3/29/2021 3:00:00 PM 7.62 45.716 0.054 7 2.88 12.05
3/29/2021 3:15:00 PM 7.75 45.95 0.054 7 2.75 12.01
3/29/2021 3:30:00 PM 7.84 46.112 0.054 6.99 2.93 11.97
3/29/2021 3:45:00 PM 7.93 46.274 0.054 6.99 2.7 11.92
3/29/2021 4:00:00 PM 8.03 46.454 0.054 6.99 2.8 11.87
3/29/2021 4:15:00 PM 8.12 46.616 0.054 6.99 2.79 11.83
3/29/2021 4:30:00 PM 8.2 46.76 0.054 6.99 2.88 11.78
3/29/2021 4:45:00 PM 8.27 46.886 0.054 6.98 2.86 11.74
3/29/2021 5:00:00 PM 8.3 46.94 0.054 6.98 3.13 11.71
3/29/2021 5:15:00 PM 8.31 46.958 0.054 6.96 2.85 11.68
3/29/2021 5:30:00 PM 8.3 46.94 0.054 6.95 2.94 11.66
3/29/2021 5:45:00 PM 8.26 46.868 0.054 6.95 2.91 11.64
3/29/2021 6:00:00 PM 8.21 46.778 0.054 6.94 2.87 11.62
3/29/2021 6:15:00 PM 8.12 46.616 0.054 6.92 2.85 11.61
3/29/2021 6:30:00 PM 8.01 46.418 0.053 6.89 2.77 11.59
3/29/2021 6:45:00 PM 7.91 46.238 0.054 6.9 3.07 11.57
3/29/2021 7:00:00 PM 7.78 46.004 0.054 6.87 2.99 11.56
3/29/2021 7:15:00 PM 7.63 45.734 0.054 6.86 2.9 11.56
3/29/2021 7:30:00 PM 7.48 45.464 0.054 6.84 2.87 11.56
3/29/2021 7:45:00 PM 7.34 45.212 0.054 6.82 3.11 11.55
3/29/2021 8:00:00 PM 7.2 44.96 0.054 6.8 2.93 11.56
3/29/2021 8:15:00 PM 7.06 44.708 0.054 6.78 3.01 11.56
3/29/2021 8:30:00 PM 6.92 44.456 0.054 6.77 3.08 11.58
3/29/2021 8:45:00 PM 6.78 44.204 0.054 6.76 2.92 11.61
3/29/2021 9:00:00 PM 6.64 43.952 0.054 6.75 3 11.64
3/29/2021 9:15:00 PM 6.51 43.718 0.054 6.73 2.93 11.67
3/29/2021 9:30:00 PM 6.37 43.466 0.054 6.72 2.93 11.71
3/29/2021 9:45:00 PM 6.25 43.25 0.054 6.73 2.85 11.74
3/29/2021 10:00:00 PM 6.14 43.052 0.054 6.71 3.04 11.77
3/29/2021 10:15:00 PM 6.05 42.89 0.054 6.73 3.04 11.8
3/29/2021 10:30:00 PM 5.95 42.71 0.054 6.72 3.11 11.82
3/29/2021 10:45:00 PM 5.87 42.566 0.054 6.72 2.83 11.85
3/29/2021 11:00:00 PM 5.79 42.422 0.054 6.72 2.89 11.88
3/29/2021 11:15:00 PM 5.7 42.26 0.054 6.72 2.89 11.9
3/29/2021 11:30:00 PM 5.62 42.116 0.054 6.72 2.9 11.93
3/29/2021 11:45:00 PM 5.54 41.972 0.054 6.72 2.99 11.95
3/30/2021 12:00:00 AM 5.47 41.846 0.054 6.72 3 11.98
3/30/2021 12:15:00 AM 5.39 41.702 0.054 6.71 2.89 12.01
3/30/2021 12:30:00 AM 5.32 41.576 0.054 6.71 2.87 12.03
3/30/2021 12:45:00 AM 5.24 41.432 0.054 6.71 2.87 12.05
3/30/2021 1:00:00 AM 5.17 41.306 0.054 6.7 3.01 12.08
3/30/2021 1:15:00 AM 5.1 41.18 0.054 6.71 2.83 12.11
3/30/2021 1:30:00 AM 5.02 41.036 0.054 6.71 2.86 12.13
3/30/2021 1:45:00 AM 4.96 40.928 0.054 6.72 2.99 12.16
3/30/2021 2:00:00 AM 4.89 40.802 0.054 6.71 2.84 12.18
3/30/2021 2:15:00 AM 4.82 40.676 0.054 6.7 2.88 12.2
3/30/2021 2:30:00 AM 4.75 40.55 0.054 6.7 2.87 12.22
3/30/2021 2:45:00 AM 4.69 40.442 0.054 6.71 2.84 12.25
3/30/2021 3:00:00 AM 4.62 40.316 0.054 6.7 2.78 12.27
3/30/2021 3:15:00 AM 4.55 40.19 0.054 6.71 2.73 12.29
3/30/2021 3:30:00 AM 4.49 40.082 0.054 6.7 2.75 12.31
3/30/2021 3:45:00 AM 4.42 39.956 0.054 6.7 2.8 12.33
3/30/2021 4:00:00 AM 4.36 39.848 0.054 6.71 2.85 12.36
3/30/2021 4:15:00 AM 4.3 39.74 0.054 6.7 2.72 12.38
3/30/2021 4:30:00 AM 4.24 39.632 0.053 6.7 2.8 12.4
3/30/2021 4:45:00 AM 4.17 39.506 0.054 6.7 2.76 12.42
3/30/2021 5:00:00 AM 4.11 39.398 0.054 6.7 2.76 12.44
3/30/2021 5:15:00 AM 4.06 39.308 0.053 6.7 2.78 12.47
3/30/2021 5:30:00 AM 4 39.2 0.053 6.69 3.15 12.49
3/30/2021 5:45:00 AM 3.94 39.092 0.053 6.7 2.73 12.51
3/30/2021 6:00:00 AM 3.88 38.984 0.053 6.69 2.69 12.53
3/30/2021 6:15:00 AM 3.83 38.894 0.053 6.7 2.82 12.55
3/30/2021 6:30:00 AM 3.77 38.786 0.053 6.69 2.66 12.56
3/30/2021 6:45:00 AM 3.71 38.678 0.053 6.68 2.65 12.58
3/30/2021 7:00:00 AM 3.66 38.588 0.053 6.7 2.71 12.6
3/30/2021 7:15:00 AM 3.61 38.498 0.053 6.69 2.61 12.63
3/30/2021 7:30:00 AM 3.57 38.426 0.053 6.7 2.65 12.68
3/30/2021 7:45:00 AM 3.53 38.354 0.053 6.71 2.67 12.73
3/30/2021 8:00:00 AM 3.49 38.282 0.053 6.72 2.62 12.78
3/30/2021 8:15:00 AM 3.47 38.246 0.053 6.73 2.62 12.83
3/30/2021 8:30:00 AM 3.47 38.246 0.053 6.74 2.62 12.88
3/30/2021 8:45:00 AM 3.47 38.246 0.053 6.74 2.63 12.92
3/30/2021 9:00:00 AM 3.5 38.3 0.053 6.75 2.5 12.95
3/30/2021 9:15:00 AM 3.56 38.408 0.053 6.77 2.56 12.97
3/30/2021 9:30:00 AM 3.63 38.534 0.053 6.79 2.62 12.98
3/30/2021 9:45:00 AM 3.72 38.696 0.052 6.81 2.49 12.99
3/30/2021 10:00:00 AM 3.83 38.894 0.052 6.81 2.49 12.99
3/30/2021 10:15:00 AM 3.96 39.128 0.052 6.83 2.49 12.98
3/30/2021 10:30:00 AM 4.12 39.416 0.052 6.84 2.48 12.96
3/30/2021 10:45:00 AM 4.32 39.776 0.052 6.86 2.42 12.92
3/30/2021 11:00:00 AM 4.55 40.19 0.052 6.88 2.4 12.88
3/30/2021 11:15:00 AM 4.8 40.64 0.052 6.89 2.42 12.82
3/30/2021 11:30:00 AM 5.07 41.126 0.052 6.9 2.35 12.76
3/30/2021 11:45:00 AM 5.36 41.648 0.052 6.92 2.39 12.69
3/30/2021 12:00:00 PM 5.67 42.206 0.052 6.93 2.28 12.61
3/30/2021 12:15:00 PM 5.98 42.764 0.052 6.94 2.33 12.53
3/30/2021 12:30:00 PM 6.3 43.34 0.051 6.95 2.3 12.44
3/30/2021 12:45:00 PM 6.65 43.97 0.051 6.95 2.31 12.35
3/30/2021 1:00:00 PM 6.97 44.546 0.051 6.96 2.32 12.26
3/30/2021 1:15:00 PM 7.31 45.158 0.051 6.97 2.44 12.16
3/30/2021 1:30:00 PM 7.62 45.716 0.051 6.98 2.51 12.08
3/30/2021 1:45:00 PM 7.97 46.346 0.051 6.98 2.32 11.96
3/30/2021 2:00:00 PM 8.29 46.922 0.051 6.98 2.4 11.88
3/30/2021 2:15:00 PM 8.59 47.462 0.051 6.99 2.31 11.79
3/30/2021 2:30:00 PM 8.87 47.966 0.051 7 2.4 11.7
3/30/2021 2:45:00 PM 9.13 48.434 0.051 7 2.32 11.62
3/30/2021 3:00:00 PM 9.38 48.884 0.051 7.01 2.4 11.54
3/30/2021 3:15:00 PM 9.61 49.298 0.051 7.01 2.36 11.47
3/30/2021 3:30:00 PM 9.8 49.64 0.051 7.02 2.42 11.4
3/30/2021 3:45:00 PM 9.98 49.964 0.05 7.02 2.35 11.34
3/30/2021 4:00:00 PM 10.09 50.162 0.05 7.01 2.37 11.27
3/30/2021 4:15:00 PM 10.21 50.378 0.05 7.02 2.43 11.23
3/30/2021 4:30:00 PM 10.33 50.594 0.051 7.01 2.39 11.2
3/30/2021 4:45:00 PM 10.4 50.72 0.05 7.01 2.55 11.15
3/30/2021 5:00:00 PM 10.45 50.81 0.05 7.01 2.44 11.13
3/30/2021 5:15:00 PM 10.47 50.846 0.05 7 2.41 11.09
3/30/2021 5:30:00 PM 10.48 50.864 0.05 6.99 2.6 11.06
3/30/2021 5:45:00 PM 10.44 50.792 0.051 6.97 2.71 11.02
3/30/2021 6:00:00 PM 10.39 50.702 0.051 6.96 2.59 11
3/30/2021 6:15:00 PM 10.34 50.612 0.05 6.94 2.57 10.99
3/30/2021 6:30:00 PM 10.25 50.45 0.05 6.94 2.57 10.96
3/30/2021 6:45:00 PM 10.15 50.27 0.05 6.91 2.67 10.95
3/30/2021 7:00:00 PM 10.07 50.126 0.051 6.9 2.65 10.93
3/30/2021 7:15:00 PM 9.95 49.91 0.051 6.89 2.6 10.92
3/30/2021 7:30:00 PM 9.84 49.712 0.051 6.87 2.63 10.9
3/30/2021 7:45:00 PM 9.73 49.514 0.051 6.84 2.6 10.86
3/30/2021 8:00:00 PM 9.62 49.316 0.051 6.83 2.78 10.84
3/30/2021 8:15:00 PM 9.51 49.118 0.051 6.82 2.75 10.83
3/30/2021 8:30:00 PM 9.41 48.938 0.051 6.79 2.87 10.83
3/30/2021 8:45:00 PM 9.31 48.758 0.051 6.79 2.9 10.84
3/30/2021 9:00:00 PM 9.21 48.578 0.051 6.77 2.9 10.85
3/30/2021 9:15:00 PM 9.12 48.416 0.051 6.76 2.83 10.86
3/30/2021 9:30:00 PM 9.04 48.272 0.051 6.76 2.82 10.88
3/30/2021 9:45:00 PM 8.96 48.128 0.051 6.76 2.92 10.91
3/30/2021 10:00:00 PM 8.89 48.002 0.051 6.76 2.91 10.92
3/30/2021 10:15:00 PM 8.83 47.894 0.051 6.76 2.94 10.93
3/30/2021 10:30:00 PM 8.77 47.786 0.051 6.75 2.88 10.95
3/30/2021 10:45:00 PM 8.72 47.696 0.051 6.75 2.91 10.97
3/30/2021 11:00:00 PM 8.66 47.588 0.051 6.75 2.89 10.98
3/30/2021 11:15:00 PM 8.61 47.498 0.051 6.74 3.13 10.99
3/30/2021 11:30:00 PM 8.55 47.39 0.051 6.74 3.01 11
3/30/2021 11:45:00 PM 8.5 47.3 0.051 6.74 2.96 11.02
3/31/2021 12:00:00 AM 8.44 47.192 0.051 6.74 3.03 11.04
3/31/2021 12:15:00 AM 8.38 47.084 0.051 6.75 3.04 11.05
3/31/2021 12:30:00 AM 8.32 46.976 0.051 6.74 3.02 11.06
3/31/2021 12:45:00 AM 8.27 46.886 0.051 6.74 3.02 11.08
3/31/2021 1:00:00 AM 8.23 46.814 0.051 6.75 3.06 11.09
3/31/2021 1:15:00 AM 8.18 46.724 0.051 6.75 2.93 11.11
3/31/2021 1:30:00 AM 8.14 46.652 0.051 6.75 3.03 11.12
3/31/2021 1:45:00 AM 8.1 46.58 0.051 6.74 2.96 11.13
3/31/2021 2:00:00 AM 8.05 46.49 0.051 6.74 2.82 11.15
3/31/2021 2:15:00 AM 8.01 46.418 0.051 6.75 2.95 11.16
3/31/2021 2:30:00 AM 7.96 46.328 0.051 6.74 2.86 11.17
3/31/2021 2:45:00 AM 7.91 46.238 0.051 6.74 2.86 11.19
3/31/2021 3:00:00 AM 7.85 46.13 0.051 6.74 2.94 11.2
3/31/2021 3:15:00 AM 7.8 46.04 0.051 6.74 2.88 11.21
3/31/2021 3:30:00 AM 7.75 45.95 0.051 6.73 2.84 11.22
3/31/2021 3:45:00 AM 7.7 45.86 0.051 6.72 2.95 11.24
3/31/2021 4:00:00 AM 7.65 45.77 0.051 6.73 2.94 11.25
3/31/2021 4:15:00 AM 7.61 45.698 0.051 6.73 2.96 11.26
3/31/2021 4:30:00 AM 7.57 45.626 0.051 6.73 2.92 11.27
3/31/2021 4:45:00 AM 7.53 45.554 0.051 6.71 2.88 11.28
3/31/2021 5:00:00 AM 7.5 45.5 0.051 6.72 2.85 11.28
3/31/2021 5:15:00 AM 7.46 45.428 0.051 6.72 2.82 11.3
3/31/2021 5:30:00 AM 7.43 45.374 0.051 6.72 2.83 11.31
3/31/2021 5:45:00 AM 7.4 45.32 0.051 6.72 2.98 11.32
3/31/2021 6:00:00 AM 7.37 45.266 0.051 6.72 2.84 11.33
3/31/2021 6:15:00 AM 7.34 45.212 0.051 6.73 2.84 11.35
3/31/2021 6:30:00 AM 7.3 45.14 0.051 6.73 2.81 11.35
3/31/2021 6:45:00 AM 7.27 45.086 0.051 6.72 2.85 11.36
3/31/2021 7:00:00 AM 7.25 45.05 0.051 6.72 2.78 11.37
3/31/2021 7:15:00 AM 7.22 44.996 0.051 6.72 2.93 11.38
3/31/2021 7:30:00 AM 7.21 44.978 0.051 6.72 2.8 11.4
3/31/2021 7:45:00 AM 7.19 44.942 0.051 6.73 2.75 11.41
3/31/2021 8:00:00 AM 7.18 44.924 0.051 6.73 2.81 11.43
3/31/2021 8:15:00 AM 7.17 44.906 0.051 6.75 2.78 11.45
3/31/2021 8:30:00 AM 7.16 44.888 0.051 6.74 2.79 11.47
3/31/2021 8:45:00 AM 7.15 44.87 0.051 6.75 2.77 11.5
3/31/2021 9:00:00 AM 7.14 44.852 0.051 6.76 2.7 11.51
3/31/2021 9:15:00 AM 7.14 44.852 0.054 6.76 2.87 11.53
3/31/2021 9:30:00 AM 7.14 44.852 0.052 6.77 3.27 11.55
3/31/2021 9:45:00 AM 7.15 44.87 0.051 6.77 3.14 11.59
3/31/2021 10:00:00 AM 7.17 44.906 0.05 6.79 2.77 11.64
3/31/2021 10:15:00 AM 7.19 44.942 0.05 6.79 2.91 11.67
3/31/2021 10:30:00 AM 7.21 44.978 0.05 6.81 2.83 11.67
3/31/2021 10:45:00 AM 7.23 45.014 0.051 6.82 2.9 11.68
3/31/2021 11:00:00 AM 7.24 45.032 0.05 6.82 2.82 11.68
3/31/2021 11:15:00 AM 7.25 45.05 0.05 6.82 2.81 11.66
3/31/2021 11:30:00 AM 7.27 45.086 0.05 6.84 2.91 11.66
3/31/2021 11:45:00 AM 7.29 45.122 0.05 6.83 2.98 11.66
3/31/2021 12:00:00 PM 7.31 45.158 0.05 6.84 3.18 11.67
3/31/2021 12:15:00 PM 7.33 45.194 0.05 6.85 3.48 11.69
3/31/2021 12:30:00 PM